<?xml version="1.0" encoding="UTF-8" standalone="no" ?>
<gpx xmlns="http://www.topografix.com/GPX/1/1" xmlns:xsi="http://www.w3.org/2001/XMLSchema-instance" xsi:schemaLocation="http://www.topografix.com/GPX/1/1 http://www.topografix.com/GPX/1/1/gpx.xsd" version="1.1" creator="VisuGPX - https://www.visugpx.com">
  <metadata>
    <name>Montrottier 28km </name>
    <desc><![CDATA[Randonnée effectuée le 12 avril 2022.
La vue dur le Château de Chamousset est omniprésente]]></desc>
  </metadata>
  <wpt lat="45.81953" lon="4.46423">
    <ele>605.5</ele>
    <name><![CDATA[Gite d'etape du Vallon]]></name>
    <type><![CDATA[hotel]]></type>
  </wpt>
  <trk>
    <name><![CDATA[2024-04-29 19:19:41]]></name>
    <extensions>
      <line xmlns="http://www.topografix.com/GPX/gpx_style/0/2">
        <color>0000FF</color>
        <width>4</width>
      </line>
    </extensions>
    <trkseg>
      <trkpt lat="45.81662" lon="4.46386">
        <ele>605.29</ele>
        <time>2024-04-29T10:17:21Z</time>
      </trkpt>
      <trkpt lat="45.81663" lon="4.46386">
        <ele>598.08</ele>
        <time>2024-04-29T10:17:37Z</time>
      </trkpt>
      <trkpt lat="45.81662" lon="4.46387">
        <ele>598.56</ele>
        <time>2024-04-29T10:18:08Z</time>
      </trkpt>
      <trkpt lat="45.81662" lon="4.46387">
        <ele>600.48</ele>
        <time>2024-04-29T10:18:18Z</time>
      </trkpt>
      <trkpt lat="45.81661" lon="4.46375">
        <ele>594.71</ele>
        <time>2024-04-29T10:18:32Z</time>
      </trkpt>
      <trkpt lat="45.81665" lon="4.46368">
        <ele>589.43</ele>
        <time>2024-04-29T10:18:45Z</time>
      </trkpt>
      <trkpt lat="45.81664" lon="4.46363">
        <ele>588.46</ele>
        <time>2024-04-29T10:18:59Z</time>
      </trkpt>
      <trkpt lat="45.81671" lon="4.46336">
        <ele>583.18</ele>
        <time>2024-04-29T10:19:15Z</time>
      </trkpt>
      <trkpt lat="45.81679" lon="4.4632">
        <ele>579.81</ele>
        <time>2024-04-29T10:19:27Z</time>
      </trkpt>
      <trkpt lat="45.81693" lon="4.46292">
        <ele>576.93</ele>
        <time>2024-04-29T10:19:46Z</time>
      </trkpt>
      <trkpt lat="45.81708" lon="4.46266">
        <ele>577.41</ele>
        <time>2024-04-29T10:20:05Z</time>
      </trkpt>
      <trkpt lat="45.81731" lon="4.4624">
        <ele>580.29</ele>
        <time>2024-04-29T10:20:26Z</time>
      </trkpt>
      <trkpt lat="45.81747" lon="4.46221">
        <ele>580.29</ele>
        <time>2024-04-29T10:20:43Z</time>
      </trkpt>
      <trkpt lat="45.81765" lon="4.462">
        <ele>580.29</ele>
        <time>2024-04-29T10:21:01Z</time>
      </trkpt>
      <trkpt lat="45.81777" lon="4.46184">
        <ele>580.77</ele>
        <time>2024-04-29T10:21:14Z</time>
      </trkpt>
      <trkpt lat="45.8179" lon="4.46154">
        <ele>583.18</ele>
        <time>2024-04-29T10:21:34Z</time>
      </trkpt>
      <trkpt lat="45.81799" lon="4.46123">
        <ele>584.14</ele>
        <time>2024-04-29T10:21:53Z</time>
      </trkpt>
      <trkpt lat="45.8181" lon="4.46092">
        <ele>581.73</ele>
        <time>2024-04-29T10:22:12Z</time>
      </trkpt>
      <trkpt lat="45.81821" lon="4.46065">
        <ele>580.77</ele>
        <time>2024-04-29T10:22:29Z</time>
      </trkpt>
      <trkpt lat="45.81825" lon="4.46035">
        <ele>578.85</ele>
        <time>2024-04-29T10:22:46Z</time>
      </trkpt>
      <trkpt lat="45.81826" lon="4.46002">
        <ele>576.45</ele>
        <time>2024-04-29T10:23:04Z</time>
      </trkpt>
      <trkpt lat="45.81829" lon="4.4598">
        <ele>575.49</ele>
        <time>2024-04-29T10:23:18Z</time>
      </trkpt>
      <trkpt lat="45.81837" lon="4.45952">
        <ele>577.41</ele>
        <time>2024-04-29T10:23:35Z</time>
      </trkpt>
      <trkpt lat="45.81841" lon="4.45943">
        <ele>581.25</ele>
        <time>2024-04-29T10:23:52Z</time>
      </trkpt>
      <trkpt lat="45.81844" lon="4.45937">
        <ele>582.22</ele>
        <time>2024-04-29T10:24:09Z</time>
      </trkpt>
      <trkpt lat="45.8186" lon="4.45912">
        <ele>586.06</ele>
        <time>2024-04-29T10:24:29Z</time>
      </trkpt>
      <trkpt lat="45.81871" lon="4.45887">
        <ele>589.43</ele>
        <time>2024-04-29T10:24:47Z</time>
      </trkpt>
      <trkpt lat="45.81876" lon="4.45867">
        <ele>591.83</ele>
        <time>2024-04-29T10:25:04Z</time>
      </trkpt>
      <trkpt lat="45.81873" lon="4.4586">
        <ele>591.83</ele>
        <time>2024-04-29T10:25:19Z</time>
      </trkpt>
      <trkpt lat="45.81869" lon="4.45859">
        <ele>595.19</ele>
        <time>2024-04-29T10:25:33Z</time>
      </trkpt>
      <trkpt lat="45.81867" lon="4.45862">
        <ele>595.67</ele>
        <time>2024-04-29T10:25:46Z</time>
      </trkpt>
      <trkpt lat="45.81867" lon="4.45863">
        <ele>597.12</ele>
        <time>2024-04-29T10:26:02Z</time>
      </trkpt>
      <trkpt lat="45.81868" lon="4.45862">
        <ele>598.56</ele>
        <time>2024-04-29T10:26:18Z</time>
      </trkpt>
      <trkpt lat="45.81866" lon="4.45859">
        <ele>599.04</ele>
        <time>2024-04-29T10:26:31Z</time>
      </trkpt>
      <trkpt lat="45.81868" lon="4.45858">
        <ele>598.56</ele>
        <time>2024-04-29T10:26:49Z</time>
      </trkpt>
      <trkpt lat="45.81868" lon="4.45856">
        <ele>598.56</ele>
        <time>2024-04-29T10:27:07Z</time>
      </trkpt>
      <trkpt lat="45.81869" lon="4.45857">
        <ele>599.04</ele>
        <time>2024-04-29T10:27:18Z</time>
      </trkpt>
      <trkpt lat="45.8187" lon="4.45861">
        <ele>601.44</ele>
        <time>2024-04-29T10:27:35Z</time>
      </trkpt>
      <trkpt lat="45.81871" lon="4.45861">
        <ele>601.92</ele>
        <time>2024-04-29T10:27:48Z</time>
      </trkpt>
      <trkpt lat="45.81877" lon="4.45856">
        <ele>600.96</ele>
        <time>2024-04-29T10:27:53Z</time>
      </trkpt>
      <trkpt lat="45.81882" lon="4.45803">
        <ele>607.21</ele>
        <time>2024-04-29T10:28:22Z</time>
      </trkpt>
      <trkpt lat="45.81882" lon="4.45797">
        <ele>608.65</ele>
        <time>2024-04-29T10:28:26Z</time>
      </trkpt>
      <trkpt lat="45.81866" lon="4.45801">
        <ele>609.61</ele>
        <time>2024-04-29T10:28:40Z</time>
      </trkpt>
      <trkpt lat="45.81842" lon="4.45812">
        <ele>611.06</ele>
        <time>2024-04-29T10:29:00Z</time>
      </trkpt>
      <trkpt lat="45.81805" lon="4.4583">
        <ele>612.02</ele>
        <time>2024-04-29T10:29:26Z</time>
      </trkpt>
      <trkpt lat="45.8177" lon="4.45857">
        <ele>612.5</ele>
        <time>2024-04-29T10:29:55Z</time>
      </trkpt>
      <trkpt lat="45.81738" lon="4.45891">
        <ele>612.02</ele>
        <time>2024-04-29T10:30:25Z</time>
      </trkpt>
      <trkpt lat="45.81709" lon="4.45925">
        <ele>614.42</ele>
        <time>2024-04-29T10:30:53Z</time>
      </trkpt>
      <trkpt lat="45.81669" lon="4.45961">
        <ele>619.71</ele>
        <time>2024-04-29T10:31:09Z</time>
      </trkpt>
      <trkpt lat="45.81648" lon="4.45971">
        <ele>621.15</ele>
        <time>2024-04-29T10:31:24Z</time>
      </trkpt>
      <trkpt lat="45.81621" lon="4.45976">
        <ele>620.19</ele>
        <time>2024-04-29T10:31:41Z</time>
      </trkpt>
      <trkpt lat="45.81597" lon="4.45985">
        <ele>620.19</ele>
        <time>2024-04-29T10:31:59Z</time>
      </trkpt>
      <trkpt lat="45.81567" lon="4.46004">
        <ele>622.59</ele>
        <time>2024-04-29T10:32:21Z</time>
      </trkpt>
      <trkpt lat="45.8155" lon="4.46037">
        <ele>625.47</ele>
        <time>2024-04-29T10:32:35Z</time>
      </trkpt>
      <trkpt lat="45.81538" lon="4.46073">
        <ele>628.36</ele>
        <time>2024-04-29T10:32:55Z</time>
      </trkpt>
      <trkpt lat="45.81518" lon="4.46096">
        <ele>632.2</ele>
        <time>2024-04-29T10:33:13Z</time>
      </trkpt>
      <trkpt lat="45.81486" lon="4.4612">
        <ele>637.97</ele>
        <time>2024-04-29T10:33:42Z</time>
      </trkpt>
      <trkpt lat="45.81454" lon="4.46133">
        <ele>639.89</ele>
        <time>2024-04-29T10:34:07Z</time>
      </trkpt>
      <trkpt lat="45.81431" lon="4.46139">
        <ele>635.57</ele>
        <time>2024-04-29T10:34:25Z</time>
      </trkpt>
      <trkpt lat="45.81407" lon="4.4614">
        <ele>634.61</ele>
        <time>2024-04-29T10:34:42Z</time>
      </trkpt>
      <trkpt lat="45.81377" lon="4.46154">
        <ele>635.57</ele>
        <time>2024-04-29T10:34:54Z</time>
      </trkpt>
      <trkpt lat="45.81356" lon="4.46194">
        <ele>639.41</ele>
        <time>2024-04-29T10:35:14Z</time>
      </trkpt>
      <trkpt lat="45.81346" lon="4.46212">
        <ele>644.7</ele>
        <time>2024-04-29T10:35:26Z</time>
      </trkpt>
      <trkpt lat="45.81344" lon="4.46213">
        <ele>645.18</ele>
        <time>2024-04-29T10:35:27Z</time>
      </trkpt>
      <trkpt lat="45.81343" lon="4.46214">
        <ele>645.66</ele>
        <time>2024-04-29T10:35:28Z</time>
      </trkpt>
      <trkpt lat="45.81322" lon="4.46223">
        <ele>652.87</ele>
        <time>2024-04-29T10:35:43Z</time>
      </trkpt>
      <trkpt lat="45.813" lon="4.46232">
        <ele>653.83</ele>
        <time>2024-04-29T10:36:02Z</time>
      </trkpt>
      <trkpt lat="45.81297" lon="4.46231">
        <ele>653.83</ele>
        <time>2024-04-29T10:36:04Z</time>
      </trkpt>
      <trkpt lat="45.81295" lon="4.4623">
        <ele>653.83</ele>
        <time>2024-04-29T10:36:05Z</time>
      </trkpt>
      <trkpt lat="45.81294" lon="4.46229">
        <ele>653.83</ele>
        <time>2024-04-29T10:36:06Z</time>
      </trkpt>
      <trkpt lat="45.81282" lon="4.4619">
        <ele>655.28</ele>
        <time>2024-04-29T10:36:26Z</time>
      </trkpt>
      <trkpt lat="45.81273" lon="4.46154">
        <ele>658.64</ele>
        <time>2024-04-29T10:36:45Z</time>
      </trkpt>
      <trkpt lat="45.8127" lon="4.46124">
        <ele>660.08</ele>
        <time>2024-04-29T10:37:03Z</time>
      </trkpt>
      <trkpt lat="45.81272" lon="4.46105">
        <ele>660.08</ele>
        <time>2024-04-29T10:37:12Z</time>
      </trkpt>
      <trkpt lat="45.81272" lon="4.46102">
        <ele>660.08</ele>
        <time>2024-04-29T10:37:13Z</time>
      </trkpt>
      <trkpt lat="45.81286" lon="4.46082">
        <ele>662.49</ele>
        <time>2024-04-29T10:37:29Z</time>
      </trkpt>
      <trkpt lat="45.81286" lon="4.46062">
        <ele>664.41</ele>
        <time>2024-04-29T10:37:40Z</time>
      </trkpt>
      <trkpt lat="45.81285" lon="4.4606">
        <ele>664.89</ele>
        <time>2024-04-29T10:37:41Z</time>
      </trkpt>
      <trkpt lat="45.81285" lon="4.46058">
        <ele>664.89</ele>
        <time>2024-04-29T10:37:42Z</time>
      </trkpt>
      <trkpt lat="45.81284" lon="4.46049">
        <ele>666.33</ele>
        <time>2024-04-29T10:37:46Z</time>
      </trkpt>
      <trkpt lat="45.81289" lon="4.46025">
        <ele>668.73</ele>
        <time>2024-04-29T10:37:57Z</time>
      </trkpt>
      <trkpt lat="45.81307" lon="4.45993">
        <ele>670.66</ele>
        <time>2024-04-29T10:38:18Z</time>
      </trkpt>
      <trkpt lat="45.81304" lon="4.45992">
        <ele>670.66</ele>
        <time>2024-04-29T10:38:22Z</time>
      </trkpt>
      <trkpt lat="45.81279" lon="4.46009">
        <ele>676.42</ele>
        <time>2024-04-29T10:38:40Z</time>
      </trkpt>
      <trkpt lat="45.81279" lon="4.46011">
        <ele>676.42</ele>
        <time>2024-04-29T10:38:50Z</time>
      </trkpt>
      <trkpt lat="45.813" lon="4.45997">
        <ele>674.98</ele>
        <time>2024-04-29T10:39:07Z</time>
      </trkpt>
      <trkpt lat="45.81321" lon="4.45998">
        <ele>674.02</ele>
        <time>2024-04-29T10:39:23Z</time>
      </trkpt>
      <trkpt lat="45.81351" lon="4.46016">
        <ele>672.58</ele>
        <time>2024-04-29T10:39:44Z</time>
      </trkpt>
      <trkpt lat="45.81372" lon="4.46019">
        <ele>670.66</ele>
        <time>2024-04-29T10:40:01Z</time>
      </trkpt>
      <trkpt lat="45.81393" lon="4.46">
        <ele>668.73</ele>
        <time>2024-04-29T10:40:18Z</time>
      </trkpt>
      <trkpt lat="45.8141" lon="4.45973">
        <ele>667.77</ele>
        <time>2024-04-29T10:40:37Z</time>
      </trkpt>
      <trkpt lat="45.81424" lon="4.45943">
        <ele>668.73</ele>
        <time>2024-04-29T10:40:54Z</time>
      </trkpt>
      <trkpt lat="45.81438" lon="4.45913">
        <ele>667.29</ele>
        <time>2024-04-29T10:41:11Z</time>
      </trkpt>
      <trkpt lat="45.81452" lon="4.45883">
        <ele>667.77</ele>
        <time>2024-04-29T10:41:27Z</time>
      </trkpt>
      <trkpt lat="45.81468" lon="4.45859">
        <ele>663.93</ele>
        <time>2024-04-29T10:41:44Z</time>
      </trkpt>
      <trkpt lat="45.81491" lon="4.45838">
        <ele>661.52</ele>
        <time>2024-04-29T10:42:02Z</time>
      </trkpt>
      <trkpt lat="45.81513" lon="4.45818">
        <ele>664.41</ele>
        <time>2024-04-29T10:42:19Z</time>
      </trkpt>
      <trkpt lat="45.81529" lon="4.45792">
        <ele>663.93</ele>
        <time>2024-04-29T10:42:39Z</time>
      </trkpt>
      <trkpt lat="45.81546" lon="4.45768">
        <ele>662.01</ele>
        <time>2024-04-29T10:42:56Z</time>
      </trkpt>
      <trkpt lat="45.81549" lon="4.45758">
        <ele>662.01</ele>
        <time>2024-04-29T10:43:01Z</time>
      </trkpt>
      <trkpt lat="45.81547" lon="4.45756">
        <ele>661.04</ele>
        <time>2024-04-29T10:43:05Z</time>
      </trkpt>
      <trkpt lat="45.81545" lon="4.45757">
        <ele>661.04</ele>
        <time>2024-04-29T10:43:06Z</time>
      </trkpt>
      <trkpt lat="45.81544" lon="4.45758">
        <ele>661.52</ele>
        <time>2024-04-29T10:43:07Z</time>
      </trkpt>
      <trkpt lat="45.81543" lon="4.45759">
        <ele>661.52</ele>
        <time>2024-04-29T10:43:08Z</time>
      </trkpt>
      <trkpt lat="45.81542" lon="4.4576">
        <ele>662.01</ele>
        <time>2024-04-29T10:43:09Z</time>
      </trkpt>
      <trkpt lat="45.81521" lon="4.4578">
        <ele>665.85</ele>
        <time>2024-04-29T10:43:30Z</time>
      </trkpt>
      <trkpt lat="45.815" lon="4.458">
        <ele>671.14</ele>
        <time>2024-04-29T10:43:48Z</time>
      </trkpt>
      <trkpt lat="45.81475" lon="4.45814">
        <ele>676.91</ele>
        <time>2024-04-29T10:44:07Z</time>
      </trkpt>
      <trkpt lat="45.81446" lon="4.4583">
        <ele>683.63</ele>
        <time>2024-04-29T10:44:23Z</time>
      </trkpt>
      <trkpt lat="45.81422" lon="4.45842">
        <ele>687.48</ele>
        <time>2024-04-29T10:44:41Z</time>
      </trkpt>
      <trkpt lat="45.81403" lon="4.45849">
        <ele>690.36</ele>
        <time>2024-04-29T10:44:54Z</time>
      </trkpt>
      <trkpt lat="45.81386" lon="4.45854">
        <ele>695.17</ele>
        <time>2024-04-29T10:45:08Z</time>
      </trkpt>
      <trkpt lat="45.81385" lon="4.45855">
        <ele>695.65</ele>
        <time>2024-04-29T10:45:09Z</time>
      </trkpt>
      <trkpt lat="45.81357" lon="4.45868">
        <ele>699.02</ele>
        <time>2024-04-29T10:45:29Z</time>
      </trkpt>
      <trkpt lat="45.81331" lon="4.45876">
        <ele>700.46</ele>
        <time>2024-04-29T10:45:49Z</time>
      </trkpt>
      <trkpt lat="45.81305" lon="4.45876">
        <ele>702.86</ele>
        <time>2024-04-29T10:46:06Z</time>
      </trkpt>
      <trkpt lat="45.81284" lon="4.45864">
        <ele>704.3</ele>
        <time>2024-04-29T10:46:21Z</time>
      </trkpt>
      <trkpt lat="45.81283" lon="4.45864">
        <ele>704.3</ele>
        <time>2024-04-29T10:46:22Z</time>
      </trkpt>
      <trkpt lat="45.81282" lon="4.45863">
        <ele>704.3</ele>
        <time>2024-04-29T10:46:23Z</time>
      </trkpt>
      <trkpt lat="45.8128" lon="4.45864">
        <ele>704.3</ele>
        <time>2024-04-29T10:46:24Z</time>
      </trkpt>
      <trkpt lat="45.81279" lon="4.45864">
        <ele>704.3</ele>
        <time>2024-04-29T10:46:25Z</time>
      </trkpt>
      <trkpt lat="45.81278" lon="4.45865">
        <ele>704.3</ele>
        <time>2024-04-29T10:46:26Z</time>
      </trkpt>
      <trkpt lat="45.8125" lon="4.45881">
        <ele>703.82</ele>
        <time>2024-04-29T10:46:47Z</time>
      </trkpt>
      <trkpt lat="45.81223" lon="4.45887">
        <ele>704.78</ele>
        <time>2024-04-29T10:47:06Z</time>
      </trkpt>
      <trkpt lat="45.81201" lon="4.45913">
        <ele>704.78</ele>
        <time>2024-04-29T10:47:26Z</time>
      </trkpt>
      <trkpt lat="45.81174" lon="4.45941">
        <ele>707.19</ele>
        <time>2024-04-29T10:47:46Z</time>
      </trkpt>
      <trkpt lat="45.8115" lon="4.45956">
        <ele>708.63</ele>
        <time>2024-04-29T10:48:04Z</time>
      </trkpt>
      <trkpt lat="45.81145" lon="4.45955">
        <ele>708.15</ele>
        <time>2024-04-29T10:48:19Z</time>
      </trkpt>
      <trkpt lat="45.81143" lon="4.45955">
        <ele>708.63</ele>
        <time>2024-04-29T10:48:20Z</time>
      </trkpt>
      <trkpt lat="45.81141" lon="4.45955">
        <ele>709.11</ele>
        <time>2024-04-29T10:48:21Z</time>
      </trkpt>
      <trkpt lat="45.8114" lon="4.45954">
        <ele>709.11</ele>
        <time>2024-04-29T10:48:22Z</time>
      </trkpt>
      <trkpt lat="45.81138" lon="4.45954">
        <ele>709.59</ele>
        <time>2024-04-29T10:48:23Z</time>
      </trkpt>
      <trkpt lat="45.81137" lon="4.45954">
        <ele>709.59</ele>
        <time>2024-04-29T10:48:24Z</time>
      </trkpt>
      <trkpt lat="45.81135" lon="4.45954">
        <ele>709.59</ele>
        <time>2024-04-29T10:48:25Z</time>
      </trkpt>
      <trkpt lat="45.81134" lon="4.45954">
        <ele>710.07</ele>
        <time>2024-04-29T10:48:26Z</time>
      </trkpt>
      <trkpt lat="45.81132" lon="4.45954">
        <ele>710.07</ele>
        <time>2024-04-29T10:48:27Z</time>
      </trkpt>
      <trkpt lat="45.8111" lon="4.45953">
        <ele>712.47</ele>
        <time>2024-04-29T10:48:44Z</time>
      </trkpt>
      <trkpt lat="45.81079" lon="4.45949">
        <ele>717.28</ele>
        <time>2024-04-29T10:49:01Z</time>
      </trkpt>
      <trkpt lat="45.81051" lon="4.4595">
        <ele>722.57</ele>
        <time>2024-04-29T10:49:22Z</time>
      </trkpt>
      <trkpt lat="45.81051" lon="4.45954">
        <ele>726.41</ele>
        <time>2024-04-29T10:49:44Z</time>
      </trkpt>
      <trkpt lat="45.81051" lon="4.45955">
        <ele>728.34</ele>
        <time>2024-04-29T10:50:11Z</time>
      </trkpt>
      <trkpt lat="45.81042" lon="4.45965">
        <ele>730.26</ele>
        <time>2024-04-29T10:50:31Z</time>
      </trkpt>
      <trkpt lat="45.81032" lon="4.45969">
        <ele>730.74</ele>
        <time>2024-04-29T10:51:00Z</time>
      </trkpt>
      <trkpt lat="45.81028" lon="4.45973">
        <ele>731.7</ele>
        <time>2024-04-29T10:51:19Z</time>
      </trkpt>
      <trkpt lat="45.81026" lon="4.45974">
        <ele>731.22</ele>
        <time>2024-04-29T10:51:27Z</time>
      </trkpt>
      <trkpt lat="45.81019" lon="4.45971">
        <ele>731.22</ele>
        <time>2024-04-29T10:51:34Z</time>
      </trkpt>
      <trkpt lat="45.81001" lon="4.45997">
        <ele>737.95</ele>
        <time>2024-04-29T10:51:55Z</time>
      </trkpt>
      <trkpt lat="45.80991" lon="4.46016">
        <ele>744.2</ele>
        <time>2024-04-29T10:52:14Z</time>
      </trkpt>
      <trkpt lat="45.80976" lon="4.46015">
        <ele>746.12</ele>
        <time>2024-04-29T10:52:37Z</time>
      </trkpt>
      <trkpt lat="45.80953" lon="4.46028">
        <ele>749.97</ele>
        <time>2024-04-29T10:52:55Z</time>
      </trkpt>
      <trkpt lat="45.80931" lon="4.46045">
        <ele>755.25</ele>
        <time>2024-04-29T10:53:15Z</time>
      </trkpt>
      <trkpt lat="45.80908" lon="4.46059">
        <ele>762.94</ele>
        <time>2024-04-29T10:53:38Z</time>
      </trkpt>
      <trkpt lat="45.80876" lon="4.46069">
        <ele>767.75</ele>
        <time>2024-04-29T10:54:02Z</time>
      </trkpt>
      <trkpt lat="45.80844" lon="4.46079">
        <ele>772.08</ele>
        <time>2024-04-29T10:54:26Z</time>
      </trkpt>
      <trkpt lat="45.80806" lon="4.46098">
        <ele>773.52</ele>
        <time>2024-04-29T10:54:51Z</time>
      </trkpt>
      <trkpt lat="45.80777" lon="4.46101">
        <ele>778.32</ele>
        <time>2024-04-29T10:55:11Z</time>
      </trkpt>
      <trkpt lat="45.80751" lon="4.46109">
        <ele>782.17</ele>
        <time>2024-04-29T10:55:30Z</time>
      </trkpt>
      <trkpt lat="45.80746" lon="4.46115">
        <ele>786.98</ele>
        <time>2024-04-29T10:55:48Z</time>
      </trkpt>
      <trkpt lat="45.80747" lon="4.46123">
        <ele>788.9</ele>
        <time>2024-04-29T10:56:17Z</time>
      </trkpt>
      <trkpt lat="45.80741" lon="4.46106">
        <ele>789.38</ele>
        <time>2024-04-29T10:56:34Z</time>
      </trkpt>
      <trkpt lat="45.80739" lon="4.46102">
        <ele>791.3</ele>
        <time>2024-04-29T10:57:09Z</time>
      </trkpt>
      <trkpt lat="45.80732" lon="4.46109">
        <ele>792.26</ele>
        <time>2024-04-29T10:57:22Z</time>
      </trkpt>
      <trkpt lat="45.80721" lon="4.46119">
        <ele>795.15</ele>
        <time>2024-04-29T10:57:38Z</time>
      </trkpt>
      <trkpt lat="45.80696" lon="4.46123">
        <ele>798.51</ele>
        <time>2024-04-29T10:57:56Z</time>
      </trkpt>
      <trkpt lat="45.80689" lon="4.46124">
        <ele>797.55</ele>
        <time>2024-04-29T10:58:16Z</time>
      </trkpt>
      <trkpt lat="45.80685" lon="4.46121">
        <ele>797.07</ele>
        <time>2024-04-29T10:58:42Z</time>
      </trkpt>
      <trkpt lat="45.80688" lon="4.4612">
        <ele>796.59</ele>
        <time>2024-04-29T10:59:13Z</time>
      </trkpt>
      <trkpt lat="45.80687" lon="4.46131">
        <ele>800.92</ele>
        <time>2024-04-29T10:59:43Z</time>
      </trkpt>
      <trkpt lat="45.80684" lon="4.46126">
        <ele>798.99</ele>
        <time>2024-04-29T11:00:07Z</time>
      </trkpt>
      <trkpt lat="45.80686" lon="4.46117">
        <ele>798.99</ele>
        <time>2024-04-29T11:00:23Z</time>
      </trkpt>
      <trkpt lat="45.80693" lon="4.46107">
        <ele>797.07</ele>
        <time>2024-04-29T11:00:45Z</time>
      </trkpt>
      <trkpt lat="45.80697" lon="4.46104">
        <ele>797.55</ele>
        <time>2024-04-29T11:00:49Z</time>
      </trkpt>
      <trkpt lat="45.8071" lon="4.46078">
        <ele>800.92</ele>
        <time>2024-04-29T11:01:07Z</time>
      </trkpt>
      <trkpt lat="45.80729" lon="4.46057">
        <ele>799.95</ele>
        <time>2024-04-29T11:01:27Z</time>
      </trkpt>
      <trkpt lat="45.8075" lon="4.4602">
        <ele>802.84</ele>
        <time>2024-04-29T11:01:53Z</time>
      </trkpt>
      <trkpt lat="45.80772" lon="4.46005">
        <ele>803.8</ele>
        <time>2024-04-29T11:02:13Z</time>
      </trkpt>
      <trkpt lat="45.80789" lon="4.45987">
        <ele>806.68</ele>
        <time>2024-04-29T11:02:32Z</time>
      </trkpt>
      <trkpt lat="45.80795" lon="4.45984">
        <ele>806.2</ele>
        <time>2024-04-29T11:02:46Z</time>
      </trkpt>
      <trkpt lat="45.80804" lon="4.45981">
        <ele>804.28</ele>
        <time>2024-04-29T11:02:53Z</time>
      </trkpt>
      <trkpt lat="45.80802" lon="4.4598">
        <ele>806.68</ele>
        <time>2024-04-29T11:03:13Z</time>
      </trkpt>
      <trkpt lat="45.80801" lon="4.45975">
        <ele>810.53</ele>
        <time>2024-04-29T11:03:25Z</time>
      </trkpt>
      <trkpt lat="45.80794" lon="4.45965">
        <ele>811.97</ele>
        <time>2024-04-29T11:03:37Z</time>
      </trkpt>
      <trkpt lat="45.80792" lon="4.45941">
        <ele>814.85</ele>
        <time>2024-04-29T11:03:53Z</time>
      </trkpt>
      <trkpt lat="45.80792" lon="4.4594">
        <ele>814.37</ele>
        <time>2024-04-29T11:04:10Z</time>
      </trkpt>
      <trkpt lat="45.80787" lon="4.45923">
        <ele>815.82</ele>
        <time>2024-04-29T11:04:35Z</time>
      </trkpt>
      <trkpt lat="45.80786" lon="4.45919">
        <ele>815.34</ele>
        <time>2024-04-29T11:04:38Z</time>
      </trkpt>
      <trkpt lat="45.80778" lon="4.45884">
        <ele>812.45</ele>
        <time>2024-04-29T11:04:56Z</time>
      </trkpt>
      <trkpt lat="45.80772" lon="4.45837">
        <ele>807.64</ele>
        <time>2024-04-29T11:05:18Z</time>
      </trkpt>
      <trkpt lat="45.80771" lon="4.45803">
        <ele>803.32</ele>
        <time>2024-04-29T11:05:36Z</time>
      </trkpt>
      <trkpt lat="45.80768" lon="4.45776">
        <ele>797.07</ele>
        <time>2024-04-29T11:05:52Z</time>
      </trkpt>
      <trkpt lat="45.80764" lon="4.45732">
        <ele>788.9</ele>
        <time>2024-04-29T11:06:14Z</time>
      </trkpt>
      <trkpt lat="45.80749" lon="4.45691">
        <ele>792.26</ele>
        <time>2024-04-29T11:06:35Z</time>
      </trkpt>
      <trkpt lat="45.80738" lon="4.45652">
        <ele>796.11</ele>
        <time>2024-04-29T11:06:56Z</time>
      </trkpt>
      <trkpt lat="45.80726" lon="4.45611">
        <ele>798.99</ele>
        <time>2024-04-29T11:07:17Z</time>
      </trkpt>
      <trkpt lat="45.80716" lon="4.45578">
        <ele>801.4</ele>
        <time>2024-04-29T11:07:39Z</time>
      </trkpt>
      <trkpt lat="45.80708" lon="4.45564">
        <ele>803.32</ele>
        <time>2024-04-29T11:07:47Z</time>
      </trkpt>
      <trkpt lat="45.80679" lon="4.45533">
        <ele>805.72</ele>
        <time>2024-04-29T11:08:11Z</time>
      </trkpt>
      <trkpt lat="45.80656" lon="4.45526">
        <ele>807.16</ele>
        <time>2024-04-29T11:08:30Z</time>
      </trkpt>
      <trkpt lat="45.80634" lon="4.45516">
        <ele>808.61</ele>
        <time>2024-04-29T11:08:47Z</time>
      </trkpt>
      <trkpt lat="45.80616" lon="4.45503">
        <ele>808.61</ele>
        <time>2024-04-29T11:09:01Z</time>
      </trkpt>
      <trkpt lat="45.80605" lon="4.45489">
        <ele>811.97</ele>
        <time>2024-04-29T11:09:15Z</time>
      </trkpt>
      <trkpt lat="45.80596" lon="4.45469">
        <ele>813.89</ele>
        <time>2024-04-29T11:09:31Z</time>
      </trkpt>
      <trkpt lat="45.80595" lon="4.45465">
        <ele>813.89</ele>
        <time>2024-04-29T11:09:34Z</time>
      </trkpt>
      <trkpt lat="45.80587" lon="4.45427">
        <ele>815.82</ele>
        <time>2024-04-29T11:09:51Z</time>
      </trkpt>
      <trkpt lat="45.80585" lon="4.45386">
        <ele>815.34</ele>
        <time>2024-04-29T11:10:09Z</time>
      </trkpt>
      <trkpt lat="45.8057" lon="4.45363">
        <ele>814.37</ele>
        <time>2024-04-29T11:10:31Z</time>
      </trkpt>
      <trkpt lat="45.80565" lon="4.45331">
        <ele>809.09</ele>
        <time>2024-04-29T11:10:50Z</time>
      </trkpt>
      <trkpt lat="45.80553" lon="4.45282">
        <ele>808.13</ele>
        <time>2024-04-29T11:11:13Z</time>
      </trkpt>
      <trkpt lat="45.80542" lon="4.45258">
        <ele>807.64</ele>
        <time>2024-04-29T11:11:27Z</time>
      </trkpt>
      <trkpt lat="45.80533" lon="4.45251">
        <ele>807.64</ele>
        <time>2024-04-29T11:11:35Z</time>
      </trkpt>
      <trkpt lat="45.80512" lon="4.45247">
        <ele>808.13</ele>
        <time>2024-04-29T11:11:55Z</time>
      </trkpt>
      <trkpt lat="45.8049" lon="4.45239">
        <ele>808.61</ele>
        <time>2024-04-29T11:12:21Z</time>
      </trkpt>
      <trkpt lat="45.80471" lon="4.45239">
        <ele>804.28</ele>
        <time>2024-04-29T11:12:41Z</time>
      </trkpt>
      <trkpt lat="45.80449" lon="4.4524">
        <ele>796.11</ele>
        <time>2024-04-29T11:13:04Z</time>
      </trkpt>
      <trkpt lat="45.80426" lon="4.45233">
        <ele>788.42</ele>
        <time>2024-04-29T11:13:24Z</time>
      </trkpt>
      <trkpt lat="45.80405" lon="4.45225">
        <ele>783.13</ele>
        <time>2024-04-29T11:13:42Z</time>
      </trkpt>
      <trkpt lat="45.80399" lon="4.4523">
        <ele>782.17</ele>
        <time>2024-04-29T11:13:47Z</time>
      </trkpt>
      <trkpt lat="45.80385" lon="4.45252">
        <ele>776.4</ele>
        <time>2024-04-29T11:14:03Z</time>
      </trkpt>
      <trkpt lat="45.80381" lon="4.45259">
        <ele>774.96</ele>
        <time>2024-04-29T11:14:07Z</time>
      </trkpt>
      <trkpt lat="45.80376" lon="4.4526">
        <ele>773.52</ele>
        <time>2024-04-29T11:14:12Z</time>
      </trkpt>
      <trkpt lat="45.80374" lon="4.45258">
        <ele>773.04</ele>
        <time>2024-04-29T11:14:14Z</time>
      </trkpt>
      <trkpt lat="45.8037" lon="4.45253">
        <ele>772.56</ele>
        <time>2024-04-29T11:14:18Z</time>
      </trkpt>
      <trkpt lat="45.80355" lon="4.45229">
        <ele>767.27</ele>
        <time>2024-04-29T11:14:37Z</time>
      </trkpt>
      <trkpt lat="45.8035" lon="4.45224">
        <ele>765.83</ele>
        <time>2024-04-29T11:14:42Z</time>
      </trkpt>
      <trkpt lat="45.80337" lon="4.45204">
        <ele>761.98</ele>
        <time>2024-04-29T11:14:58Z</time>
      </trkpt>
      <trkpt lat="45.80331" lon="4.45197">
        <ele>760.06</ele>
        <time>2024-04-29T11:15:04Z</time>
      </trkpt>
      <trkpt lat="45.80302" lon="4.45192">
        <ele>752.85</ele>
        <time>2024-04-29T11:15:27Z</time>
      </trkpt>
      <trkpt lat="45.80298" lon="4.45188">
        <ele>751.89</ele>
        <time>2024-04-29T11:15:31Z</time>
      </trkpt>
      <trkpt lat="45.80286" lon="4.45165">
        <ele>748.04</ele>
        <time>2024-04-29T11:15:49Z</time>
      </trkpt>
      <trkpt lat="45.80281" lon="4.45132">
        <ele>743.24</ele>
        <time>2024-04-29T11:16:07Z</time>
      </trkpt>
      <trkpt lat="45.80279" lon="4.45115">
        <ele>741.31</ele>
        <time>2024-04-29T11:16:19Z</time>
      </trkpt>
      <trkpt lat="45.8028" lon="4.45085">
        <ele>736.51</ele>
        <time>2024-04-29T11:16:38Z</time>
      </trkpt>
      <trkpt lat="45.80281" lon="4.45061">
        <ele>732.18</ele>
        <time>2024-04-29T11:16:54Z</time>
      </trkpt>
      <trkpt lat="45.80279" lon="4.45059">
        <ele>732.18</ele>
        <time>2024-04-29T11:16:56Z</time>
      </trkpt>
      <trkpt lat="45.80257" lon="4.45085">
        <ele>730.74</ele>
        <time>2024-04-29T11:17:15Z</time>
      </trkpt>
      <trkpt lat="45.80236" lon="4.45115">
        <ele>730.74</ele>
        <time>2024-04-29T11:17:34Z</time>
      </trkpt>
      <trkpt lat="45.80216" lon="4.45148">
        <ele>730.74</ele>
        <time>2024-04-29T11:17:52Z</time>
      </trkpt>
      <trkpt lat="45.80194" lon="4.4515">
        <ele>731.22</ele>
        <time>2024-04-29T11:18:06Z</time>
      </trkpt>
      <trkpt lat="45.80156" lon="4.45118">
        <ele>731.22</ele>
        <time>2024-04-29T11:18:32Z</time>
      </trkpt>
      <trkpt lat="45.80134" lon="4.45098">
        <ele>731.7</ele>
        <time>2024-04-29T11:18:49Z</time>
      </trkpt>
      <trkpt lat="45.80107" lon="4.45085">
        <ele>732.18</ele>
        <time>2024-04-29T11:19:10Z</time>
      </trkpt>
      <trkpt lat="45.80068" lon="4.45089">
        <ele>731.7</ele>
        <time>2024-04-29T11:19:35Z</time>
      </trkpt>
      <trkpt lat="45.80038" lon="4.45089">
        <ele>731.22</ele>
        <time>2024-04-29T11:19:56Z</time>
      </trkpt>
      <trkpt lat="45.79999" lon="4.4509">
        <ele>731.22</ele>
        <time>2024-04-29T11:20:20Z</time>
      </trkpt>
      <trkpt lat="45.79966" lon="4.45101">
        <ele>728.34</ele>
        <time>2024-04-29T11:20:42Z</time>
      </trkpt>
      <trkpt lat="45.79931" lon="4.45119">
        <ele>730.74</ele>
        <time>2024-04-29T11:21:06Z</time>
      </trkpt>
      <trkpt lat="45.79901" lon="4.45131">
        <ele>730.26</ele>
        <time>2024-04-29T11:21:25Z</time>
      </trkpt>
      <trkpt lat="45.79869" lon="4.45144">
        <ele>727.86</ele>
        <time>2024-04-29T11:21:47Z</time>
      </trkpt>
      <trkpt lat="45.79868" lon="4.45146">
        <ele>727.37</ele>
        <time>2024-04-29T11:21:53Z</time>
      </trkpt>
      <trkpt lat="45.79867" lon="4.45151">
        <ele>726.89</ele>
        <time>2024-04-29T11:21:56Z</time>
      </trkpt>
      <trkpt lat="45.79868" lon="4.45161">
        <ele>726.41</ele>
        <time>2024-04-29T11:22:00Z</time>
      </trkpt>
      <trkpt lat="45.79886" lon="4.45207">
        <ele>726.89</ele>
        <time>2024-04-29T11:22:22Z</time>
      </trkpt>
      <trkpt lat="45.79879" lon="4.45233">
        <ele>723.53</ele>
        <time>2024-04-29T11:22:37Z</time>
      </trkpt>
      <trkpt lat="45.79856" lon="4.45266">
        <ele>717.28</ele>
        <time>2024-04-29T11:22:56Z</time>
      </trkpt>
      <trkpt lat="45.79836" lon="4.45294">
        <ele>712.47</ele>
        <time>2024-04-29T11:23:12Z</time>
      </trkpt>
      <trkpt lat="45.79818" lon="4.4532">
        <ele>708.15</ele>
        <time>2024-04-29T11:23:28Z</time>
      </trkpt>
      <trkpt lat="45.798" lon="4.45345">
        <ele>701.9</ele>
        <time>2024-04-29T11:23:46Z</time>
      </trkpt>
      <trkpt lat="45.79785" lon="4.45383">
        <ele>696.61</ele>
        <time>2024-04-29T11:24:04Z</time>
      </trkpt>
      <trkpt lat="45.79773" lon="4.45417">
        <ele>695.17</ele>
        <time>2024-04-29T11:24:21Z</time>
      </trkpt>
      <trkpt lat="45.79756" lon="4.45446">
        <ele>691.33</ele>
        <time>2024-04-29T11:24:38Z</time>
      </trkpt>
      <trkpt lat="45.79737" lon="4.45481">
        <ele>687</ele>
        <time>2024-04-29T11:24:56Z</time>
      </trkpt>
      <trkpt lat="45.79721" lon="4.45506">
        <ele>685.56</ele>
        <time>2024-04-29T11:25:11Z</time>
      </trkpt>
      <trkpt lat="45.79703" lon="4.45539">
        <ele>683.15</ele>
        <time>2024-04-29T11:25:29Z</time>
      </trkpt>
      <trkpt lat="45.79689" lon="4.45563">
        <ele>678.35</ele>
        <time>2024-04-29T11:25:43Z</time>
      </trkpt>
      <trkpt lat="45.79674" lon="4.45592">
        <ele>673.06</ele>
        <time>2024-04-29T11:25:58Z</time>
      </trkpt>
      <trkpt lat="45.79659" lon="4.45625">
        <ele>670.66</ele>
        <time>2024-04-29T11:26:14Z</time>
      </trkpt>
      <trkpt lat="45.79646" lon="4.4564">
        <ele>667.77</ele>
        <time>2024-04-29T11:26:29Z</time>
      </trkpt>
      <trkpt lat="45.79645" lon="4.4564">
        <ele>667.77</ele>
        <time>2024-04-29T11:26:30Z</time>
      </trkpt>
      <trkpt lat="45.79643" lon="4.45641">
        <ele>667.77</ele>
        <time>2024-04-29T11:26:31Z</time>
      </trkpt>
      <trkpt lat="45.79619" lon="4.45655">
        <ele>666.33</ele>
        <time>2024-04-29T11:26:49Z</time>
      </trkpt>
      <trkpt lat="45.796" lon="4.4567">
        <ele>662.49</ele>
        <time>2024-04-29T11:27:06Z</time>
      </trkpt>
      <trkpt lat="45.796" lon="4.45682">
        <ele>660.56</ele>
        <time>2024-04-29T11:27:13Z</time>
      </trkpt>
      <trkpt lat="45.79592" lon="4.45701">
        <ele>657.2</ele>
        <time>2024-04-29T11:27:24Z</time>
      </trkpt>
      <trkpt lat="45.79591" lon="4.45702">
        <ele>656.72</ele>
        <time>2024-04-29T11:27:25Z</time>
      </trkpt>
      <trkpt lat="45.79589" lon="4.45703">
        <ele>656.72</ele>
        <time>2024-04-29T11:27:26Z</time>
      </trkpt>
      <trkpt lat="45.79574" lon="4.45711">
        <ele>655.28</ele>
        <time>2024-04-29T11:27:34Z</time>
      </trkpt>
      <trkpt lat="45.79572" lon="4.45712">
        <ele>654.8</ele>
        <time>2024-04-29T11:27:35Z</time>
      </trkpt>
      <trkpt lat="45.7955" lon="4.45735">
        <ele>651.91</ele>
        <time>2024-04-29T11:27:51Z</time>
      </trkpt>
      <trkpt lat="45.79531" lon="4.45763">
        <ele>646.14</ele>
        <time>2024-04-29T11:28:11Z</time>
      </trkpt>
      <trkpt lat="45.79503" lon="4.45799">
        <ele>646.62</ele>
        <time>2024-04-29T11:28:32Z</time>
      </trkpt>
      <trkpt lat="45.79499" lon="4.45803">
        <ele>647.59</ele>
        <time>2024-04-29T11:28:34Z</time>
      </trkpt>
      <trkpt lat="45.79468" lon="4.45826">
        <ele>649.99</ele>
        <time>2024-04-29T11:28:53Z</time>
      </trkpt>
      <trkpt lat="45.7944" lon="4.45838">
        <ele>648.55</ele>
        <time>2024-04-29T11:29:11Z</time>
      </trkpt>
      <trkpt lat="45.79413" lon="4.4585">
        <ele>646.14</ele>
        <time>2024-04-29T11:29:29Z</time>
      </trkpt>
      <trkpt lat="45.79389" lon="4.45855">
        <ele>643.26</ele>
        <time>2024-04-29T11:29:46Z</time>
      </trkpt>
      <trkpt lat="45.79367" lon="4.45857">
        <ele>640.38</ele>
        <time>2024-04-29T11:30:02Z</time>
      </trkpt>
      <trkpt lat="45.79366" lon="4.45856">
        <ele>640.38</ele>
        <time>2024-04-29T11:30:03Z</time>
      </trkpt>
      <trkpt lat="45.79342" lon="4.45866">
        <ele>640.86</ele>
        <time>2024-04-29T11:30:19Z</time>
      </trkpt>
      <trkpt lat="45.79334" lon="4.45865">
        <ele>637.01</ele>
        <time>2024-04-29T11:30:31Z</time>
      </trkpt>
      <trkpt lat="45.7934" lon="4.45862">
        <ele>633.17</ele>
        <time>2024-04-29T11:30:49Z</time>
      </trkpt>
      <trkpt lat="45.79334" lon="4.45864">
        <ele>641.82</ele>
        <time>2024-04-29T11:31:11Z</time>
      </trkpt>
      <trkpt lat="45.79318" lon="4.45861">
        <ele>642.78</ele>
        <time>2024-04-29T11:31:30Z</time>
      </trkpt>
      <trkpt lat="45.79293" lon="4.45878">
        <ele>640.86</ele>
        <time>2024-04-29T11:31:48Z</time>
      </trkpt>
      <trkpt lat="45.79284" lon="4.45883">
        <ele>638.45</ele>
        <time>2024-04-29T11:31:55Z</time>
      </trkpt>
      <trkpt lat="45.79283" lon="4.45883">
        <ele>638.45</ele>
        <time>2024-04-29T11:31:56Z</time>
      </trkpt>
      <trkpt lat="45.79281" lon="4.45883">
        <ele>637.97</ele>
        <time>2024-04-29T11:31:57Z</time>
      </trkpt>
      <trkpt lat="45.7926" lon="4.45873">
        <ele>634.13</ele>
        <time>2024-04-29T11:32:13Z</time>
      </trkpt>
      <trkpt lat="45.79247" lon="4.4584">
        <ele>628.84</ele>
        <time>2024-04-29T11:32:30Z</time>
      </trkpt>
      <trkpt lat="45.79238" lon="4.458">
        <ele>627.4</ele>
        <time>2024-04-29T11:32:47Z</time>
      </trkpt>
      <trkpt lat="45.7922" lon="4.45771">
        <ele>630.28</ele>
        <time>2024-04-29T11:33:04Z</time>
      </trkpt>
      <trkpt lat="45.79195" lon="4.45744">
        <ele>632.2</ele>
        <time>2024-04-29T11:33:22Z</time>
      </trkpt>
      <trkpt lat="45.79186" lon="4.45736">
        <ele>634.61</ele>
        <time>2024-04-29T11:33:38Z</time>
      </trkpt>
      <trkpt lat="45.79186" lon="4.45739">
        <ele>635.09</ele>
        <time>2024-04-29T11:33:39Z</time>
      </trkpt>
      <trkpt lat="45.79171" lon="4.45757">
        <ele>635.57</ele>
        <time>2024-04-29T11:33:52Z</time>
      </trkpt>
      <trkpt lat="45.79147" lon="4.45775">
        <ele>635.57</ele>
        <time>2024-04-29T11:34:09Z</time>
      </trkpt>
      <trkpt lat="45.79118" lon="4.45796">
        <ele>634.13</ele>
        <time>2024-04-29T11:34:29Z</time>
      </trkpt>
      <trkpt lat="45.79098" lon="4.45809">
        <ele>632.68</ele>
        <time>2024-04-29T11:34:42Z</time>
      </trkpt>
      <trkpt lat="45.79071" lon="4.45825">
        <ele>628.84</ele>
        <time>2024-04-29T11:35:00Z</time>
      </trkpt>
      <trkpt lat="45.7904" lon="4.45855">
        <ele>629.32</ele>
        <time>2024-04-29T11:35:21Z</time>
      </trkpt>
      <trkpt lat="45.79016" lon="4.459">
        <ele>626.44</ele>
        <time>2024-04-29T11:35:45Z</time>
      </trkpt>
      <trkpt lat="45.78998" lon="4.45937">
        <ele>627.4</ele>
        <time>2024-04-29T11:36:04Z</time>
      </trkpt>
      <trkpt lat="45.78976" lon="4.45968">
        <ele>626.92</ele>
        <time>2024-04-29T11:36:22Z</time>
      </trkpt>
      <trkpt lat="45.7895" lon="4.45979">
        <ele>625.96</ele>
        <time>2024-04-29T11:36:39Z</time>
      </trkpt>
      <trkpt lat="45.78916" lon="4.45976">
        <ele>624.03</ele>
        <time>2024-04-29T11:36:59Z</time>
      </trkpt>
      <trkpt lat="45.78882" lon="4.45974">
        <ele>622.11</ele>
        <time>2024-04-29T11:37:19Z</time>
      </trkpt>
      <trkpt lat="45.78839" lon="4.45974">
        <ele>619.23</ele>
        <time>2024-04-29T11:37:45Z</time>
      </trkpt>
      <trkpt lat="45.78803" lon="4.45986">
        <ele>619.23</ele>
        <time>2024-04-29T11:38:07Z</time>
      </trkpt>
      <trkpt lat="45.78772" lon="4.46011">
        <ele>618.75</ele>
        <time>2024-04-29T11:38:25Z</time>
      </trkpt>
      <trkpt lat="45.78745" lon="4.46045">
        <ele>615.86</ele>
        <time>2024-04-29T11:38:47Z</time>
      </trkpt>
      <trkpt lat="45.78713" lon="4.46059">
        <ele>617.3</ele>
        <time>2024-04-29T11:39:06Z</time>
      </trkpt>
      <trkpt lat="45.78682" lon="4.46058">
        <ele>617.78</ele>
        <time>2024-04-29T11:39:24Z</time>
      </trkpt>
      <trkpt lat="45.78658" lon="4.46057">
        <ele>614.42</ele>
        <time>2024-04-29T11:39:43Z</time>
      </trkpt>
      <trkpt lat="45.78656" lon="4.46056">
        <ele>613.94</ele>
        <time>2024-04-29T11:39:57Z</time>
      </trkpt>
      <trkpt lat="45.78656" lon="4.46054">
        <ele>613.94</ele>
        <time>2024-04-29T11:39:58Z</time>
      </trkpt>
      <trkpt lat="45.78655" lon="4.46052">
        <ele>613.94</ele>
        <time>2024-04-29T11:40:13Z</time>
      </trkpt>
      <trkpt lat="45.78653" lon="4.46055">
        <ele>614.42</ele>
        <time>2024-04-29T11:40:17Z</time>
      </trkpt>
      <trkpt lat="45.78652" lon="4.46056">
        <ele>614.42</ele>
        <time>2024-04-29T11:40:18Z</time>
      </trkpt>
      <trkpt lat="45.78651" lon="4.46058">
        <ele>614.42</ele>
        <time>2024-04-29T11:40:19Z</time>
      </trkpt>
      <trkpt lat="45.7865" lon="4.46059">
        <ele>614.42</ele>
        <time>2024-04-29T11:40:20Z</time>
      </trkpt>
      <trkpt lat="45.78649" lon="4.4606">
        <ele>614.42</ele>
        <time>2024-04-29T11:40:21Z</time>
      </trkpt>
      <trkpt lat="45.78647" lon="4.46061">
        <ele>614.42</ele>
        <time>2024-04-29T11:40:22Z</time>
      </trkpt>
      <trkpt lat="45.78646" lon="4.46062">
        <ele>614.42</ele>
        <time>2024-04-29T11:40:23Z</time>
      </trkpt>
      <trkpt lat="45.78644" lon="4.46063">
        <ele>614.42</ele>
        <time>2024-04-29T11:40:24Z</time>
      </trkpt>
      <trkpt lat="45.78643" lon="4.46065">
        <ele>614.42</ele>
        <time>2024-04-29T11:40:25Z</time>
      </trkpt>
      <trkpt lat="45.78642" lon="4.46066">
        <ele>614.42</ele>
        <time>2024-04-29T11:40:26Z</time>
      </trkpt>
      <trkpt lat="45.78641" lon="4.46067">
        <ele>614.42</ele>
        <time>2024-04-29T11:40:27Z</time>
      </trkpt>
      <trkpt lat="45.78639" lon="4.46068">
        <ele>614.42</ele>
        <time>2024-04-29T11:40:28Z</time>
      </trkpt>
      <trkpt lat="45.78619" lon="4.4609">
        <ele>614.42</ele>
        <time>2024-04-29T11:40:46Z</time>
      </trkpt>
      <trkpt lat="45.78598" lon="4.46113">
        <ele>615.38</ele>
        <time>2024-04-29T11:41:03Z</time>
      </trkpt>
      <trkpt lat="45.78583" lon="4.46129">
        <ele>614.9</ele>
        <time>2024-04-29T11:41:16Z</time>
      </trkpt>
      <trkpt lat="45.78582" lon="4.46131">
        <ele>614.9</ele>
        <time>2024-04-29T11:41:17Z</time>
      </trkpt>
      <trkpt lat="45.78581" lon="4.46133">
        <ele>615.38</ele>
        <time>2024-04-29T11:41:18Z</time>
      </trkpt>
      <trkpt lat="45.78579" lon="4.46134">
        <ele>615.38</ele>
        <time>2024-04-29T11:41:19Z</time>
      </trkpt>
      <trkpt lat="45.78578" lon="4.46135">
        <ele>615.38</ele>
        <time>2024-04-29T11:41:20Z</time>
      </trkpt>
      <trkpt lat="45.78557" lon="4.46167">
        <ele>617.78</ele>
        <time>2024-04-29T11:41:40Z</time>
      </trkpt>
      <trkpt lat="45.78536" lon="4.46199">
        <ele>618.75</ele>
        <time>2024-04-29T11:42:00Z</time>
      </trkpt>
      <trkpt lat="45.78512" lon="4.46237">
        <ele>618.26</ele>
        <time>2024-04-29T11:42:24Z</time>
      </trkpt>
      <trkpt lat="45.78494" lon="4.46271">
        <ele>614.42</ele>
        <time>2024-04-29T11:42:43Z</time>
      </trkpt>
      <trkpt lat="45.78474" lon="4.46293">
        <ele>610.57</ele>
        <time>2024-04-29T11:42:59Z</time>
      </trkpt>
      <trkpt lat="45.78449" lon="4.46298">
        <ele>607.21</ele>
        <time>2024-04-29T11:43:16Z</time>
      </trkpt>
      <trkpt lat="45.78436" lon="4.46314">
        <ele>604.33</ele>
        <time>2024-04-29T11:43:30Z</time>
      </trkpt>
      <trkpt lat="45.78425" lon="4.46335">
        <ele>601.92</ele>
        <time>2024-04-29T11:43:45Z</time>
      </trkpt>
      <trkpt lat="45.78405" lon="4.46341">
        <ele>596.64</ele>
        <time>2024-04-29T11:44:03Z</time>
      </trkpt>
      <trkpt lat="45.78382" lon="4.46347">
        <ele>592.79</ele>
        <time>2024-04-29T11:44:19Z</time>
      </trkpt>
      <trkpt lat="45.78363" lon="4.46357">
        <ele>587.5</ele>
        <time>2024-04-29T11:44:36Z</time>
      </trkpt>
      <trkpt lat="45.78361" lon="4.46362">
        <ele>587.02</ele>
        <time>2024-04-29T11:44:39Z</time>
      </trkpt>
      <trkpt lat="45.7836" lon="4.46364">
        <ele>586.54</ele>
        <time>2024-04-29T11:44:40Z</time>
      </trkpt>
      <trkpt lat="45.78359" lon="4.46366">
        <ele>586.54</ele>
        <time>2024-04-29T11:44:41Z</time>
      </trkpt>
      <trkpt lat="45.78357" lon="4.46367">
        <ele>586.06</ele>
        <time>2024-04-29T11:44:42Z</time>
      </trkpt>
      <trkpt lat="45.78356" lon="4.46369">
        <ele>586.06</ele>
        <time>2024-04-29T11:44:43Z</time>
      </trkpt>
      <trkpt lat="45.78334" lon="4.46386">
        <ele>581.73</ele>
        <time>2024-04-29T11:45:03Z</time>
      </trkpt>
      <trkpt lat="45.78311" lon="4.46402">
        <ele>576.93</ele>
        <time>2024-04-29T11:45:21Z</time>
      </trkpt>
      <trkpt lat="45.78284" lon="4.46417">
        <ele>570.2</ele>
        <time>2024-04-29T11:45:43Z</time>
      </trkpt>
      <trkpt lat="45.78257" lon="4.46428">
        <ele>562.51</ele>
        <time>2024-04-29T11:46:02Z</time>
      </trkpt>
      <trkpt lat="45.78243" lon="4.46437">
        <ele>560.11</ele>
        <time>2024-04-29T11:46:12Z</time>
      </trkpt>
      <trkpt lat="45.78241" lon="4.46438">
        <ele>560.11</ele>
        <time>2024-04-29T11:46:13Z</time>
      </trkpt>
      <trkpt lat="45.7824" lon="4.46438">
        <ele>561.07</ele>
        <time>2024-04-29T11:46:14Z</time>
      </trkpt>
      <trkpt lat="45.78218" lon="4.46452">
        <ele>560.11</ele>
        <time>2024-04-29T11:46:29Z</time>
      </trkpt>
      <trkpt lat="45.78191" lon="4.46457">
        <ele>557.7</ele>
        <time>2024-04-29T11:46:46Z</time>
      </trkpt>
      <trkpt lat="45.78173" lon="4.46436">
        <ele>556.74</ele>
        <time>2024-04-29T11:47:00Z</time>
      </trkpt>
      <trkpt lat="45.78153" lon="4.46399">
        <ele>557.22</ele>
        <time>2024-04-29T11:47:19Z</time>
      </trkpt>
      <trkpt lat="45.78128" lon="4.46385">
        <ele>560.11</ele>
        <time>2024-04-29T11:47:37Z</time>
      </trkpt>
      <trkpt lat="45.78096" lon="4.46389">
        <ele>564.43</ele>
        <time>2024-04-29T11:48:00Z</time>
      </trkpt>
      <trkpt lat="45.78065" lon="4.46387">
        <ele>569.24</ele>
        <time>2024-04-29T11:48:21Z</time>
      </trkpt>
      <trkpt lat="45.78034" lon="4.46384">
        <ele>572.6</ele>
        <time>2024-04-29T11:48:42Z</time>
      </trkpt>
      <trkpt lat="45.78013" lon="4.46379">
        <ele>573.56</ele>
        <time>2024-04-29T11:48:57Z</time>
      </trkpt>
      <trkpt lat="45.78011" lon="4.46379">
        <ele>573.56</ele>
        <time>2024-04-29T11:48:58Z</time>
      </trkpt>
      <trkpt lat="45.77982" lon="4.46356">
        <ele>574.04</ele>
        <time>2024-04-29T11:49:20Z</time>
      </trkpt>
      <trkpt lat="45.77961" lon="4.4633">
        <ele>574.04</ele>
        <time>2024-04-29T11:49:36Z</time>
      </trkpt>
      <trkpt lat="45.77954" lon="4.46315">
        <ele>574.53</ele>
        <time>2024-04-29T11:49:51Z</time>
      </trkpt>
      <trkpt lat="45.77953" lon="4.46314">
        <ele>574.04</ele>
        <time>2024-04-29T11:50:24Z</time>
      </trkpt>
      <trkpt lat="45.77941" lon="4.4629">
        <ele>572.12</ele>
        <time>2024-04-29T11:50:37Z</time>
      </trkpt>
      <trkpt lat="45.77929" lon="4.4626">
        <ele>569.24</ele>
        <time>2024-04-29T11:50:53Z</time>
      </trkpt>
      <trkpt lat="45.77918" lon="4.46223">
        <ele>566.35</ele>
        <time>2024-04-29T11:51:09Z</time>
      </trkpt>
      <trkpt lat="45.779" lon="4.46198">
        <ele>562.99</ele>
        <time>2024-04-29T11:51:23Z</time>
      </trkpt>
      <trkpt lat="45.77877" lon="4.46189">
        <ele>561.07</ele>
        <time>2024-04-29T11:51:38Z</time>
      </trkpt>
      <trkpt lat="45.77851" lon="4.46196">
        <ele>558.66</ele>
        <time>2024-04-29T11:51:55Z</time>
      </trkpt>
      <trkpt lat="45.77826" lon="4.4619">
        <ele>559.14</ele>
        <time>2024-04-29T11:52:11Z</time>
      </trkpt>
      <trkpt lat="45.77797" lon="4.46179">
        <ele>563.95</ele>
        <time>2024-04-29T11:52:31Z</time>
      </trkpt>
      <trkpt lat="45.77773" lon="4.46162">
        <ele>573.56</ele>
        <time>2024-04-29T11:52:49Z</time>
      </trkpt>
      <trkpt lat="45.77752" lon="4.46137">
        <ele>578.37</ele>
        <time>2024-04-29T11:53:06Z</time>
      </trkpt>
      <trkpt lat="45.77729" lon="4.46108">
        <ele>579.33</ele>
        <time>2024-04-29T11:53:26Z</time>
      </trkpt>
      <trkpt lat="45.77721" lon="4.46104">
        <ele>579.81</ele>
        <time>2024-04-29T11:53:31Z</time>
      </trkpt>
      <trkpt lat="45.7772" lon="4.46102">
        <ele>579.81</ele>
        <time>2024-04-29T11:53:32Z</time>
      </trkpt>
      <trkpt lat="45.77718" lon="4.46102">
        <ele>579.81</ele>
        <time>2024-04-29T11:53:43Z</time>
      </trkpt>
      <trkpt lat="45.77717" lon="4.46103">
        <ele>579.81</ele>
        <time>2024-04-29T11:53:44Z</time>
      </trkpt>
      <trkpt lat="45.77701" lon="4.46101">
        <ele>578.85</ele>
        <time>2024-04-29T11:53:56Z</time>
      </trkpt>
      <trkpt lat="45.77672" lon="4.46113">
        <ele>578.37</ele>
        <time>2024-04-29T11:54:13Z</time>
      </trkpt>
      <trkpt lat="45.77641" lon="4.46134">
        <ele>576.45</ele>
        <time>2024-04-29T11:54:34Z</time>
      </trkpt>
      <trkpt lat="45.77619" lon="4.46147">
        <ele>572.6</ele>
        <time>2024-04-29T11:54:51Z</time>
      </trkpt>
      <trkpt lat="45.7759" lon="4.46164">
        <ele>574.04</ele>
        <time>2024-04-29T11:55:11Z</time>
      </trkpt>
      <trkpt lat="45.77566" lon="4.46183">
        <ele>577.89</ele>
        <time>2024-04-29T11:55:29Z</time>
      </trkpt>
      <trkpt lat="45.77545" lon="4.46196">
        <ele>580.77</ele>
        <time>2024-04-29T11:55:43Z</time>
      </trkpt>
      <trkpt lat="45.77535" lon="4.46208">
        <ele>586.06</ele>
        <time>2024-04-29T11:55:58Z</time>
      </trkpt>
      <trkpt lat="45.77516" lon="4.46216">
        <ele>594.23</ele>
        <time>2024-04-29T11:56:16Z</time>
      </trkpt>
      <trkpt lat="45.7749" lon="4.46224">
        <ele>596.15</ele>
        <time>2024-04-29T11:56:32Z</time>
      </trkpt>
      <trkpt lat="45.77462" lon="4.46228">
        <ele>594.71</ele>
        <time>2024-04-29T11:56:50Z</time>
      </trkpt>
      <trkpt lat="45.7743" lon="4.46221">
        <ele>594.71</ele>
        <time>2024-04-29T11:57:09Z</time>
      </trkpt>
      <trkpt lat="45.77403" lon="4.46207">
        <ele>594.23</ele>
        <time>2024-04-29T11:57:28Z</time>
      </trkpt>
      <trkpt lat="45.77392" lon="4.46201">
        <ele>594.23</ele>
        <time>2024-04-29T11:57:37Z</time>
      </trkpt>
      <trkpt lat="45.7739" lon="4.46201">
        <ele>594.23</ele>
        <time>2024-04-29T11:57:38Z</time>
      </trkpt>
      <trkpt lat="45.77365" lon="4.4619">
        <ele>594.71</ele>
        <time>2024-04-29T11:57:57Z</time>
      </trkpt>
      <trkpt lat="45.77341" lon="4.46188">
        <ele>595.19</ele>
        <time>2024-04-29T11:58:14Z</time>
      </trkpt>
      <trkpt lat="45.77318" lon="4.46198">
        <ele>598.08</ele>
        <time>2024-04-29T11:58:29Z</time>
      </trkpt>
      <trkpt lat="45.77299" lon="4.46204">
        <ele>595.67</ele>
        <time>2024-04-29T11:58:42Z</time>
      </trkpt>
      <trkpt lat="45.77275" lon="4.46229">
        <ele>601.44</ele>
        <time>2024-04-29T11:58:59Z</time>
      </trkpt>
      <trkpt lat="45.77249" lon="4.46252">
        <ele>604.81</ele>
        <time>2024-04-29T11:59:17Z</time>
      </trkpt>
      <trkpt lat="45.77242" lon="4.46259">
        <ele>604.33</ele>
        <time>2024-04-29T11:59:21Z</time>
      </trkpt>
      <trkpt lat="45.7724" lon="4.46259">
        <ele>603.85</ele>
        <time>2024-04-29T11:59:23Z</time>
      </trkpt>
      <trkpt lat="45.77239" lon="4.4626">
        <ele>603.85</ele>
        <time>2024-04-29T11:59:24Z</time>
      </trkpt>
      <trkpt lat="45.77222" lon="4.46277">
        <ele>600.48</ele>
        <time>2024-04-29T11:59:41Z</time>
      </trkpt>
      <trkpt lat="45.7721" lon="4.46304">
        <ele>600.96</ele>
        <time>2024-04-29T11:59:55Z</time>
      </trkpt>
      <trkpt lat="45.77204" lon="4.46311">
        <ele>600</ele>
        <time>2024-04-29T11:59:59Z</time>
      </trkpt>
      <trkpt lat="45.77203" lon="4.46313">
        <ele>600</ele>
        <time>2024-04-29T12:00:00Z</time>
      </trkpt>
      <trkpt lat="45.77202" lon="4.46315">
        <ele>600</ele>
        <time>2024-04-29T12:00:01Z</time>
      </trkpt>
      <trkpt lat="45.77184" lon="4.46328">
        <ele>601.92</ele>
        <time>2024-04-29T12:00:15Z</time>
      </trkpt>
      <trkpt lat="45.77149" lon="4.4634">
        <ele>603.36</ele>
        <time>2024-04-29T12:00:39Z</time>
      </trkpt>
      <trkpt lat="45.77123" lon="4.4634">
        <ele>605.29</ele>
        <time>2024-04-29T12:00:56Z</time>
      </trkpt>
      <trkpt lat="45.77099" lon="4.46335">
        <ele>605.29</ele>
        <time>2024-04-29T12:01:13Z</time>
      </trkpt>
      <trkpt lat="45.7707" lon="4.46333">
        <ele>605.77</ele>
        <time>2024-04-29T12:01:33Z</time>
      </trkpt>
      <trkpt lat="45.77044" lon="4.46321">
        <ele>609.61</ele>
        <time>2024-04-29T12:01:52Z</time>
      </trkpt>
      <trkpt lat="45.77026" lon="4.46295">
        <ele>607.69</ele>
        <time>2024-04-29T12:02:11Z</time>
      </trkpt>
      <trkpt lat="45.7701" lon="4.46249">
        <ele>609.13</ele>
        <time>2024-04-29T12:02:36Z</time>
      </trkpt>
      <trkpt lat="45.77012" lon="4.46231">
        <ele>610.57</ele>
        <time>2024-04-29T12:02:49Z</time>
      </trkpt>
      <trkpt lat="45.77013" lon="4.46229">
        <ele>610.57</ele>
        <time>2024-04-29T12:02:50Z</time>
      </trkpt>
      <trkpt lat="45.77013" lon="4.46227">
        <ele>610.57</ele>
        <time>2024-04-29T12:02:51Z</time>
      </trkpt>
      <trkpt lat="45.77013" lon="4.46221">
        <ele>611.06</ele>
        <time>2024-04-29T12:03:04Z</time>
      </trkpt>
      <trkpt lat="45.77011" lon="4.46233">
        <ele>610.57</ele>
        <time>2024-04-29T12:03:10Z</time>
      </trkpt>
      <trkpt lat="45.77008" lon="4.46235">
        <ele>610.57</ele>
        <time>2024-04-29T12:03:13Z</time>
      </trkpt>
      <trkpt lat="45.77006" lon="4.46227">
        <ele>610.09</ele>
        <time>2024-04-29T12:03:18Z</time>
      </trkpt>
      <trkpt lat="45.77" lon="4.46189">
        <ele>606.73</ele>
        <time>2024-04-29T12:03:37Z</time>
      </trkpt>
      <trkpt lat="45.76992" lon="4.46158">
        <ele>604.81</ele>
        <time>2024-04-29T12:03:55Z</time>
      </trkpt>
      <trkpt lat="45.76986" lon="4.46123">
        <ele>601.92</ele>
        <time>2024-04-29T12:04:12Z</time>
      </trkpt>
      <trkpt lat="45.76979" lon="4.46095">
        <ele>601.44</ele>
        <time>2024-04-29T12:04:27Z</time>
      </trkpt>
      <trkpt lat="45.76978" lon="4.46068">
        <ele>600.96</ele>
        <time>2024-04-29T12:04:40Z</time>
      </trkpt>
      <trkpt lat="45.76978" lon="4.46047">
        <ele>600</ele>
        <time>2024-04-29T12:04:56Z</time>
      </trkpt>
      <trkpt lat="45.76978" lon="4.46038">
        <ele>600.48</ele>
        <time>2024-04-29T12:05:12Z</time>
      </trkpt>
      <trkpt lat="45.76978" lon="4.46036">
        <ele>599.52</ele>
        <time>2024-04-29T12:05:32Z</time>
      </trkpt>
      <trkpt lat="45.76976" lon="4.46034">
        <ele>599.52</ele>
        <time>2024-04-29T12:05:56Z</time>
      </trkpt>
      <trkpt lat="45.76977" lon="4.46035">
        <ele>600.48</ele>
        <time>2024-04-29T12:06:22Z</time>
      </trkpt>
      <trkpt lat="45.76979" lon="4.46041">
        <ele>606.73</ele>
        <time>2024-04-29T12:06:39Z</time>
      </trkpt>
      <trkpt lat="45.76982" lon="4.46072">
        <ele>605.77</ele>
        <time>2024-04-29T12:06:55Z</time>
      </trkpt>
      <trkpt lat="45.76983" lon="4.46081">
        <ele>605.77</ele>
        <time>2024-04-29T12:07:00Z</time>
      </trkpt>
      <trkpt lat="45.76979" lon="4.46098">
        <ele>605.29</ele>
        <time>2024-04-29T12:07:08Z</time>
      </trkpt>
      <trkpt lat="45.76973" lon="4.46102">
        <ele>603.85</ele>
        <time>2024-04-29T12:07:16Z</time>
      </trkpt>
      <trkpt lat="45.76965" lon="4.46074">
        <ele>601.44</ele>
        <time>2024-04-29T12:07:32Z</time>
      </trkpt>
      <trkpt lat="45.76959" lon="4.46054">
        <ele>600.48</ele>
        <time>2024-04-29T12:07:43Z</time>
      </trkpt>
      <trkpt lat="45.76955" lon="4.46029">
        <ele>597.6</ele>
        <time>2024-04-29T12:07:56Z</time>
      </trkpt>
      <trkpt lat="45.7695" lon="4.46001">
        <ele>593.27</ele>
        <time>2024-04-29T12:08:10Z</time>
      </trkpt>
      <trkpt lat="45.76952" lon="4.4595">
        <ele>585.1</ele>
        <time>2024-04-29T12:08:32Z</time>
      </trkpt>
      <trkpt lat="45.76958" lon="4.45914">
        <ele>580.77</ele>
        <time>2024-04-29T12:08:48Z</time>
      </trkpt>
      <trkpt lat="45.76962" lon="4.45877">
        <ele>576.93</ele>
        <time>2024-04-29T12:09:05Z</time>
      </trkpt>
      <trkpt lat="45.76952" lon="4.45841">
        <ele>570.68</ele>
        <time>2024-04-29T12:09:22Z</time>
      </trkpt>
      <trkpt lat="45.7693" lon="4.45806">
        <ele>567.8</ele>
        <time>2024-04-29T12:09:39Z</time>
      </trkpt>
      <trkpt lat="45.76899" lon="4.45804">
        <ele>565.39</ele>
        <time>2024-04-29T12:09:55Z</time>
      </trkpt>
      <trkpt lat="45.76878" lon="4.45778">
        <ele>574.04</ele>
        <time>2024-04-29T12:10:15Z</time>
      </trkpt>
      <trkpt lat="45.76875" lon="4.45739">
        <ele>580.29</ele>
        <time>2024-04-29T12:10:34Z</time>
      </trkpt>
      <trkpt lat="45.76873" lon="4.45697">
        <ele>586.06</ele>
        <time>2024-04-29T12:10:56Z</time>
      </trkpt>
      <trkpt lat="45.7686" lon="4.45675">
        <ele>589.43</ele>
        <time>2024-04-29T12:11:12Z</time>
      </trkpt>
      <trkpt lat="45.76853" lon="4.45672">
        <ele>590.39</ele>
        <time>2024-04-29T12:11:17Z</time>
      </trkpt>
      <trkpt lat="45.76847" lon="4.45671">
        <ele>593.75</ele>
        <time>2024-04-29T12:11:33Z</time>
      </trkpt>
      <trkpt lat="45.7683" lon="4.45675">
        <ele>593.75</ele>
        <time>2024-04-29T12:11:50Z</time>
      </trkpt>
      <trkpt lat="45.76807" lon="4.45693">
        <ele>593.27</ele>
        <time>2024-04-29T12:12:07Z</time>
      </trkpt>
      <trkpt lat="45.76788" lon="4.45716">
        <ele>593.75</ele>
        <time>2024-04-29T12:12:24Z</time>
      </trkpt>
      <trkpt lat="45.76772" lon="4.45743">
        <ele>592.31</ele>
        <time>2024-04-29T12:12:41Z</time>
      </trkpt>
      <trkpt lat="45.76745" lon="4.45776">
        <ele>593.75</ele>
        <time>2024-04-29T12:13:05Z</time>
      </trkpt>
      <trkpt lat="45.76722" lon="4.45795">
        <ele>591.83</ele>
        <time>2024-04-29T12:13:23Z</time>
      </trkpt>
      <trkpt lat="45.76719" lon="4.458">
        <ele>590.87</ele>
        <time>2024-04-29T12:13:27Z</time>
      </trkpt>
      <trkpt lat="45.76708" lon="4.45825">
        <ele>583.18</ele>
        <time>2024-04-29T12:13:43Z</time>
      </trkpt>
      <trkpt lat="45.767" lon="4.45835">
        <ele>578.37</ele>
        <time>2024-04-29T12:13:52Z</time>
      </trkpt>
      <trkpt lat="45.76699" lon="4.45835">
        <ele>577.89</ele>
        <time>2024-04-29T12:13:53Z</time>
      </trkpt>
      <trkpt lat="45.76698" lon="4.45835">
        <ele>577.89</ele>
        <time>2024-04-29T12:13:54Z</time>
      </trkpt>
      <trkpt lat="45.76675" lon="4.45831">
        <ele>577.41</ele>
        <time>2024-04-29T12:14:11Z</time>
      </trkpt>
      <trkpt lat="45.76651" lon="4.45816">
        <ele>575.49</ele>
        <time>2024-04-29T12:14:28Z</time>
      </trkpt>
      <trkpt lat="45.76629" lon="4.45794">
        <ele>572.12</ele>
        <time>2024-04-29T12:14:45Z</time>
      </trkpt>
      <trkpt lat="45.76608" lon="4.45779">
        <ele>568.76</ele>
        <time>2024-04-29T12:15:02Z</time>
      </trkpt>
      <trkpt lat="45.76594" lon="4.45748">
        <ele>567.8</ele>
        <time>2024-04-29T12:15:15Z</time>
      </trkpt>
      <trkpt lat="45.76587" lon="4.45718">
        <ele>569.72</ele>
        <time>2024-04-29T12:15:31Z</time>
      </trkpt>
      <trkpt lat="45.76567" lon="4.45684">
        <ele>569.72</ele>
        <time>2024-04-29T12:15:52Z</time>
      </trkpt>
      <trkpt lat="45.76548" lon="4.45662">
        <ele>568.28</ele>
        <time>2024-04-29T12:16:04Z</time>
      </trkpt>
      <trkpt lat="45.76527" lon="4.45639">
        <ele>567.32</ele>
        <time>2024-04-29T12:16:21Z</time>
      </trkpt>
      <trkpt lat="45.76508" lon="4.45619">
        <ele>566.83</ele>
        <time>2024-04-29T12:16:37Z</time>
      </trkpt>
      <trkpt lat="45.76485" lon="4.456">
        <ele>567.32</ele>
        <time>2024-04-29T12:16:54Z</time>
      </trkpt>
      <trkpt lat="45.76458" lon="4.456">
        <ele>570.2</ele>
        <time>2024-04-29T12:17:12Z</time>
      </trkpt>
      <trkpt lat="45.76446" lon="4.45629">
        <ele>578.85</ele>
        <time>2024-04-29T12:17:30Z</time>
      </trkpt>
      <trkpt lat="45.76443" lon="4.45664">
        <ele>586.54</ele>
        <time>2024-04-29T12:17:48Z</time>
      </trkpt>
      <trkpt lat="45.76438" lon="4.45699">
        <ele>589.91</ele>
        <time>2024-04-29T12:18:07Z</time>
      </trkpt>
      <trkpt lat="45.76418" lon="4.45724">
        <ele>592.79</ele>
        <time>2024-04-29T12:18:27Z</time>
      </trkpt>
      <trkpt lat="45.76387" lon="4.45732">
        <ele>596.15</ele>
        <time>2024-04-29T12:18:49Z</time>
      </trkpt>
      <trkpt lat="45.76361" lon="4.45716">
        <ele>598.56</ele>
        <time>2024-04-29T12:19:09Z</time>
      </trkpt>
      <trkpt lat="45.7633" lon="4.45695">
        <ele>602.88</ele>
        <time>2024-04-29T12:19:33Z</time>
      </trkpt>
      <trkpt lat="45.76301" lon="4.45688">
        <ele>607.69</ele>
        <time>2024-04-29T12:19:54Z</time>
      </trkpt>
      <trkpt lat="45.76272" lon="4.45678">
        <ele>607.69</ele>
        <time>2024-04-29T12:20:15Z</time>
      </trkpt>
      <trkpt lat="45.76246" lon="4.45662">
        <ele>608.65</ele>
        <time>2024-04-29T12:20:35Z</time>
      </trkpt>
      <trkpt lat="45.76225" lon="4.45649">
        <ele>607.21</ele>
        <time>2024-04-29T12:20:54Z</time>
      </trkpt>
      <trkpt lat="45.76219" lon="4.45647">
        <ele>606.73</ele>
        <time>2024-04-29T12:21:15Z</time>
      </trkpt>
      <trkpt lat="45.76199" lon="4.45642">
        <ele>603.85</ele>
        <time>2024-04-29T12:21:32Z</time>
      </trkpt>
      <trkpt lat="45.76173" lon="4.45629">
        <ele>599.52</ele>
        <time>2024-04-29T12:21:53Z</time>
      </trkpt>
      <trkpt lat="45.7615" lon="4.45603">
        <ele>595.67</ele>
        <time>2024-04-29T12:22:15Z</time>
      </trkpt>
      <trkpt lat="45.76136" lon="4.45566">
        <ele>592.31</ele>
        <time>2024-04-29T12:22:36Z</time>
      </trkpt>
      <trkpt lat="45.76126" lon="4.4553">
        <ele>590.87</ele>
        <time>2024-04-29T12:22:54Z</time>
      </trkpt>
      <trkpt lat="45.76117" lon="4.4549">
        <ele>587.02</ele>
        <time>2024-04-29T12:23:15Z</time>
      </trkpt>
      <trkpt lat="45.76097" lon="4.45457">
        <ele>581.25</ele>
        <time>2024-04-29T12:23:36Z</time>
      </trkpt>
      <trkpt lat="45.76076" lon="4.45447">
        <ele>580.29</ele>
        <time>2024-04-29T12:23:51Z</time>
      </trkpt>
      <trkpt lat="45.76045" lon="4.4545">
        <ele>582.22</ele>
        <time>2024-04-29T12:24:12Z</time>
      </trkpt>
      <trkpt lat="45.76015" lon="4.45454">
        <ele>578.37</ele>
        <time>2024-04-29T12:24:32Z</time>
      </trkpt>
      <trkpt lat="45.75988" lon="4.45473">
        <ele>576.45</ele>
        <time>2024-04-29T12:24:52Z</time>
      </trkpt>
      <trkpt lat="45.75965" lon="4.4549">
        <ele>574.53</ele>
        <time>2024-04-29T12:25:09Z</time>
      </trkpt>
      <trkpt lat="45.75941" lon="4.45498">
        <ele>574.53</ele>
        <time>2024-04-29T12:25:26Z</time>
      </trkpt>
      <trkpt lat="45.75917" lon="4.455">
        <ele>573.08</ele>
        <time>2024-04-29T12:25:43Z</time>
      </trkpt>
      <trkpt lat="45.75898" lon="4.45525">
        <ele>573.08</ele>
        <time>2024-04-29T12:26:00Z</time>
      </trkpt>
      <trkpt lat="45.75886" lon="4.45564">
        <ele>575.49</ele>
        <time>2024-04-29T12:26:19Z</time>
      </trkpt>
      <trkpt lat="45.7586" lon="4.45583">
        <ele>578.37</ele>
        <time>2024-04-29T12:26:39Z</time>
      </trkpt>
      <trkpt lat="45.75835" lon="4.45589">
        <ele>582.7</ele>
        <time>2024-04-29T12:26:59Z</time>
      </trkpt>
      <trkpt lat="45.75827" lon="4.45589">
        <ele>582.7</ele>
        <time>2024-04-29T12:27:05Z</time>
      </trkpt>
      <trkpt lat="45.75825" lon="4.45589">
        <ele>582.7</ele>
        <time>2024-04-29T12:27:06Z</time>
      </trkpt>
      <trkpt lat="45.75799" lon="4.45594">
        <ele>582.7</ele>
        <time>2024-04-29T12:27:24Z</time>
      </trkpt>
      <trkpt lat="45.75774" lon="4.45602">
        <ele>582.7</ele>
        <time>2024-04-29T12:27:39Z</time>
      </trkpt>
      <trkpt lat="45.7577" lon="4.45603">
        <ele>582.22</ele>
        <time>2024-04-29T12:27:42Z</time>
      </trkpt>
      <trkpt lat="45.75769" lon="4.45603">
        <ele>582.22</ele>
        <time>2024-04-29T12:27:43Z</time>
      </trkpt>
      <trkpt lat="45.75741" lon="4.45618">
        <ele>581.25</ele>
        <time>2024-04-29T12:28:02Z</time>
      </trkpt>
      <trkpt lat="45.75718" lon="4.45641">
        <ele>581.73</ele>
        <time>2024-04-29T12:28:19Z</time>
      </trkpt>
      <trkpt lat="45.75702" lon="4.45677">
        <ele>584.14</ele>
        <time>2024-04-29T12:28:39Z</time>
      </trkpt>
      <trkpt lat="45.7569" lon="4.45707">
        <ele>582.22</ele>
        <time>2024-04-29T12:28:57Z</time>
      </trkpt>
      <trkpt lat="45.7567" lon="4.4571">
        <ele>578.37</ele>
        <time>2024-04-29T12:29:15Z</time>
      </trkpt>
      <trkpt lat="45.75653" lon="4.45705">
        <ele>577.41</ele>
        <time>2024-04-29T12:29:27Z</time>
      </trkpt>
      <trkpt lat="45.75629" lon="4.45674">
        <ele>584.14</ele>
        <time>2024-04-29T12:29:46Z</time>
      </trkpt>
      <trkpt lat="45.75608" lon="4.45682">
        <ele>583.66</ele>
        <time>2024-04-29T12:30:01Z</time>
      </trkpt>
      <trkpt lat="45.75587" lon="4.45703">
        <ele>586.06</ele>
        <time>2024-04-29T12:30:19Z</time>
      </trkpt>
      <trkpt lat="45.75561" lon="4.45727">
        <ele>590.39</ele>
        <time>2024-04-29T12:30:41Z</time>
      </trkpt>
      <trkpt lat="45.75531" lon="4.45741">
        <ele>591.83</ele>
        <time>2024-04-29T12:31:03Z</time>
      </trkpt>
      <trkpt lat="45.75498" lon="4.4575">
        <ele>596.64</ele>
        <time>2024-04-29T12:31:27Z</time>
      </trkpt>
      <trkpt lat="45.75467" lon="4.45759">
        <ele>600.48</ele>
        <time>2024-04-29T12:31:50Z</time>
      </trkpt>
      <trkpt lat="45.7544" lon="4.45763">
        <ele>603.85</ele>
        <time>2024-04-29T12:32:11Z</time>
      </trkpt>
      <trkpt lat="45.7541" lon="4.45748">
        <ele>606.25</ele>
        <time>2024-04-29T12:32:33Z</time>
      </trkpt>
      <trkpt lat="45.75382" lon="4.45743">
        <ele>608.17</ele>
        <time>2024-04-29T12:32:53Z</time>
      </trkpt>
      <trkpt lat="45.75355" lon="4.45763">
        <ele>608.17</ele>
        <time>2024-04-29T12:33:16Z</time>
      </trkpt>
      <trkpt lat="45.75343" lon="4.45806">
        <ele>612.5</ele>
        <time>2024-04-29T12:33:39Z</time>
      </trkpt>
      <trkpt lat="45.7532" lon="4.45845">
        <ele>616.34</ele>
        <time>2024-04-29T12:34:04Z</time>
      </trkpt>
      <trkpt lat="45.753" lon="4.45879">
        <ele>617.78</ele>
        <time>2024-04-29T12:34:28Z</time>
      </trkpt>
      <trkpt lat="45.75277" lon="4.45906">
        <ele>613.46</ele>
        <time>2024-04-29T12:34:50Z</time>
      </trkpt>
      <trkpt lat="45.75253" lon="4.45947">
        <ele>616.34</ele>
        <time>2024-04-29T12:35:12Z</time>
      </trkpt>
      <trkpt lat="45.75231" lon="4.45995">
        <ele>616.82</ele>
        <time>2024-04-29T12:35:38Z</time>
      </trkpt>
      <trkpt lat="45.75228" lon="4.46021">
        <ele>619.23</ele>
        <time>2024-04-29T12:35:51Z</time>
      </trkpt>
      <trkpt lat="45.75219" lon="4.46072">
        <ele>624.03</ele>
        <time>2024-04-29T12:36:15Z</time>
      </trkpt>
      <trkpt lat="45.75215" lon="4.46079">
        <ele>638.45</ele>
        <time>2024-04-29T12:36:37Z</time>
      </trkpt>
      <trkpt lat="45.75217" lon="4.46081">
        <ele>637.49</ele>
        <time>2024-04-29T12:36:51Z</time>
      </trkpt>
      <trkpt lat="45.75218" lon="4.46083">
        <ele>637.49</ele>
        <time>2024-04-29T12:36:52Z</time>
      </trkpt>
      <trkpt lat="45.7522" lon="4.46084">
        <ele>637.49</ele>
        <time>2024-04-29T12:36:53Z</time>
      </trkpt>
      <trkpt lat="45.75239" lon="4.46104">
        <ele>637.01</ele>
        <time>2024-04-29T12:37:08Z</time>
      </trkpt>
      <trkpt lat="45.75259" lon="4.4613">
        <ele>633.17</ele>
        <time>2024-04-29T12:37:26Z</time>
      </trkpt>
      <trkpt lat="45.75279" lon="4.46156">
        <ele>629.32</ele>
        <time>2024-04-29T12:37:44Z</time>
      </trkpt>
      <trkpt lat="45.75306" lon="4.46188">
        <ele>624.03</ele>
        <time>2024-04-29T12:38:04Z</time>
      </trkpt>
      <trkpt lat="45.75334" lon="4.46214">
        <ele>616.34</ele>
        <time>2024-04-29T12:38:28Z</time>
      </trkpt>
      <trkpt lat="45.75368" lon="4.46244">
        <ele>609.13</ele>
        <time>2024-04-29T12:38:52Z</time>
      </trkpt>
      <trkpt lat="45.75399" lon="4.46265">
        <ele>613.94</ele>
        <time>2024-04-29T12:39:11Z</time>
      </trkpt>
      <trkpt lat="45.75429" lon="4.46289">
        <ele>615.86</ele>
        <time>2024-04-29T12:39:35Z</time>
      </trkpt>
      <trkpt lat="45.75457" lon="4.46311">
        <ele>618.26</ele>
        <time>2024-04-29T12:39:56Z</time>
      </trkpt>
      <trkpt lat="45.75483" lon="4.46333">
        <ele>617.78</ele>
        <time>2024-04-29T12:40:16Z</time>
      </trkpt>
      <trkpt lat="45.75506" lon="4.46348">
        <ele>617.78</ele>
        <time>2024-04-29T12:40:34Z</time>
      </trkpt>
      <trkpt lat="45.75531" lon="4.46371">
        <ele>617.78</ele>
        <time>2024-04-29T12:40:56Z</time>
      </trkpt>
      <trkpt lat="45.75562" lon="4.46397">
        <ele>616.34</ele>
        <time>2024-04-29T12:41:21Z</time>
      </trkpt>
      <trkpt lat="45.7558" lon="4.46423">
        <ele>612.5</ele>
        <time>2024-04-29T12:41:41Z</time>
      </trkpt>
      <trkpt lat="45.75579" lon="4.46424">
        <ele>612.5</ele>
        <time>2024-04-29T12:41:42Z</time>
      </trkpt>
      <trkpt lat="45.75579" lon="4.46426">
        <ele>612.5</ele>
        <time>2024-04-29T12:41:43Z</time>
      </trkpt>
      <trkpt lat="45.75579" lon="4.46428">
        <ele>612.02</ele>
        <time>2024-04-29T12:41:44Z</time>
      </trkpt>
      <trkpt lat="45.75579" lon="4.46429">
        <ele>612.02</ele>
        <time>2024-04-29T12:41:45Z</time>
      </trkpt>
      <trkpt lat="45.75579" lon="4.46431">
        <ele>611.54</ele>
        <time>2024-04-29T12:41:46Z</time>
      </trkpt>
      <trkpt lat="45.75579" lon="4.46433">
        <ele>611.54</ele>
        <time>2024-04-29T12:41:47Z</time>
      </trkpt>
      <trkpt lat="45.75579" lon="4.46435">
        <ele>611.54</ele>
        <time>2024-04-29T12:41:48Z</time>
      </trkpt>
      <trkpt lat="45.75579" lon="4.46437">
        <ele>611.06</ele>
        <time>2024-04-29T12:41:49Z</time>
      </trkpt>
      <trkpt lat="45.75579" lon="4.46439">
        <ele>611.06</ele>
        <time>2024-04-29T12:41:50Z</time>
      </trkpt>
      <trkpt lat="45.75583" lon="4.46475">
        <ele>608.65</ele>
        <time>2024-04-29T12:42:08Z</time>
      </trkpt>
      <trkpt lat="45.75601" lon="4.46506">
        <ele>606.25</ele>
        <time>2024-04-29T12:42:28Z</time>
      </trkpt>
      <trkpt lat="45.75589" lon="4.46537">
        <ele>605.29</ele>
        <time>2024-04-29T12:42:46Z</time>
      </trkpt>
      <trkpt lat="45.75588" lon="4.46542">
        <ele>605.29</ele>
        <time>2024-04-29T12:42:49Z</time>
      </trkpt>
      <trkpt lat="45.75575" lon="4.46571">
        <ele>606.25</ele>
        <time>2024-04-29T12:43:06Z</time>
      </trkpt>
      <trkpt lat="45.75555" lon="4.46602">
        <ele>606.73</ele>
        <time>2024-04-29T12:43:27Z</time>
      </trkpt>
      <trkpt lat="45.75539" lon="4.46626">
        <ele>605.29</ele>
        <time>2024-04-29T12:43:44Z</time>
      </trkpt>
      <trkpt lat="45.75521" lon="4.46653">
        <ele>605.77</ele>
        <time>2024-04-29T12:44:03Z</time>
      </trkpt>
      <trkpt lat="45.75503" lon="4.4666">
        <ele>605.29</ele>
        <time>2024-04-29T12:44:17Z</time>
      </trkpt>
      <trkpt lat="45.75481" lon="4.46673">
        <ele>604.33</ele>
        <time>2024-04-29T12:44:35Z</time>
      </trkpt>
      <trkpt lat="45.7546" lon="4.46691">
        <ele>603.36</ele>
        <time>2024-04-29T12:44:54Z</time>
      </trkpt>
      <trkpt lat="45.7544" lon="4.46708">
        <ele>601.92</ele>
        <time>2024-04-29T12:45:12Z</time>
      </trkpt>
      <trkpt lat="45.75418" lon="4.46735">
        <ele>600</ele>
        <time>2024-04-29T12:45:32Z</time>
      </trkpt>
      <trkpt lat="45.75403" lon="4.46763">
        <ele>597.6</ele>
        <time>2024-04-29T12:45:50Z</time>
      </trkpt>
      <trkpt lat="45.75388" lon="4.46788">
        <ele>594.71</ele>
        <time>2024-04-29T12:46:06Z</time>
      </trkpt>
      <trkpt lat="45.75368" lon="4.4683">
        <ele>592.31</ele>
        <time>2024-04-29T12:46:30Z</time>
      </trkpt>
      <trkpt lat="45.75355" lon="4.46873">
        <ele>590.39</ele>
        <time>2024-04-29T12:46:50Z</time>
      </trkpt>
      <trkpt lat="45.75351" lon="4.46907">
        <ele>590.39</ele>
        <time>2024-04-29T12:47:07Z</time>
      </trkpt>
      <trkpt lat="45.75349" lon="4.46944">
        <ele>587.98</ele>
        <time>2024-04-29T12:47:25Z</time>
      </trkpt>
      <trkpt lat="45.75356" lon="4.46966">
        <ele>584.62</ele>
        <time>2024-04-29T12:47:44Z</time>
      </trkpt>
      <trkpt lat="45.75355" lon="4.46969">
        <ele>587.02</ele>
        <time>2024-04-29T12:48:12Z</time>
      </trkpt>
      <trkpt lat="45.75355" lon="4.46967">
        <ele>589.43</ele>
        <time>2024-04-29T12:48:36Z</time>
      </trkpt>
      <trkpt lat="45.75354" lon="4.46969">
        <ele>589.43</ele>
        <time>2024-04-29T12:49:07Z</time>
      </trkpt>
      <trkpt lat="45.75348" lon="4.4698">
        <ele>589.43</ele>
        <time>2024-04-29T12:49:26Z</time>
      </trkpt>
      <trkpt lat="45.75349" lon="4.46982">
        <ele>586.54</ele>
        <time>2024-04-29T12:49:44Z</time>
      </trkpt>
      <trkpt lat="45.75343" lon="4.46979">
        <ele>585.58</ele>
        <time>2024-04-29T12:50:04Z</time>
      </trkpt>
      <trkpt lat="45.75342" lon="4.46977">
        <ele>590.39</ele>
        <time>2024-04-29T12:50:28Z</time>
      </trkpt>
      <trkpt lat="45.75342" lon="4.46973">
        <ele>588.95</ele>
        <time>2024-04-29T12:50:47Z</time>
      </trkpt>
      <trkpt lat="45.75341" lon="4.46969">
        <ele>591.35</ele>
        <time>2024-04-29T12:51:05Z</time>
      </trkpt>
      <trkpt lat="45.75341" lon="4.46971">
        <ele>590.87</ele>
        <time>2024-04-29T12:51:27Z</time>
      </trkpt>
      <trkpt lat="45.7534" lon="4.46974">
        <ele>588.95</ele>
        <time>2024-04-29T12:51:44Z</time>
      </trkpt>
      <trkpt lat="45.7534" lon="4.46982">
        <ele>587.5</ele>
        <time>2024-04-29T12:51:57Z</time>
      </trkpt>
      <trkpt lat="45.7534" lon="4.46988">
        <ele>587.5</ele>
        <time>2024-04-29T12:52:19Z</time>
      </trkpt>
      <trkpt lat="45.7534" lon="4.46987">
        <ele>587.5</ele>
        <time>2024-04-29T12:52:42Z</time>
      </trkpt>
      <trkpt lat="45.75336" lon="4.46994">
        <ele>587.02</ele>
        <time>2024-04-29T12:52:58Z</time>
      </trkpt>
      <trkpt lat="45.75333" lon="4.46998">
        <ele>586.06</ele>
        <time>2024-04-29T12:53:12Z</time>
      </trkpt>
      <trkpt lat="45.75334" lon="4.47">
        <ele>585.58</ele>
        <time>2024-04-29T12:53:34Z</time>
      </trkpt>
      <trkpt lat="45.75338" lon="4.46996">
        <ele>583.66</ele>
        <time>2024-04-29T12:53:57Z</time>
      </trkpt>
      <trkpt lat="45.75335" lon="4.46994">
        <ele>583.18</ele>
        <time>2024-04-29T12:54:19Z</time>
      </trkpt>
      <trkpt lat="45.75337" lon="4.46984">
        <ele>585.1</ele>
        <time>2024-04-29T12:54:39Z</time>
      </trkpt>
      <trkpt lat="45.75339" lon="4.46982">
        <ele>587.5</ele>
        <time>2024-04-29T12:55:01Z</time>
      </trkpt>
      <trkpt lat="45.75339" lon="4.46983">
        <ele>589.91</ele>
        <time>2024-04-29T12:55:22Z</time>
      </trkpt>
      <trkpt lat="45.7534" lon="4.46984">
        <ele>593.27</ele>
        <time>2024-04-29T12:55:50Z</time>
      </trkpt>
      <trkpt lat="45.75339" lon="4.46984">
        <ele>592.79</ele>
        <time>2024-04-29T12:56:14Z</time>
      </trkpt>
      <trkpt lat="45.75338" lon="4.46977">
        <ele>589.91</ele>
        <time>2024-04-29T12:56:38Z</time>
      </trkpt>
      <trkpt lat="45.75341" lon="4.46978">
        <ele>587.5</ele>
        <time>2024-04-29T12:56:58Z</time>
      </trkpt>
      <trkpt lat="45.75345" lon="4.4698">
        <ele>588.95</ele>
        <time>2024-04-29T12:57:29Z</time>
      </trkpt>
      <trkpt lat="45.75342" lon="4.46979">
        <ele>587.98</ele>
        <time>2024-04-29T12:57:54Z</time>
      </trkpt>
      <trkpt lat="45.75341" lon="4.46979">
        <ele>586.54</ele>
        <time>2024-04-29T12:58:18Z</time>
      </trkpt>
      <trkpt lat="45.75342" lon="4.46979">
        <ele>587.02</ele>
        <time>2024-04-29T12:58:46Z</time>
      </trkpt>
      <trkpt lat="45.75345" lon="4.46981">
        <ele>584.62</ele>
        <time>2024-04-29T12:59:12Z</time>
      </trkpt>
      <trkpt lat="45.75341" lon="4.4698">
        <ele>587.5</ele>
        <time>2024-04-29T12:59:46Z</time>
      </trkpt>
      <trkpt lat="45.75346" lon="4.46982">
        <ele>588.46</ele>
        <time>2024-04-29T13:00:19Z</time>
      </trkpt>
      <trkpt lat="45.75343" lon="4.4698">
        <ele>588.46</ele>
        <time>2024-04-29T13:00:57Z</time>
      </trkpt>
      <trkpt lat="45.7534" lon="4.46981">
        <ele>587.02</ele>
        <time>2024-04-29T13:01:27Z</time>
      </trkpt>
      <trkpt lat="45.75347" lon="4.46979">
        <ele>585.58</ele>
        <time>2024-04-29T13:01:57Z</time>
      </trkpt>
      <trkpt lat="45.75348" lon="4.46982">
        <ele>584.14</ele>
        <time>2024-04-29T13:02:35Z</time>
      </trkpt>
      <trkpt lat="45.75354" lon="4.4698">
        <ele>583.66</ele>
        <time>2024-04-29T13:03:13Z</time>
      </trkpt>
      <trkpt lat="45.75346" lon="4.46979">
        <ele>583.18</ele>
        <time>2024-04-29T13:03:48Z</time>
      </trkpt>
      <trkpt lat="45.75356" lon="4.4698">
        <ele>588.95</ele>
        <time>2024-04-29T13:04:26Z</time>
      </trkpt>
      <trkpt lat="45.75358" lon="4.4698">
        <ele>598.08</ele>
        <time>2024-04-29T13:04:55Z</time>
      </trkpt>
      <trkpt lat="45.75353" lon="4.46983">
        <ele>592.79</ele>
        <time>2024-04-29T13:05:31Z</time>
      </trkpt>
      <trkpt lat="45.75347" lon="4.46981">
        <ele>588.46</ele>
        <time>2024-04-29T13:06:01Z</time>
      </trkpt>
      <trkpt lat="45.75351" lon="4.46979">
        <ele>591.35</ele>
        <time>2024-04-29T13:06:39Z</time>
      </trkpt>
      <trkpt lat="45.75351" lon="4.4698">
        <ele>593.27</ele>
        <time>2024-04-29T13:07:12Z</time>
      </trkpt>
      <trkpt lat="45.75342" lon="4.46981">
        <ele>586.54</ele>
        <time>2024-04-29T13:07:45Z</time>
      </trkpt>
      <trkpt lat="45.75341" lon="4.46982">
        <ele>582.22</ele>
        <time>2024-04-29T13:08:14Z</time>
      </trkpt>
      <trkpt lat="45.7534" lon="4.46981">
        <ele>585.1</ele>
        <time>2024-04-29T13:08:50Z</time>
      </trkpt>
      <trkpt lat="45.75343" lon="4.46984">
        <ele>587.02</ele>
        <time>2024-04-29T13:09:20Z</time>
      </trkpt>
      <trkpt lat="45.75348" lon="4.46979">
        <ele>590.87</ele>
        <time>2024-04-29T13:09:55Z</time>
      </trkpt>
      <trkpt lat="45.75351" lon="4.46981">
        <ele>590.39</ele>
        <time>2024-04-29T13:10:28Z</time>
      </trkpt>
      <trkpt lat="45.75348" lon="4.4698">
        <ele>589.43</ele>
        <time>2024-04-29T13:10:56Z</time>
      </trkpt>
      <trkpt lat="45.75347" lon="4.46983">
        <ele>589.43</ele>
        <time>2024-04-29T13:11:27Z</time>
      </trkpt>
      <trkpt lat="45.75351" lon="4.46978">
        <ele>589.91</ele>
        <time>2024-04-29T13:11:59Z</time>
      </trkpt>
      <trkpt lat="45.75351" lon="4.46979">
        <ele>591.83</ele>
        <time>2024-04-29T13:12:24Z</time>
      </trkpt>
      <trkpt lat="45.75351" lon="4.46978">
        <ele>590.39</ele>
        <time>2024-04-29T13:12:56Z</time>
      </trkpt>
      <trkpt lat="45.75349" lon="4.46984">
        <ele>584.62</ele>
        <time>2024-04-29T13:13:30Z</time>
      </trkpt>
      <trkpt lat="45.75354" lon="4.46981">
        <ele>583.66</ele>
        <time>2024-04-29T13:14:02Z</time>
      </trkpt>
      <trkpt lat="45.75352" lon="4.46978">
        <ele>587.02</ele>
        <time>2024-04-29T13:14:36Z</time>
      </trkpt>
      <trkpt lat="45.75352" lon="4.46981">
        <ele>589.43</ele>
        <time>2024-04-29T13:15:11Z</time>
      </trkpt>
      <trkpt lat="45.75352" lon="4.46984">
        <ele>592.79</ele>
        <time>2024-04-29T13:15:50Z</time>
      </trkpt>
      <trkpt lat="45.75358" lon="4.46983">
        <ele>596.64</ele>
        <time>2024-04-29T13:16:31Z</time>
      </trkpt>
      <trkpt lat="45.75347" lon="4.46986">
        <ele>596.15</ele>
        <time>2024-04-29T13:17:06Z</time>
      </trkpt>
      <trkpt lat="45.75346" lon="4.46985">
        <ele>589.43</ele>
        <time>2024-04-29T13:17:41Z</time>
      </trkpt>
      <trkpt lat="45.7535" lon="4.46985">
        <ele>592.79</ele>
        <time>2024-04-29T13:18:18Z</time>
      </trkpt>
      <trkpt lat="45.75354" lon="4.46988">
        <ele>595.19</ele>
        <time>2024-04-29T13:18:54Z</time>
      </trkpt>
      <trkpt lat="45.75358" lon="4.46984">
        <ele>600.48</ele>
        <time>2024-04-29T13:19:30Z</time>
      </trkpt>
      <trkpt lat="45.75354" lon="4.46981">
        <ele>599.52</ele>
        <time>2024-04-29T13:20:04Z</time>
      </trkpt>
      <trkpt lat="45.75354" lon="4.46985">
        <ele>596.15</ele>
        <time>2024-04-29T13:20:46Z</time>
      </trkpt>
      <trkpt lat="45.75348" lon="4.46993">
        <ele>594.71</ele>
        <time>2024-04-29T13:21:28Z</time>
      </trkpt>
      <trkpt lat="45.75348" lon="4.46988">
        <ele>603.85</ele>
        <time>2024-04-29T13:21:52Z</time>
      </trkpt>
      <trkpt lat="45.75345" lon="4.46986">
        <ele>601.92</ele>
        <time>2024-04-29T13:22:32Z</time>
      </trkpt>
      <trkpt lat="45.75357" lon="4.46988">
        <ele>595.67</ele>
        <time>2024-04-29T13:23:19Z</time>
      </trkpt>
      <trkpt lat="45.75348" lon="4.46985">
        <ele>596.15</ele>
        <time>2024-04-29T13:23:59Z</time>
      </trkpt>
      <trkpt lat="45.75345" lon="4.46985">
        <ele>595.19</ele>
        <time>2024-04-29T13:24:29Z</time>
      </trkpt>
      <trkpt lat="45.75347" lon="4.46983">
        <ele>594.71</ele>
        <time>2024-04-29T13:25:00Z</time>
      </trkpt>
      <trkpt lat="45.75346" lon="4.46979">
        <ele>597.12</ele>
        <time>2024-04-29T13:25:28Z</time>
      </trkpt>
      <trkpt lat="45.75349" lon="4.46978">
        <ele>595.67</ele>
        <time>2024-04-29T13:25:51Z</time>
      </trkpt>
      <trkpt lat="45.75346" lon="4.46983">
        <ele>595.19</ele>
        <time>2024-04-29T13:26:21Z</time>
      </trkpt>
      <trkpt lat="45.75348" lon="4.46987">
        <ele>598.56</ele>
        <time>2024-04-29T13:26:48Z</time>
      </trkpt>
      <trkpt lat="45.75344" lon="4.46987">
        <ele>596.64</ele>
        <time>2024-04-29T13:27:20Z</time>
      </trkpt>
      <trkpt lat="45.75346" lon="4.46991">
        <ele>606.25</ele>
        <time>2024-04-29T13:27:51Z</time>
      </trkpt>
      <trkpt lat="45.75345" lon="4.46988">
        <ele>600.96</ele>
        <time>2024-04-29T13:28:14Z</time>
      </trkpt>
      <trkpt lat="45.75347" lon="4.46987">
        <ele>602.88</ele>
        <time>2024-04-29T13:28:44Z</time>
      </trkpt>
      <trkpt lat="45.75348" lon="4.46989">
        <ele>605.29</ele>
        <time>2024-04-29T13:29:08Z</time>
      </trkpt>
      <trkpt lat="45.75351" lon="4.46987">
        <ele>608.17</ele>
        <time>2024-04-29T13:29:34Z</time>
      </trkpt>
      <trkpt lat="45.75347" lon="4.46996">
        <ele>607.69</ele>
        <time>2024-04-29T13:30:05Z</time>
      </trkpt>
      <trkpt lat="45.75349" lon="4.46988">
        <ele>609.13</ele>
        <time>2024-04-29T13:30:34Z</time>
      </trkpt>
      <trkpt lat="45.75351" lon="4.46985">
        <ele>609.13</ele>
        <time>2024-04-29T13:31:06Z</time>
      </trkpt>
      <trkpt lat="45.75352" lon="4.46984">
        <ele>608.17</ele>
        <time>2024-04-29T13:31:36Z</time>
      </trkpt>
      <trkpt lat="45.75348" lon="4.46986">
        <ele>608.65</ele>
        <time>2024-04-29T13:32:08Z</time>
      </trkpt>
      <trkpt lat="45.75353" lon="4.46981">
        <ele>614.42</ele>
        <time>2024-04-29T13:32:40Z</time>
      </trkpt>
      <trkpt lat="45.75348" lon="4.4698">
        <ele>610.57</ele>
        <time>2024-04-29T13:33:11Z</time>
      </trkpt>
      <trkpt lat="45.75345" lon="4.46983">
        <ele>609.13</ele>
        <time>2024-04-29T13:33:40Z</time>
      </trkpt>
      <trkpt lat="45.75347" lon="4.46992">
        <ele>602.4</ele>
        <time>2024-04-29T13:34:11Z</time>
      </trkpt>
      <trkpt lat="45.75345" lon="4.46986">
        <ele>601.92</ele>
        <time>2024-04-29T13:34:42Z</time>
      </trkpt>
      <trkpt lat="45.75344" lon="4.46982">
        <ele>599.04</ele>
        <time>2024-04-29T13:35:13Z</time>
      </trkpt>
      <trkpt lat="45.75347" lon="4.46983">
        <ele>597.6</ele>
        <time>2024-04-29T13:35:38Z</time>
      </trkpt>
      <trkpt lat="45.75345" lon="4.46984">
        <ele>594.71</ele>
        <time>2024-04-29T13:36:04Z</time>
      </trkpt>
      <trkpt lat="45.75345" lon="4.46979">
        <ele>598.56</ele>
        <time>2024-04-29T13:36:38Z</time>
      </trkpt>
      <trkpt lat="45.75348" lon="4.46984">
        <ele>597.12</ele>
        <time>2024-04-29T13:37:15Z</time>
      </trkpt>
      <trkpt lat="45.75338" lon="4.4698">
        <ele>588.46</ele>
        <time>2024-04-29T13:37:35Z</time>
      </trkpt>
      <trkpt lat="45.75339" lon="4.46979">
        <ele>590.87</ele>
        <time>2024-04-29T13:37:58Z</time>
      </trkpt>
      <trkpt lat="45.75338" lon="4.46979">
        <ele>590.87</ele>
        <time>2024-04-29T13:38:27Z</time>
      </trkpt>
      <trkpt lat="45.7534" lon="4.4698">
        <ele>593.27</ele>
        <time>2024-04-29T13:38:52Z</time>
      </trkpt>
      <trkpt lat="45.75341" lon="4.46979">
        <ele>592.79</ele>
        <time>2024-04-29T13:39:17Z</time>
      </trkpt>
      <trkpt lat="45.75339" lon="4.46979">
        <ele>591.35</ele>
        <time>2024-04-29T13:39:36Z</time>
      </trkpt>
      <trkpt lat="45.7534" lon="4.46979">
        <ele>591.83</ele>
        <time>2024-04-29T13:40:08Z</time>
      </trkpt>
      <trkpt lat="45.7534" lon="4.46979">
        <ele>593.75</ele>
        <time>2024-04-29T13:40:40Z</time>
      </trkpt>
      <trkpt lat="45.75341" lon="4.46981">
        <ele>594.71</ele>
        <time>2024-04-29T13:41:04Z</time>
      </trkpt>
      <trkpt lat="45.75344" lon="4.46979">
        <ele>596.64</ele>
        <time>2024-04-29T13:41:29Z</time>
      </trkpt>
      <trkpt lat="45.75345" lon="4.46981">
        <ele>597.6</ele>
        <time>2024-04-29T13:42:04Z</time>
      </trkpt>
      <trkpt lat="45.75344" lon="4.4698">
        <ele>597.6</ele>
        <time>2024-04-29T13:42:33Z</time>
      </trkpt>
      <trkpt lat="45.75343" lon="4.46982">
        <ele>595.67</ele>
        <time>2024-04-29T13:42:59Z</time>
      </trkpt>
      <trkpt lat="45.75343" lon="4.46982">
        <ele>594.71</ele>
        <time>2024-04-29T13:43:26Z</time>
      </trkpt>
      <trkpt lat="45.75342" lon="4.46981">
        <ele>593.27</ele>
        <time>2024-04-29T13:43:56Z</time>
      </trkpt>
      <trkpt lat="45.75341" lon="4.46985">
        <ele>594.23</ele>
        <time>2024-04-29T13:44:37Z</time>
      </trkpt>
      <trkpt lat="45.75339" lon="4.46985">
        <ele>597.6</ele>
        <time>2024-04-29T13:45:07Z</time>
      </trkpt>
      <trkpt lat="45.75339" lon="4.46982">
        <ele>597.6</ele>
        <time>2024-04-29T13:45:36Z</time>
      </trkpt>
      <trkpt lat="45.75341" lon="4.46976">
        <ele>597.6</ele>
        <time>2024-04-29T13:45:56Z</time>
      </trkpt>
      <trkpt lat="45.75339" lon="4.4698">
        <ele>594.71</ele>
        <time>2024-04-29T13:46:20Z</time>
      </trkpt>
      <trkpt lat="45.7534" lon="4.46979">
        <ele>594.71</ele>
        <time>2024-04-29T13:46:47Z</time>
      </trkpt>
      <trkpt lat="45.75345" lon="4.46977">
        <ele>594.23</ele>
        <time>2024-04-29T13:47:17Z</time>
      </trkpt>
      <trkpt lat="45.75345" lon="4.46974">
        <ele>596.15</ele>
        <time>2024-04-29T13:47:42Z</time>
      </trkpt>
      <trkpt lat="45.75341" lon="4.4698">
        <ele>594.71</ele>
        <time>2024-04-29T13:48:07Z</time>
      </trkpt>
      <trkpt lat="45.75341" lon="4.46981">
        <ele>595.19</ele>
        <time>2024-04-29T13:48:33Z</time>
      </trkpt>
      <trkpt lat="45.75342" lon="4.46982">
        <ele>594.71</ele>
        <time>2024-04-29T13:49:01Z</time>
      </trkpt>
      <trkpt lat="45.75344" lon="4.46981">
        <ele>597.12</ele>
        <time>2024-04-29T13:49:22Z</time>
      </trkpt>
      <trkpt lat="45.75343" lon="4.46981">
        <ele>593.75</ele>
        <time>2024-04-29T13:49:58Z</time>
      </trkpt>
      <trkpt lat="45.75342" lon="4.4698">
        <ele>592.31</ele>
        <time>2024-04-29T13:50:22Z</time>
      </trkpt>
      <trkpt lat="45.75342" lon="4.46982">
        <ele>591.35</ele>
        <time>2024-04-29T13:50:55Z</time>
      </trkpt>
      <trkpt lat="45.75343" lon="4.46978">
        <ele>594.23</ele>
        <time>2024-04-29T13:51:26Z</time>
      </trkpt>
      <trkpt lat="45.75345" lon="4.46973">
        <ele>594.23</ele>
        <time>2024-04-29T13:51:56Z</time>
      </trkpt>
      <trkpt lat="45.75341" lon="4.46977">
        <ele>593.27</ele>
        <time>2024-04-29T13:52:24Z</time>
      </trkpt>
      <trkpt lat="45.75344" lon="4.46979">
        <ele>592.31</ele>
        <time>2024-04-29T13:52:54Z</time>
      </trkpt>
      <trkpt lat="45.75344" lon="4.46978">
        <ele>593.75</ele>
        <time>2024-04-29T13:53:24Z</time>
      </trkpt>
      <trkpt lat="45.75342" lon="4.46984">
        <ele>595.67</ele>
        <time>2024-04-29T13:53:43Z</time>
      </trkpt>
      <trkpt lat="45.75343" lon="4.46981">
        <ele>594.23</ele>
        <time>2024-04-29T13:54:07Z</time>
      </trkpt>
      <trkpt lat="45.75343" lon="4.46972">
        <ele>588.95</ele>
        <time>2024-04-29T13:54:22Z</time>
      </trkpt>
      <trkpt lat="45.75335" lon="4.46966">
        <ele>590.39</ele>
        <time>2024-04-29T13:54:37Z</time>
      </trkpt>
      <trkpt lat="45.75332" lon="4.46973">
        <ele>589.43</ele>
        <time>2024-04-29T13:55:01Z</time>
      </trkpt>
      <trkpt lat="45.75333" lon="4.46971">
        <ele>587.98</ele>
        <time>2024-04-29T13:55:16Z</time>
      </trkpt>
      <trkpt lat="45.75334" lon="4.46972">
        <ele>588.46</ele>
        <time>2024-04-29T13:55:34Z</time>
      </trkpt>
      <trkpt lat="45.75337" lon="4.46971">
        <ele>587.5</ele>
        <time>2024-04-29T13:56:06Z</time>
      </trkpt>
      <trkpt lat="45.75338" lon="4.46969">
        <ele>589.91</ele>
        <time>2024-04-29T13:56:28Z</time>
      </trkpt>
      <trkpt lat="45.75338" lon="4.4697">
        <ele>592.31</ele>
        <time>2024-04-29T13:56:47Z</time>
      </trkpt>
      <trkpt lat="45.75336" lon="4.4697">
        <ele>589.91</ele>
        <time>2024-04-29T13:57:09Z</time>
      </trkpt>
      <trkpt lat="45.75334" lon="4.46972">
        <ele>588.95</ele>
        <time>2024-04-29T13:57:26Z</time>
      </trkpt>
      <trkpt lat="45.75335" lon="4.46972">
        <ele>588.46</ele>
        <time>2024-04-29T13:57:42Z</time>
      </trkpt>
      <trkpt lat="45.75333" lon="4.4697">
        <ele>587.5</ele>
        <time>2024-04-29T13:57:58Z</time>
      </trkpt>
      <trkpt lat="45.75333" lon="4.46967">
        <ele>587.98</ele>
        <time>2024-04-29T13:58:16Z</time>
      </trkpt>
      <trkpt lat="45.75337" lon="4.46964">
        <ele>588.46</ele>
        <time>2024-04-29T13:58:28Z</time>
      </trkpt>
      <trkpt lat="45.7534" lon="4.46966">
        <ele>589.43</ele>
        <time>2024-04-29T13:58:40Z</time>
      </trkpt>
      <trkpt lat="45.75342" lon="4.46975">
        <ele>586.54</ele>
        <time>2024-04-29T13:58:56Z</time>
      </trkpt>
      <trkpt lat="45.75341" lon="4.46975">
        <ele>586.54</ele>
        <time>2024-04-29T13:59:14Z</time>
      </trkpt>
      <trkpt lat="45.75341" lon="4.46976">
        <ele>585.58</ele>
        <time>2024-04-29T13:59:47Z</time>
      </trkpt>
      <trkpt lat="45.75339" lon="4.46982">
        <ele>586.06</ele>
        <time>2024-04-29T14:00:19Z</time>
      </trkpt>
      <trkpt lat="45.75339" lon="4.46983">
        <ele>585.58</ele>
        <time>2024-04-29T14:00:29Z</time>
      </trkpt>
      <trkpt lat="45.75337" lon="4.46987">
        <ele>588.46</ele>
        <time>2024-04-29T14:00:42Z</time>
      </trkpt>
      <trkpt lat="45.75334" lon="4.46997">
        <ele>586.54</ele>
        <time>2024-04-29T14:00:59Z</time>
      </trkpt>
      <trkpt lat="45.75334" lon="4.46995">
        <ele>580.77</ele>
        <time>2024-04-29T14:01:23Z</time>
      </trkpt>
      <trkpt lat="45.75336" lon="4.46995">
        <ele>579.33</ele>
        <time>2024-04-29T14:01:47Z</time>
      </trkpt>
      <trkpt lat="45.75334" lon="4.46986">
        <ele>580.29</ele>
        <time>2024-04-29T14:02:08Z</time>
      </trkpt>
      <trkpt lat="45.7534" lon="4.4698">
        <ele>585.1</ele>
        <time>2024-04-29T14:02:24Z</time>
      </trkpt>
      <trkpt lat="45.7534" lon="4.46978">
        <ele>586.06</ele>
        <time>2024-04-29T14:02:38Z</time>
      </trkpt>
      <trkpt lat="45.75345" lon="4.46976">
        <ele>587.98</ele>
        <time>2024-04-29T14:03:02Z</time>
      </trkpt>
      <trkpt lat="45.75341" lon="4.46976">
        <ele>588.46</ele>
        <time>2024-04-29T14:03:23Z</time>
      </trkpt>
      <trkpt lat="45.75343" lon="4.4698">
        <ele>586.54</ele>
        <time>2024-04-29T14:03:41Z</time>
      </trkpt>
      <trkpt lat="45.75341" lon="4.4698">
        <ele>585.58</ele>
        <time>2024-04-29T14:04:06Z</time>
      </trkpt>
      <trkpt lat="45.75341" lon="4.4698">
        <ele>589.91</ele>
        <time>2024-04-29T14:04:32Z</time>
      </trkpt>
      <trkpt lat="45.75342" lon="4.46976">
        <ele>587.98</ele>
        <time>2024-04-29T14:04:54Z</time>
      </trkpt>
      <trkpt lat="45.75339" lon="4.46976">
        <ele>588.95</ele>
        <time>2024-04-29T14:05:18Z</time>
      </trkpt>
      <trkpt lat="45.7534" lon="4.46977">
        <ele>588.95</ele>
        <time>2024-04-29T14:05:40Z</time>
      </trkpt>
      <trkpt lat="45.75338" lon="4.46986">
        <ele>587.98</ele>
        <time>2024-04-29T14:06:13Z</time>
      </trkpt>
      <trkpt lat="45.75339" lon="4.46977">
        <ele>587.5</ele>
        <time>2024-04-29T14:06:38Z</time>
      </trkpt>
      <trkpt lat="45.7534" lon="4.46979">
        <ele>588.46</ele>
        <time>2024-04-29T14:06:56Z</time>
      </trkpt>
      <trkpt lat="45.75344" lon="4.46977">
        <ele>587.5</ele>
        <time>2024-04-29T14:07:14Z</time>
      </trkpt>
      <trkpt lat="45.7534" lon="4.46974">
        <ele>588.95</ele>
        <time>2024-04-29T14:07:38Z</time>
      </trkpt>
      <trkpt lat="45.75339" lon="4.46976">
        <ele>590.39</ele>
        <time>2024-04-29T14:08:09Z</time>
      </trkpt>
      <trkpt lat="45.75342" lon="4.46975">
        <ele>585.1</ele>
        <time>2024-04-29T14:08:42Z</time>
      </trkpt>
      <trkpt lat="45.7534" lon="4.46976">
        <ele>587.98</ele>
        <time>2024-04-29T14:09:11Z</time>
      </trkpt>
      <trkpt lat="45.75338" lon="4.46974">
        <ele>592.31</ele>
        <time>2024-04-29T14:09:41Z</time>
      </trkpt>
      <trkpt lat="45.75339" lon="4.46972">
        <ele>591.35</ele>
        <time>2024-04-29T14:09:58Z</time>
      </trkpt>
      <trkpt lat="45.7534" lon="4.46973">
        <ele>590.87</ele>
        <time>2024-04-29T14:10:15Z</time>
      </trkpt>
      <trkpt lat="45.75344" lon="4.4697">
        <ele>592.31</ele>
        <time>2024-04-29T14:10:36Z</time>
      </trkpt>
      <trkpt lat="45.75343" lon="4.46969">
        <ele>589.43</ele>
        <time>2024-04-29T14:10:56Z</time>
      </trkpt>
      <trkpt lat="45.75338" lon="4.46962">
        <ele>588.95</ele>
        <time>2024-04-29T14:11:10Z</time>
      </trkpt>
      <trkpt lat="45.75314" lon="4.46961">
        <ele>590.39</ele>
        <time>2024-04-29T14:11:30Z</time>
      </trkpt>
      <trkpt lat="45.75288" lon="4.46953">
        <ele>590.39</ele>
        <time>2024-04-29T14:11:49Z</time>
      </trkpt>
      <trkpt lat="45.75265" lon="4.46952">
        <ele>589.43</ele>
        <time>2024-04-29T14:12:08Z</time>
      </trkpt>
      <trkpt lat="45.7524" lon="4.46947">
        <ele>587.5</ele>
        <time>2024-04-29T14:12:26Z</time>
      </trkpt>
      <trkpt lat="45.75213" lon="4.46946">
        <ele>587.02</ele>
        <time>2024-04-29T14:12:46Z</time>
      </trkpt>
      <trkpt lat="45.75189" lon="4.46954">
        <ele>587.5</ele>
        <time>2024-04-29T14:13:03Z</time>
      </trkpt>
      <trkpt lat="45.75165" lon="4.46968">
        <ele>582.7</ele>
        <time>2024-04-29T14:13:20Z</time>
      </trkpt>
      <trkpt lat="45.75143" lon="4.46985">
        <ele>583.18</ele>
        <time>2024-04-29T14:13:38Z</time>
      </trkpt>
      <trkpt lat="45.75121" lon="4.47005">
        <ele>580.77</ele>
        <time>2024-04-29T14:13:58Z</time>
      </trkpt>
      <trkpt lat="45.75096" lon="4.47031">
        <ele>578.85</ele>
        <time>2024-04-29T14:14:20Z</time>
      </trkpt>
      <trkpt lat="45.75072" lon="4.47055">
        <ele>578.37</ele>
        <time>2024-04-29T14:14:40Z</time>
      </trkpt>
      <trkpt lat="45.75051" lon="4.4708">
        <ele>578.85</ele>
        <time>2024-04-29T14:14:58Z</time>
      </trkpt>
      <trkpt lat="45.75033" lon="4.47099">
        <ele>577.41</ele>
        <time>2024-04-29T14:15:15Z</time>
      </trkpt>
      <trkpt lat="45.7502" lon="4.47115">
        <ele>576.45</ele>
        <time>2024-04-29T14:15:32Z</time>
      </trkpt>
      <trkpt lat="45.75019" lon="4.47135">
        <ele>575.97</ele>
        <time>2024-04-29T14:15:43Z</time>
      </trkpt>
      <trkpt lat="45.75016" lon="4.47173">
        <ele>578.37</ele>
        <time>2024-04-29T14:16:03Z</time>
      </trkpt>
      <trkpt lat="45.75018" lon="4.47218">
        <ele>582.22</ele>
        <time>2024-04-29T14:16:26Z</time>
      </trkpt>
      <trkpt lat="45.75025" lon="4.47258">
        <ele>585.58</ele>
        <time>2024-04-29T14:16:47Z</time>
      </trkpt>
      <trkpt lat="45.75033" lon="4.47292">
        <ele>586.54</ele>
        <time>2024-04-29T14:17:07Z</time>
      </trkpt>
      <trkpt lat="45.75042" lon="4.47321">
        <ele>588.46</ele>
        <time>2024-04-29T14:17:25Z</time>
      </trkpt>
      <trkpt lat="45.7505" lon="4.47345">
        <ele>590.87</ele>
        <time>2024-04-29T14:17:39Z</time>
      </trkpt>
      <trkpt lat="45.7505" lon="4.47347">
        <ele>590.87</ele>
        <time>2024-04-29T14:17:40Z</time>
      </trkpt>
      <trkpt lat="45.75051" lon="4.47348">
        <ele>591.35</ele>
        <time>2024-04-29T14:17:41Z</time>
      </trkpt>
      <trkpt lat="45.75055" lon="4.47381">
        <ele>591.35</ele>
        <time>2024-04-29T14:17:58Z</time>
      </trkpt>
      <trkpt lat="45.75065" lon="4.47416">
        <ele>590.39</ele>
        <time>2024-04-29T14:18:17Z</time>
      </trkpt>
      <trkpt lat="45.75072" lon="4.47434">
        <ele>588.46</ele>
        <time>2024-04-29T14:18:33Z</time>
      </trkpt>
      <trkpt lat="45.75081" lon="4.47462">
        <ele>586.54</ele>
        <time>2024-04-29T14:18:49Z</time>
      </trkpt>
      <trkpt lat="45.75093" lon="4.47486">
        <ele>587.5</ele>
        <time>2024-04-29T14:19:04Z</time>
      </trkpt>
      <trkpt lat="45.75112" lon="4.47505">
        <ele>590.87</ele>
        <time>2024-04-29T14:19:22Z</time>
      </trkpt>
      <trkpt lat="45.75134" lon="4.47518">
        <ele>597.12</ele>
        <time>2024-04-29T14:19:39Z</time>
      </trkpt>
      <trkpt lat="45.75155" lon="4.47542">
        <ele>600.48</ele>
        <time>2024-04-29T14:19:58Z</time>
      </trkpt>
      <trkpt lat="45.75173" lon="4.47559">
        <ele>600.96</ele>
        <time>2024-04-29T14:20:13Z</time>
      </trkpt>
      <trkpt lat="45.75186" lon="4.47582">
        <ele>600</ele>
        <time>2024-04-29T14:20:27Z</time>
      </trkpt>
      <trkpt lat="45.75201" lon="4.47595">
        <ele>595.67</ele>
        <time>2024-04-29T14:20:42Z</time>
      </trkpt>
      <trkpt lat="45.75232" lon="4.47612">
        <ele>589.91</ele>
        <time>2024-04-29T14:21:04Z</time>
      </trkpt>
      <trkpt lat="45.7526" lon="4.47628">
        <ele>588.46</ele>
        <time>2024-04-29T14:21:23Z</time>
      </trkpt>
      <trkpt lat="45.7528" lon="4.47646">
        <ele>587.98</ele>
        <time>2024-04-29T14:21:38Z</time>
      </trkpt>
      <trkpt lat="45.75282" lon="4.47648">
        <ele>588.46</ele>
        <time>2024-04-29T14:21:39Z</time>
      </trkpt>
      <trkpt lat="45.75301" lon="4.47672">
        <ele>587.02</ele>
        <time>2024-04-29T14:21:58Z</time>
      </trkpt>
      <trkpt lat="45.75325" lon="4.4768">
        <ele>589.43</ele>
        <time>2024-04-29T14:22:16Z</time>
      </trkpt>
      <trkpt lat="45.75345" lon="4.47673">
        <ele>586.54</ele>
        <time>2024-04-29T14:22:35Z</time>
      </trkpt>
      <trkpt lat="45.75358" lon="4.47665">
        <ele>585.58</ele>
        <time>2024-04-29T14:22:52Z</time>
      </trkpt>
      <trkpt lat="45.75373" lon="4.47647">
        <ele>582.22</ele>
        <time>2024-04-29T14:23:10Z</time>
      </trkpt>
      <trkpt lat="45.75391" lon="4.47627">
        <ele>575.97</ele>
        <time>2024-04-29T14:23:26Z</time>
      </trkpt>
      <trkpt lat="45.75414" lon="4.47622">
        <ele>572.12</ele>
        <time>2024-04-29T14:23:42Z</time>
      </trkpt>
      <trkpt lat="45.7544" lon="4.47628">
        <ele>569.72</ele>
        <time>2024-04-29T14:23:59Z</time>
      </trkpt>
      <trkpt lat="45.75457" lon="4.47646">
        <ele>564.43</ele>
        <time>2024-04-29T14:24:15Z</time>
      </trkpt>
      <trkpt lat="45.75468" lon="4.47673">
        <ele>555.3</ele>
        <time>2024-04-29T14:24:33Z</time>
      </trkpt>
      <trkpt lat="45.75473" lon="4.47688">
        <ele>553.38</ele>
        <time>2024-04-29T14:24:40Z</time>
      </trkpt>
      <trkpt lat="45.75475" lon="4.47698">
        <ele>551.45</ele>
        <time>2024-04-29T14:24:44Z</time>
      </trkpt>
      <trkpt lat="45.75478" lon="4.47732">
        <ele>547.13</ele>
        <time>2024-04-29T14:24:59Z</time>
      </trkpt>
      <trkpt lat="45.75475" lon="4.47763">
        <ele>545.69</ele>
        <time>2024-04-29T14:25:13Z</time>
      </trkpt>
      <trkpt lat="45.75467" lon="4.47789">
        <ele>542.8</ele>
        <time>2024-04-29T14:25:26Z</time>
      </trkpt>
      <trkpt lat="45.75445" lon="4.47821">
        <ele>538.48</ele>
        <time>2024-04-29T14:25:45Z</time>
      </trkpt>
      <trkpt lat="45.75436" lon="4.47829">
        <ele>539.92</ele>
        <time>2024-04-29T14:25:51Z</time>
      </trkpt>
      <trkpt lat="45.75425" lon="4.47843">
        <ele>537.99</ele>
        <time>2024-04-29T14:26:04Z</time>
      </trkpt>
      <trkpt lat="45.75411" lon="4.47849">
        <ele>534.63</ele>
        <time>2024-04-29T14:26:15Z</time>
      </trkpt>
      <trkpt lat="45.75392" lon="4.47857">
        <ele>533.67</ele>
        <time>2024-04-29T14:26:28Z</time>
      </trkpt>
      <trkpt lat="45.75388" lon="4.4786">
        <ele>533.67</ele>
        <time>2024-04-29T14:26:31Z</time>
      </trkpt>
      <trkpt lat="45.75379" lon="4.47866">
        <ele>533.19</ele>
        <time>2024-04-29T14:26:38Z</time>
      </trkpt>
      <trkpt lat="45.75363" lon="4.47886">
        <ele>531.27</ele>
        <time>2024-04-29T14:26:53Z</time>
      </trkpt>
      <trkpt lat="45.75347" lon="4.47905">
        <ele>532.23</ele>
        <time>2024-04-29T14:27:07Z</time>
      </trkpt>
      <trkpt lat="45.75336" lon="4.47931">
        <ele>531.27</ele>
        <time>2024-04-29T14:27:21Z</time>
      </trkpt>
      <trkpt lat="45.75332" lon="4.47934">
        <ele>532.71</ele>
        <time>2024-04-29T14:27:38Z</time>
      </trkpt>
      <trkpt lat="45.75329" lon="4.47931">
        <ele>531.75</ele>
        <time>2024-04-29T14:27:59Z</time>
      </trkpt>
      <trkpt lat="45.75325" lon="4.4793">
        <ele>533.19</ele>
        <time>2024-04-29T14:28:17Z</time>
      </trkpt>
      <trkpt lat="45.75329" lon="4.47937">
        <ele>535.59</ele>
        <time>2024-04-29T14:28:41Z</time>
      </trkpt>
      <trkpt lat="45.7533" lon="4.47932">
        <ele>535.59</ele>
        <time>2024-04-29T14:28:46Z</time>
      </trkpt>
      <trkpt lat="45.75346" lon="4.4792">
        <ele>536.07</ele>
        <time>2024-04-29T14:28:58Z</time>
      </trkpt>
      <trkpt lat="45.75369" lon="4.47903">
        <ele>535.59</ele>
        <time>2024-04-29T14:29:14Z</time>
      </trkpt>
      <trkpt lat="45.75389" lon="4.47892">
        <ele>535.11</ele>
        <time>2024-04-29T14:29:26Z</time>
      </trkpt>
      <trkpt lat="45.75416" lon="4.47888">
        <ele>538.48</ele>
        <time>2024-04-29T14:29:41Z</time>
      </trkpt>
      <trkpt lat="45.75438" lon="4.47885">
        <ele>533.67</ele>
        <time>2024-04-29T14:29:56Z</time>
      </trkpt>
      <trkpt lat="45.75466" lon="4.47866">
        <ele>522.13</ele>
        <time>2024-04-29T14:30:14Z</time>
      </trkpt>
      <trkpt lat="45.75488" lon="4.47845">
        <ele>516.85</ele>
        <time>2024-04-29T14:30:32Z</time>
      </trkpt>
      <trkpt lat="45.75504" lon="4.47828">
        <ele>514.44</ele>
        <time>2024-04-29T14:30:45Z</time>
      </trkpt>
      <trkpt lat="45.75522" lon="4.4781">
        <ele>511.08</ele>
        <time>2024-04-29T14:31:00Z</time>
      </trkpt>
      <trkpt lat="45.75545" lon="4.47785">
        <ele>502.43</ele>
        <time>2024-04-29T14:31:21Z</time>
      </trkpt>
      <trkpt lat="45.75564" lon="4.4776">
        <ele>499.06</ele>
        <time>2024-04-29T14:31:37Z</time>
      </trkpt>
      <trkpt lat="45.75584" lon="4.47727">
        <ele>503.39</ele>
        <time>2024-04-29T14:31:57Z</time>
      </trkpt>
      <trkpt lat="45.75599" lon="4.47694">
        <ele>503.87</ele>
        <time>2024-04-29T14:32:16Z</time>
      </trkpt>
      <trkpt lat="45.75597" lon="4.47667">
        <ele>501.46</ele>
        <time>2024-04-29T14:32:28Z</time>
      </trkpt>
      <trkpt lat="45.75603" lon="4.4766">
        <ele>500.5</ele>
        <time>2024-04-29T14:32:32Z</time>
      </trkpt>
      <trkpt lat="45.75613" lon="4.47627">
        <ele>503.87</ele>
        <time>2024-04-29T14:32:52Z</time>
      </trkpt>
      <trkpt lat="45.75611" lon="4.47605">
        <ele>502.43</ele>
        <time>2024-04-29T14:33:04Z</time>
      </trkpt>
      <trkpt lat="45.75603" lon="4.4757">
        <ele>501.46</ele>
        <time>2024-04-29T14:33:20Z</time>
      </trkpt>
      <trkpt lat="45.756" lon="4.47555">
        <ele>498.58</ele>
        <time>2024-04-29T14:33:28Z</time>
      </trkpt>
      <trkpt lat="45.756" lon="4.47538">
        <ele>499.06</ele>
        <time>2024-04-29T14:33:35Z</time>
      </trkpt>
      <trkpt lat="45.75594" lon="4.47508">
        <ele>494.74</ele>
        <time>2024-04-29T14:33:52Z</time>
      </trkpt>
      <trkpt lat="45.75579" lon="4.47477">
        <ele>488.01</ele>
        <time>2024-04-29T14:34:08Z</time>
      </trkpt>
      <trkpt lat="45.75591" lon="4.47465">
        <ele>481.28</ele>
        <time>2024-04-29T14:34:21Z</time>
      </trkpt>
      <trkpt lat="45.7562" lon="4.47494">
        <ele>482.72</ele>
        <time>2024-04-29T14:34:42Z</time>
      </trkpt>
      <trkpt lat="45.75631" lon="4.47532">
        <ele>479.35</ele>
        <time>2024-04-29T14:35:01Z</time>
      </trkpt>
      <trkpt lat="45.75644" lon="4.47559">
        <ele>480.32</ele>
        <time>2024-04-29T14:35:17Z</time>
      </trkpt>
      <trkpt lat="45.75668" lon="4.4757">
        <ele>482.72</ele>
        <time>2024-04-29T14:35:33Z</time>
      </trkpt>
      <trkpt lat="45.75687" lon="4.47555">
        <ele>480.32</ele>
        <time>2024-04-29T14:35:48Z</time>
      </trkpt>
      <trkpt lat="45.75708" lon="4.47521">
        <ele>477.43</ele>
        <time>2024-04-29T14:36:07Z</time>
      </trkpt>
      <trkpt lat="45.75727" lon="4.47508">
        <ele>473.11</ele>
        <time>2024-04-29T14:36:22Z</time>
      </trkpt>
      <trkpt lat="45.7575" lon="4.47511">
        <ele>473.11</ele>
        <time>2024-04-29T14:36:32Z</time>
      </trkpt>
      <trkpt lat="45.75776" lon="4.47531">
        <ele>471.66</ele>
        <time>2024-04-29T14:36:51Z</time>
      </trkpt>
      <trkpt lat="45.75795" lon="4.47554">
        <ele>471.66</ele>
        <time>2024-04-29T14:37:07Z</time>
      </trkpt>
      <trkpt lat="45.7581" lon="4.47537">
        <ele>473.59</ele>
        <time>2024-04-29T14:37:23Z</time>
      </trkpt>
      <trkpt lat="45.75842" lon="4.47519">
        <ele>475.99</ele>
        <time>2024-04-29T14:37:45Z</time>
      </trkpt>
      <trkpt lat="45.75889" lon="4.47526">
        <ele>481.28</ele>
        <time>2024-04-29T14:38:12Z</time>
      </trkpt>
      <trkpt lat="45.75921" lon="4.47517">
        <ele>482.72</ele>
        <time>2024-04-29T14:38:33Z</time>
      </trkpt>
      <trkpt lat="45.75954" lon="4.47484">
        <ele>486.08</ele>
        <time>2024-04-29T14:38:59Z</time>
      </trkpt>
      <trkpt lat="45.75973" lon="4.47467">
        <ele>489.93</ele>
        <time>2024-04-29T14:39:14Z</time>
      </trkpt>
      <trkpt lat="45.75989" lon="4.47434">
        <ele>492.81</ele>
        <time>2024-04-29T14:39:33Z</time>
      </trkpt>
      <trkpt lat="45.76007" lon="4.47395">
        <ele>494.74</ele>
        <time>2024-04-29T14:39:56Z</time>
      </trkpt>
      <trkpt lat="45.76019" lon="4.47349">
        <ele>495.7</ele>
        <time>2024-04-29T14:40:19Z</time>
      </trkpt>
      <trkpt lat="45.76026" lon="4.47301">
        <ele>496.18</ele>
        <time>2024-04-29T14:40:43Z</time>
      </trkpt>
      <trkpt lat="45.76041" lon="4.47273">
        <ele>496.18</ele>
        <time>2024-04-29T14:41:02Z</time>
      </trkpt>
      <trkpt lat="45.76074" lon="4.47247">
        <ele>495.7</ele>
        <time>2024-04-29T14:41:24Z</time>
      </trkpt>
      <trkpt lat="45.76091" lon="4.47215">
        <ele>495.7</ele>
        <time>2024-04-29T14:41:46Z</time>
      </trkpt>
      <trkpt lat="45.76097" lon="4.4718">
        <ele>494.74</ele>
        <time>2024-04-29T14:42:03Z</time>
      </trkpt>
      <trkpt lat="45.76086" lon="4.47141">
        <ele>494.26</ele>
        <time>2024-04-29T14:42:25Z</time>
      </trkpt>
      <trkpt lat="45.76078" lon="4.47099">
        <ele>490.89</ele>
        <time>2024-04-29T14:42:45Z</time>
      </trkpt>
      <trkpt lat="45.76081" lon="4.47056">
        <ele>488.49</ele>
        <time>2024-04-29T14:43:05Z</time>
      </trkpt>
      <trkpt lat="45.76085" lon="4.47023">
        <ele>485.12</ele>
        <time>2024-04-29T14:43:19Z</time>
      </trkpt>
      <trkpt lat="45.76089" lon="4.46981">
        <ele>485.6</ele>
        <time>2024-04-29T14:43:38Z</time>
      </trkpt>
      <trkpt lat="45.76099" lon="4.46964">
        <ele>487.53</ele>
        <time>2024-04-29T14:43:51Z</time>
      </trkpt>
      <trkpt lat="45.76135" lon="4.46955">
        <ele>488.49</ele>
        <time>2024-04-29T14:44:12Z</time>
      </trkpt>
      <trkpt lat="45.76168" lon="4.46958">
        <ele>490.89</ele>
        <time>2024-04-29T14:44:35Z</time>
      </trkpt>
      <trkpt lat="45.76187" lon="4.46942">
        <ele>491.37</ele>
        <time>2024-04-29T14:44:53Z</time>
      </trkpt>
      <trkpt lat="45.76222" lon="4.46939">
        <ele>492.33</ele>
        <time>2024-04-29T14:45:14Z</time>
      </trkpt>
      <trkpt lat="45.76254" lon="4.46953">
        <ele>490.89</ele>
        <time>2024-04-29T14:45:37Z</time>
      </trkpt>
      <trkpt lat="45.76285" lon="4.46953">
        <ele>491.37</ele>
        <time>2024-04-29T14:45:59Z</time>
      </trkpt>
      <trkpt lat="45.76309" lon="4.46932">
        <ele>492.81</ele>
        <time>2024-04-29T14:46:22Z</time>
      </trkpt>
      <trkpt lat="45.76333" lon="4.46906">
        <ele>495.22</ele>
        <time>2024-04-29T14:46:41Z</time>
      </trkpt>
      <trkpt lat="45.76351" lon="4.46886">
        <ele>489.45</ele>
        <time>2024-04-29T14:47:03Z</time>
      </trkpt>
      <trkpt lat="45.76383" lon="4.46854">
        <ele>492.33</ele>
        <time>2024-04-29T14:47:25Z</time>
      </trkpt>
      <trkpt lat="45.76412" lon="4.46841">
        <ele>496.66</ele>
        <time>2024-04-29T14:47:44Z</time>
      </trkpt>
      <trkpt lat="45.76445" lon="4.46842">
        <ele>500.5</ele>
        <time>2024-04-29T14:48:06Z</time>
      </trkpt>
      <trkpt lat="45.76473" lon="4.4685">
        <ele>500.5</ele>
        <time>2024-04-29T14:48:26Z</time>
      </trkpt>
      <trkpt lat="45.76508" lon="4.46867">
        <ele>499.06</ele>
        <time>2024-04-29T14:48:44Z</time>
      </trkpt>
      <trkpt lat="45.76541" lon="4.46884">
        <ele>498.1</ele>
        <time>2024-04-29T14:49:02Z</time>
      </trkpt>
      <trkpt lat="45.76575" lon="4.46895">
        <ele>500.02</ele>
        <time>2024-04-29T14:49:24Z</time>
      </trkpt>
      <trkpt lat="45.76606" lon="4.4691">
        <ele>497.62</ele>
        <time>2024-04-29T14:49:47Z</time>
      </trkpt>
      <trkpt lat="45.76642" lon="4.46925">
        <ele>496.66</ele>
        <time>2024-04-29T14:50:13Z</time>
      </trkpt>
      <trkpt lat="45.76673" lon="4.46941">
        <ele>500.02</ele>
        <time>2024-04-29T14:50:31Z</time>
      </trkpt>
      <trkpt lat="45.76668" lon="4.46982">
        <ele>498.1</ele>
        <time>2024-04-29T14:50:52Z</time>
      </trkpt>
      <trkpt lat="45.76668" lon="4.46985">
        <ele>498.1</ele>
        <time>2024-04-29T14:50:53Z</time>
      </trkpt>
      <trkpt lat="45.76672" lon="4.47033">
        <ele>502.91</ele>
        <time>2024-04-29T14:51:13Z</time>
      </trkpt>
      <trkpt lat="45.7668" lon="4.47072">
        <ele>508.19</ele>
        <time>2024-04-29T14:51:32Z</time>
      </trkpt>
      <trkpt lat="45.76692" lon="4.47117">
        <ele>515.88</ele>
        <time>2024-04-29T14:51:57Z</time>
      </trkpt>
      <trkpt lat="45.76703" lon="4.47152">
        <ele>523.58</ele>
        <time>2024-04-29T14:52:17Z</time>
      </trkpt>
      <trkpt lat="45.76714" lon="4.47163">
        <ele>527.42</ele>
        <time>2024-04-29T14:52:27Z</time>
      </trkpt>
      <trkpt lat="45.7675" lon="4.47168">
        <ele>530.3</ele>
        <time>2024-04-29T14:52:51Z</time>
      </trkpt>
      <trkpt lat="45.76776" lon="4.4718">
        <ele>532.71</ele>
        <time>2024-04-29T14:53:13Z</time>
      </trkpt>
      <trkpt lat="45.76803" lon="4.47203">
        <ele>533.19</ele>
        <time>2024-04-29T14:53:35Z</time>
      </trkpt>
      <trkpt lat="45.7682" lon="4.4723">
        <ele>534.15</ele>
        <time>2024-04-29T14:53:55Z</time>
      </trkpt>
      <trkpt lat="45.76848" lon="4.47269">
        <ele>537.03</ele>
        <time>2024-04-29T14:54:21Z</time>
      </trkpt>
      <trkpt lat="45.76872" lon="4.47294">
        <ele>543.28</ele>
        <time>2024-04-29T14:54:40Z</time>
      </trkpt>
      <trkpt lat="45.76873" lon="4.47296">
        <ele>543.28</ele>
        <time>2024-04-29T14:54:42Z</time>
      </trkpt>
      <trkpt lat="45.76896" lon="4.47296">
        <ele>543.28</ele>
        <time>2024-04-29T14:54:59Z</time>
      </trkpt>
      <trkpt lat="45.76916" lon="4.47273">
        <ele>547.61</ele>
        <time>2024-04-29T14:55:17Z</time>
      </trkpt>
      <trkpt lat="45.76935" lon="4.47251">
        <ele>549.05</ele>
        <time>2024-04-29T14:55:35Z</time>
      </trkpt>
      <trkpt lat="45.7697" lon="4.47259">
        <ele>552.9</ele>
        <time>2024-04-29T14:55:59Z</time>
      </trkpt>
      <trkpt lat="45.76995" lon="4.47275">
        <ele>558.18</ele>
        <time>2024-04-29T14:56:19Z</time>
      </trkpt>
      <trkpt lat="45.77022" lon="4.47303">
        <ele>559.62</ele>
        <time>2024-04-29T14:56:43Z</time>
      </trkpt>
      <trkpt lat="45.77055" lon="4.47321">
        <ele>565.39</ele>
        <time>2024-04-29T14:57:07Z</time>
      </trkpt>
      <trkpt lat="45.7706" lon="4.47331">
        <ele>566.83</ele>
        <time>2024-04-29T14:57:21Z</time>
      </trkpt>
      <trkpt lat="45.77059" lon="4.47332">
        <ele>567.32</ele>
        <time>2024-04-29T14:57:22Z</time>
      </trkpt>
      <trkpt lat="45.77057" lon="4.47332">
        <ele>567.32</ele>
        <time>2024-04-29T14:57:23Z</time>
      </trkpt>
      <trkpt lat="45.7703" lon="4.47342">
        <ele>570.68</ele>
        <time>2024-04-29T14:57:43Z</time>
      </trkpt>
      <trkpt lat="45.77005" lon="4.47361">
        <ele>575.01</ele>
        <time>2024-04-29T14:58:03Z</time>
      </trkpt>
      <trkpt lat="45.76974" lon="4.474">
        <ele>575.49</ele>
        <time>2024-04-29T14:58:28Z</time>
      </trkpt>
      <trkpt lat="45.76961" lon="4.47439">
        <ele>571.64</ele>
        <time>2024-04-29T14:58:50Z</time>
      </trkpt>
      <trkpt lat="45.76938" lon="4.47471">
        <ele>571.16</ele>
        <time>2024-04-29T14:59:10Z</time>
      </trkpt>
      <trkpt lat="45.76904" lon="4.47494">
        <ele>570.2</ele>
        <time>2024-04-29T14:59:32Z</time>
      </trkpt>
      <trkpt lat="45.76873" lon="4.4751">
        <ele>568.28</ele>
        <time>2024-04-29T14:59:52Z</time>
      </trkpt>
      <trkpt lat="45.76851" lon="4.47517">
        <ele>569.24</ele>
        <time>2024-04-29T15:00:08Z</time>
      </trkpt>
      <trkpt lat="45.76827" lon="4.47533">
        <ele>567.8</ele>
        <time>2024-04-29T15:00:26Z</time>
      </trkpt>
      <trkpt lat="45.76829" lon="4.47557">
        <ele>571.16</ele>
        <time>2024-04-29T15:00:36Z</time>
      </trkpt>
      <trkpt lat="45.76834" lon="4.47592">
        <ele>575.97</ele>
        <time>2024-04-29T15:00:51Z</time>
      </trkpt>
      <trkpt lat="45.7684" lon="4.47634">
        <ele>581.73</ele>
        <time>2024-04-29T15:01:12Z</time>
      </trkpt>
      <trkpt lat="45.76843" lon="4.47681">
        <ele>586.54</ele>
        <time>2024-04-29T15:01:37Z</time>
      </trkpt>
      <trkpt lat="45.76842" lon="4.47711">
        <ele>589.91</ele>
        <time>2024-04-29T15:01:55Z</time>
      </trkpt>
      <trkpt lat="45.76847" lon="4.47712">
        <ele>590.39</ele>
        <time>2024-04-29T15:01:59Z</time>
      </trkpt>
      <trkpt lat="45.76887" lon="4.47715">
        <ele>593.75</ele>
        <time>2024-04-29T15:02:27Z</time>
      </trkpt>
      <trkpt lat="45.7693" lon="4.47724">
        <ele>599.52</ele>
        <time>2024-04-29T15:02:58Z</time>
      </trkpt>
      <trkpt lat="45.76933" lon="4.47753">
        <ele>601.44</ele>
        <time>2024-04-29T15:03:15Z</time>
      </trkpt>
      <trkpt lat="45.76923" lon="4.47795">
        <ele>602.88</ele>
        <time>2024-04-29T15:03:38Z</time>
      </trkpt>
      <trkpt lat="45.76915" lon="4.47842">
        <ele>604.33</ele>
        <time>2024-04-29T15:04:02Z</time>
      </trkpt>
      <trkpt lat="45.76912" lon="4.47878">
        <ele>607.69</ele>
        <time>2024-04-29T15:04:21Z</time>
      </trkpt>
      <trkpt lat="45.76925" lon="4.47919">
        <ele>610.57</ele>
        <time>2024-04-29T15:04:43Z</time>
      </trkpt>
      <trkpt lat="45.7693" lon="4.47926">
        <ele>611.06</ele>
        <time>2024-04-29T15:04:48Z</time>
      </trkpt>
      <trkpt lat="45.76949" lon="4.47958">
        <ele>613.94</ele>
        <time>2024-04-29T15:05:11Z</time>
      </trkpt>
      <trkpt lat="45.76971" lon="4.47993">
        <ele>614.9</ele>
        <time>2024-04-29T15:05:36Z</time>
      </trkpt>
      <trkpt lat="45.76966" lon="4.48032">
        <ele>614.42</ele>
        <time>2024-04-29T15:05:58Z</time>
      </trkpt>
      <trkpt lat="45.76945" lon="4.48064">
        <ele>615.86</ele>
        <time>2024-04-29T15:06:19Z</time>
      </trkpt>
      <trkpt lat="45.76923" lon="4.48094">
        <ele>618.26</ele>
        <time>2024-04-29T15:06:40Z</time>
      </trkpt>
      <trkpt lat="45.76929" lon="4.48128">
        <ele>619.71</ele>
        <time>2024-04-29T15:06:58Z</time>
      </trkpt>
      <trkpt lat="45.76947" lon="4.48165">
        <ele>623.07</ele>
        <time>2024-04-29T15:07:21Z</time>
      </trkpt>
      <trkpt lat="45.76963" lon="4.48194">
        <ele>626.44</ele>
        <time>2024-04-29T15:07:41Z</time>
      </trkpt>
      <trkpt lat="45.76984" lon="4.48227">
        <ele>632.2</ele>
        <time>2024-04-29T15:08:05Z</time>
      </trkpt>
      <trkpt lat="45.76998" lon="4.48254">
        <ele>635.09</ele>
        <time>2024-04-29T15:08:22Z</time>
      </trkpt>
      <trkpt lat="45.77012" lon="4.48283">
        <ele>637.49</ele>
        <time>2024-04-29T15:08:41Z</time>
      </trkpt>
      <trkpt lat="45.77027" lon="4.48313">
        <ele>641.82</ele>
        <time>2024-04-29T15:09:01Z</time>
      </trkpt>
      <trkpt lat="45.77044" lon="4.48354">
        <ele>648.07</ele>
        <time>2024-04-29T15:09:25Z</time>
      </trkpt>
      <trkpt lat="45.77053" lon="4.48387">
        <ele>655.28</ele>
        <time>2024-04-29T15:09:45Z</time>
      </trkpt>
      <trkpt lat="45.77069" lon="4.48394">
        <ele>660.08</ele>
        <time>2024-04-29T15:10:03Z</time>
      </trkpt>
      <trkpt lat="45.77074" lon="4.48396">
        <ele>660.56</ele>
        <time>2024-04-29T15:10:07Z</time>
      </trkpt>
      <trkpt lat="45.77093" lon="4.48382">
        <ele>662.01</ele>
        <time>2024-04-29T15:10:25Z</time>
      </trkpt>
      <trkpt lat="45.77113" lon="4.4836">
        <ele>662.49</ele>
        <time>2024-04-29T15:10:45Z</time>
      </trkpt>
      <trkpt lat="45.77135" lon="4.4834">
        <ele>662.01</ele>
        <time>2024-04-29T15:11:05Z</time>
      </trkpt>
      <trkpt lat="45.77153" lon="4.4833">
        <ele>658.64</ele>
        <time>2024-04-29T15:11:25Z</time>
      </trkpt>
      <trkpt lat="45.77182" lon="4.4832">
        <ele>659.6</ele>
        <time>2024-04-29T15:11:47Z</time>
      </trkpt>
      <trkpt lat="45.77203" lon="4.48306">
        <ele>662.01</ele>
        <time>2024-04-29T15:12:07Z</time>
      </trkpt>
      <trkpt lat="45.77226" lon="4.483">
        <ele>663.45</ele>
        <time>2024-04-29T15:12:29Z</time>
      </trkpt>
      <trkpt lat="45.77249" lon="4.48301">
        <ele>667.29</ele>
        <time>2024-04-29T15:12:49Z</time>
      </trkpt>
      <trkpt lat="45.77279" lon="4.48313">
        <ele>672.58</ele>
        <time>2024-04-29T15:13:11Z</time>
      </trkpt>
      <trkpt lat="45.77306" lon="4.48328">
        <ele>674.5</ele>
        <time>2024-04-29T15:13:34Z</time>
      </trkpt>
      <trkpt lat="45.77332" lon="4.48335">
        <ele>677.39</ele>
        <time>2024-04-29T15:13:53Z</time>
      </trkpt>
      <trkpt lat="45.77357" lon="4.48341">
        <ele>678.35</ele>
        <time>2024-04-29T15:14:14Z</time>
      </trkpt>
      <trkpt lat="45.77382" lon="4.48345">
        <ele>679.79</ele>
        <time>2024-04-29T15:14:35Z</time>
      </trkpt>
      <trkpt lat="45.77402" lon="4.48351">
        <ele>675.94</ele>
        <time>2024-04-29T15:14:58Z</time>
      </trkpt>
      <trkpt lat="45.77428" lon="4.48347">
        <ele>676.42</ele>
        <time>2024-04-29T15:15:20Z</time>
      </trkpt>
      <trkpt lat="45.77459" lon="4.4835">
        <ele>682.67</ele>
        <time>2024-04-29T15:15:42Z</time>
      </trkpt>
      <trkpt lat="45.77487" lon="4.48351">
        <ele>686.52</ele>
        <time>2024-04-29T15:16:04Z</time>
      </trkpt>
      <trkpt lat="45.77502" lon="4.48353">
        <ele>689.4</ele>
        <time>2024-04-29T15:16:23Z</time>
      </trkpt>
      <trkpt lat="45.77526" lon="4.48367">
        <ele>692.77</ele>
        <time>2024-04-29T15:16:40Z</time>
      </trkpt>
      <trkpt lat="45.7755" lon="4.48374">
        <ele>694.21</ele>
        <time>2024-04-29T15:16:58Z</time>
      </trkpt>
      <trkpt lat="45.77577" lon="4.48389">
        <ele>696.61</ele>
        <time>2024-04-29T15:17:18Z</time>
      </trkpt>
      <trkpt lat="45.77602" lon="4.48403">
        <ele>699.98</ele>
        <time>2024-04-29T15:17:38Z</time>
      </trkpt>
      <trkpt lat="45.77626" lon="4.48418">
        <ele>699.98</ele>
        <time>2024-04-29T15:17:58Z</time>
      </trkpt>
      <trkpt lat="45.77646" lon="4.48423">
        <ele>700.46</ele>
        <time>2024-04-29T15:18:14Z</time>
      </trkpt>
      <trkpt lat="45.77674" lon="4.48432">
        <ele>706.23</ele>
        <time>2024-04-29T15:18:34Z</time>
      </trkpt>
      <trkpt lat="45.77696" lon="4.48436">
        <ele>709.59</ele>
        <time>2024-04-29T15:18:54Z</time>
      </trkpt>
      <trkpt lat="45.77719" lon="4.48464">
        <ele>712.95</ele>
        <time>2024-04-29T15:19:13Z</time>
      </trkpt>
      <trkpt lat="45.77734" lon="4.48486">
        <ele>715.36</ele>
        <time>2024-04-29T15:19:30Z</time>
      </trkpt>
      <trkpt lat="45.77746" lon="4.48514">
        <ele>718.72</ele>
        <time>2024-04-29T15:19:49Z</time>
      </trkpt>
      <trkpt lat="45.77759" lon="4.48521">
        <ele>723.53</ele>
        <time>2024-04-29T15:20:07Z</time>
      </trkpt>
      <trkpt lat="45.77778" lon="4.48502">
        <ele>724.49</ele>
        <time>2024-04-29T15:20:27Z</time>
      </trkpt>
      <trkpt lat="45.77806" lon="4.48474">
        <ele>724.01</ele>
        <time>2024-04-29T15:20:50Z</time>
      </trkpt>
      <trkpt lat="45.77827" lon="4.48453">
        <ele>725.45</ele>
        <time>2024-04-29T15:21:09Z</time>
      </trkpt>
      <trkpt lat="45.77846" lon="4.48424">
        <ele>727.86</ele>
        <time>2024-04-29T15:21:29Z</time>
      </trkpt>
      <trkpt lat="45.77863" lon="4.48397">
        <ele>729.3</ele>
        <time>2024-04-29T15:21:49Z</time>
      </trkpt>
      <trkpt lat="45.77882" lon="4.48378">
        <ele>732.66</ele>
        <time>2024-04-29T15:22:10Z</time>
      </trkpt>
      <trkpt lat="45.77902" lon="4.48355">
        <ele>736.51</ele>
        <time>2024-04-29T15:22:30Z</time>
      </trkpt>
      <trkpt lat="45.77917" lon="4.48331">
        <ele>735.55</ele>
        <time>2024-04-29T15:22:48Z</time>
      </trkpt>
      <trkpt lat="45.77932" lon="4.48311">
        <ele>731.7</ele>
        <time>2024-04-29T15:23:08Z</time>
      </trkpt>
      <trkpt lat="45.77944" lon="4.48317">
        <ele>725.93</ele>
        <time>2024-04-29T15:23:34Z</time>
      </trkpt>
      <trkpt lat="45.77935" lon="4.48326">
        <ele>726.89</ele>
        <time>2024-04-29T15:23:53Z</time>
      </trkpt>
      <trkpt lat="45.77939" lon="4.48305">
        <ele>725.45</ele>
        <time>2024-04-29T15:24:25Z</time>
      </trkpt>
      <trkpt lat="45.77935" lon="4.48329">
        <ele>728.34</ele>
        <time>2024-04-29T15:25:21Z</time>
      </trkpt>
      <trkpt lat="45.77934" lon="4.48335">
        <ele>735.55</ele>
        <time>2024-04-29T15:25:53Z</time>
      </trkpt>
      <trkpt lat="45.77928" lon="4.48342">
        <ele>743.72</ele>
        <time>2024-04-29T15:26:29Z</time>
      </trkpt>
      <trkpt lat="45.77927" lon="4.48337">
        <ele>743.24</ele>
        <time>2024-04-29T15:27:00Z</time>
      </trkpt>
      <trkpt lat="45.77921" lon="4.48312">
        <ele>737.95</ele>
        <time>2024-04-29T15:27:21Z</time>
      </trkpt>
      <trkpt lat="45.7792" lon="4.48292">
        <ele>736.99</ele>
        <time>2024-04-29T15:27:42Z</time>
      </trkpt>
      <trkpt lat="45.77932" lon="4.48271">
        <ele>732.18</ele>
        <time>2024-04-29T15:28:02Z</time>
      </trkpt>
      <trkpt lat="45.7794" lon="4.48251">
        <ele>730.26</ele>
        <time>2024-04-29T15:28:23Z</time>
      </trkpt>
      <trkpt lat="45.7795" lon="4.48236">
        <ele>726.89</ele>
        <time>2024-04-29T15:28:44Z</time>
      </trkpt>
      <trkpt lat="45.77963" lon="4.48201">
        <ele>722.57</ele>
        <time>2024-04-29T15:29:07Z</time>
      </trkpt>
      <trkpt lat="45.77975" lon="4.48177">
        <ele>719.2</ele>
        <time>2024-04-29T15:29:23Z</time>
      </trkpt>
      <trkpt lat="45.77993" lon="4.48156">
        <ele>713.92</ele>
        <time>2024-04-29T15:29:42Z</time>
      </trkpt>
      <trkpt lat="45.78011" lon="4.4813">
        <ele>709.11</ele>
        <time>2024-04-29T15:30:02Z</time>
      </trkpt>
      <trkpt lat="45.78014" lon="4.48119">
        <ele>709.59</ele>
        <time>2024-04-29T15:30:09Z</time>
      </trkpt>
      <trkpt lat="45.78015" lon="4.48117">
        <ele>709.59</ele>
        <time>2024-04-29T15:30:10Z</time>
      </trkpt>
      <trkpt lat="45.78016" lon="4.48116">
        <ele>709.59</ele>
        <time>2024-04-29T15:30:11Z</time>
      </trkpt>
      <trkpt lat="45.78017" lon="4.48114">
        <ele>710.07</ele>
        <time>2024-04-29T15:30:12Z</time>
      </trkpt>
      <trkpt lat="45.78017" lon="4.48112">
        <ele>710.55</ele>
        <time>2024-04-29T15:30:13Z</time>
      </trkpt>
      <trkpt lat="45.78018" lon="4.4811">
        <ele>710.55</ele>
        <time>2024-04-29T15:30:14Z</time>
      </trkpt>
      <trkpt lat="45.78019" lon="4.48108">
        <ele>710.55</ele>
        <time>2024-04-29T15:30:15Z</time>
      </trkpt>
      <trkpt lat="45.7802" lon="4.48107">
        <ele>711.03</ele>
        <time>2024-04-29T15:30:16Z</time>
      </trkpt>
      <trkpt lat="45.78028" lon="4.48081">
        <ele>711.51</ele>
        <time>2024-04-29T15:30:31Z</time>
      </trkpt>
      <trkpt lat="45.78031" lon="4.48072">
        <ele>710.55</ele>
        <time>2024-04-29T15:30:36Z</time>
      </trkpt>
      <trkpt lat="45.78032" lon="4.48065">
        <ele>710.07</ele>
        <time>2024-04-29T15:30:40Z</time>
      </trkpt>
      <trkpt lat="45.78032" lon="4.48064">
        <ele>710.07</ele>
        <time>2024-04-29T15:30:41Z</time>
      </trkpt>
      <trkpt lat="45.78032" lon="4.48062">
        <ele>710.07</ele>
        <time>2024-04-29T15:30:42Z</time>
      </trkpt>
      <trkpt lat="45.78031" lon="4.48029">
        <ele>706.23</ele>
        <time>2024-04-29T15:30:58Z</time>
      </trkpt>
      <trkpt lat="45.78039" lon="4.47991">
        <ele>703.82</ele>
        <time>2024-04-29T15:31:16Z</time>
      </trkpt>
      <trkpt lat="45.78056" lon="4.47963">
        <ele>701.42</ele>
        <time>2024-04-29T15:31:34Z</time>
      </trkpt>
      <trkpt lat="45.78078" lon="4.4793">
        <ele>699.98</ele>
        <time>2024-04-29T15:31:56Z</time>
      </trkpt>
      <trkpt lat="45.78098" lon="4.47907">
        <ele>699.02</ele>
        <time>2024-04-29T15:32:16Z</time>
      </trkpt>
      <trkpt lat="45.78117" lon="4.47878">
        <ele>696.61</ele>
        <time>2024-04-29T15:32:36Z</time>
      </trkpt>
      <trkpt lat="45.78129" lon="4.4786">
        <ele>695.65</ele>
        <time>2024-04-29T15:32:50Z</time>
      </trkpt>
      <trkpt lat="45.78152" lon="4.47826">
        <ele>691.81</ele>
        <time>2024-04-29T15:33:11Z</time>
      </trkpt>
      <trkpt lat="45.78178" lon="4.47803">
        <ele>690.36</ele>
        <time>2024-04-29T15:33:34Z</time>
      </trkpt>
      <trkpt lat="45.78196" lon="4.47778">
        <ele>691.33</ele>
        <time>2024-04-29T15:33:53Z</time>
      </trkpt>
      <trkpt lat="45.78215" lon="4.47745">
        <ele>689.88</ele>
        <time>2024-04-29T15:34:15Z</time>
      </trkpt>
      <trkpt lat="45.78234" lon="4.47707">
        <ele>687.96</ele>
        <time>2024-04-29T15:34:38Z</time>
      </trkpt>
      <trkpt lat="45.78252" lon="4.4767">
        <ele>684.12</ele>
        <time>2024-04-29T15:35:00Z</time>
      </trkpt>
      <trkpt lat="45.78255" lon="4.47666">
        <ele>683.63</ele>
        <time>2024-04-29T15:35:21Z</time>
      </trkpt>
      <trkpt lat="45.78263" lon="4.47653">
        <ele>682.19</ele>
        <time>2024-04-29T15:35:37Z</time>
      </trkpt>
      <trkpt lat="45.78278" lon="4.47612">
        <ele>682.19</ele>
        <time>2024-04-29T15:35:58Z</time>
      </trkpt>
      <trkpt lat="45.78289" lon="4.47586">
        <ele>683.63</ele>
        <time>2024-04-29T15:36:14Z</time>
      </trkpt>
      <trkpt lat="45.78306" lon="4.47554">
        <ele>682.67</ele>
        <time>2024-04-29T15:36:34Z</time>
      </trkpt>
      <trkpt lat="45.78326" lon="4.47511">
        <ele>679.31</ele>
        <time>2024-04-29T15:36:59Z</time>
      </trkpt>
      <trkpt lat="45.7834" lon="4.4748">
        <ele>674.98</ele>
        <time>2024-04-29T15:37:19Z</time>
      </trkpt>
      <trkpt lat="45.78357" lon="4.47445">
        <ele>672.58</ele>
        <time>2024-04-29T15:37:40Z</time>
      </trkpt>
      <trkpt lat="45.78375" lon="4.47418">
        <ele>668.73</ele>
        <time>2024-04-29T15:38:00Z</time>
      </trkpt>
      <trkpt lat="45.78381" lon="4.47418">
        <ele>667.77</ele>
        <time>2024-04-29T15:38:05Z</time>
      </trkpt>
      <trkpt lat="45.78382" lon="4.47419">
        <ele>667.29</ele>
        <time>2024-04-29T15:38:06Z</time>
      </trkpt>
      <trkpt lat="45.78407" lon="4.47424">
        <ele>662.01</ele>
        <time>2024-04-29T15:38:26Z</time>
      </trkpt>
      <trkpt lat="45.78428" lon="4.47423">
        <ele>657.2</ele>
        <time>2024-04-29T15:38:44Z</time>
      </trkpt>
      <trkpt lat="45.78446" lon="4.47423">
        <ele>654.8</ele>
        <time>2024-04-29T15:38:59Z</time>
      </trkpt>
      <trkpt lat="45.78472" lon="4.4742">
        <ele>650.47</ele>
        <time>2024-04-29T15:39:17Z</time>
      </trkpt>
      <trkpt lat="45.78495" lon="4.47407">
        <ele>646.14</ele>
        <time>2024-04-29T15:39:35Z</time>
      </trkpt>
      <trkpt lat="45.78514" lon="4.47385">
        <ele>642.3</ele>
        <time>2024-04-29T15:39:57Z</time>
      </trkpt>
      <trkpt lat="45.78519" lon="4.47374">
        <ele>640.38</ele>
        <time>2024-04-29T15:40:05Z</time>
      </trkpt>
      <trkpt lat="45.78535" lon="4.47338">
        <ele>637.49</ele>
        <time>2024-04-29T15:40:25Z</time>
      </trkpt>
      <trkpt lat="45.78555" lon="4.47304">
        <ele>635.09</ele>
        <time>2024-04-29T15:40:47Z</time>
      </trkpt>
      <trkpt lat="45.78578" lon="4.47269">
        <ele>634.13</ele>
        <time>2024-04-29T15:41:09Z</time>
      </trkpt>
      <trkpt lat="45.78596" lon="4.47231">
        <ele>631.72</ele>
        <time>2024-04-29T15:41:31Z</time>
      </trkpt>
      <trkpt lat="45.78612" lon="4.47205">
        <ele>630.28</ele>
        <time>2024-04-29T15:41:50Z</time>
      </trkpt>
      <trkpt lat="45.78607" lon="4.47158">
        <ele>633.17</ele>
        <time>2024-04-29T15:42:14Z</time>
      </trkpt>
      <trkpt lat="45.78608" lon="4.47109">
        <ele>633.17</ele>
        <time>2024-04-29T15:42:38Z</time>
      </trkpt>
      <trkpt lat="45.78606" lon="4.4706">
        <ele>634.13</ele>
        <time>2024-04-29T15:43:03Z</time>
      </trkpt>
      <trkpt lat="45.78608" lon="4.47016">
        <ele>638.45</ele>
        <time>2024-04-29T15:43:24Z</time>
      </trkpt>
      <trkpt lat="45.78613" lon="4.46971">
        <ele>639.89</ele>
        <time>2024-04-29T15:43:46Z</time>
      </trkpt>
      <trkpt lat="45.78615" lon="4.46932">
        <ele>642.3</ele>
        <time>2024-04-29T15:44:05Z</time>
      </trkpt>
      <trkpt lat="45.78619" lon="4.46895">
        <ele>645.66</ele>
        <time>2024-04-29T15:44:23Z</time>
      </trkpt>
      <trkpt lat="45.78644" lon="4.46871">
        <ele>644.22</ele>
        <time>2024-04-29T15:44:43Z</time>
      </trkpt>
      <trkpt lat="45.78682" lon="4.46879">
        <ele>642.78</ele>
        <time>2024-04-29T15:44:59Z</time>
      </trkpt>
      <trkpt lat="45.78707" lon="4.46892">
        <ele>643.26</ele>
        <time>2024-04-29T15:45:14Z</time>
      </trkpt>
      <trkpt lat="45.78735" lon="4.4691">
        <ele>643.26</ele>
        <time>2024-04-29T15:45:34Z</time>
      </trkpt>
      <trkpt lat="45.78762" lon="4.46926">
        <ele>645.18</ele>
        <time>2024-04-29T15:45:54Z</time>
      </trkpt>
      <trkpt lat="45.78787" lon="4.46938">
        <ele>647.59</ele>
        <time>2024-04-29T15:46:12Z</time>
      </trkpt>
      <trkpt lat="45.78814" lon="4.46939">
        <ele>647.1</ele>
        <time>2024-04-29T15:46:32Z</time>
      </trkpt>
      <trkpt lat="45.78852" lon="4.46942">
        <ele>648.07</ele>
        <time>2024-04-29T15:46:56Z</time>
      </trkpt>
      <trkpt lat="45.78874" lon="4.46956">
        <ele>649.03</ele>
        <time>2024-04-29T15:47:13Z</time>
      </trkpt>
      <trkpt lat="45.78892" lon="4.46977">
        <ele>652.39</ele>
        <time>2024-04-29T15:47:31Z</time>
      </trkpt>
      <trkpt lat="45.78919" lon="4.46942">
        <ele>654.8</ele>
        <time>2024-04-29T15:47:56Z</time>
      </trkpt>
      <trkpt lat="45.78941" lon="4.46911">
        <ele>657.2</ele>
        <time>2024-04-29T15:48:17Z</time>
      </trkpt>
      <trkpt lat="45.7895" lon="4.46898">
        <ele>657.68</ele>
        <time>2024-04-29T15:48:26Z</time>
      </trkpt>
      <trkpt lat="45.78953" lon="4.46898">
        <ele>658.16</ele>
        <time>2024-04-29T15:48:28Z</time>
      </trkpt>
      <trkpt lat="45.78954" lon="4.46899">
        <ele>658.16</ele>
        <time>2024-04-29T15:48:29Z</time>
      </trkpt>
      <trkpt lat="45.78974" lon="4.46905">
        <ele>658.16</ele>
        <time>2024-04-29T15:48:45Z</time>
      </trkpt>
      <trkpt lat="45.79" lon="4.46887">
        <ele>656.24</ele>
        <time>2024-04-29T15:49:05Z</time>
      </trkpt>
      <trkpt lat="45.79021" lon="4.46856">
        <ele>656.24</ele>
        <time>2024-04-29T15:49:25Z</time>
      </trkpt>
      <trkpt lat="45.79038" lon="4.46828">
        <ele>661.52</ele>
        <time>2024-04-29T15:49:43Z</time>
      </trkpt>
      <trkpt lat="45.79046" lon="4.4681">
        <ele>663.93</ele>
        <time>2024-04-29T15:49:55Z</time>
      </trkpt>
      <trkpt lat="45.79049" lon="4.46811">
        <ele>664.89</ele>
        <time>2024-04-29T15:49:58Z</time>
      </trkpt>
      <trkpt lat="45.7907" lon="4.46819">
        <ele>667.29</ele>
        <time>2024-04-29T15:50:15Z</time>
      </trkpt>
      <trkpt lat="45.79107" lon="4.46797">
        <ele>664.41</ele>
        <time>2024-04-29T15:50:40Z</time>
      </trkpt>
      <trkpt lat="45.79132" lon="4.46776">
        <ele>661.04</ele>
        <time>2024-04-29T15:51:00Z</time>
      </trkpt>
      <trkpt lat="45.79161" lon="4.46755">
        <ele>658.64</ele>
        <time>2024-04-29T15:51:23Z</time>
      </trkpt>
      <trkpt lat="45.79192" lon="4.46733">
        <ele>657.68</ele>
        <time>2024-04-29T15:51:47Z</time>
      </trkpt>
      <trkpt lat="45.79223" lon="4.46713">
        <ele>655.76</ele>
        <time>2024-04-29T15:52:11Z</time>
      </trkpt>
      <trkpt lat="45.79254" lon="4.46711">
        <ele>655.76</ele>
        <time>2024-04-29T15:52:30Z</time>
      </trkpt>
      <trkpt lat="45.79284" lon="4.46725">
        <ele>655.28</ele>
        <time>2024-04-29T15:52:51Z</time>
      </trkpt>
      <trkpt lat="45.79308" lon="4.46743">
        <ele>654.8</ele>
        <time>2024-04-29T15:53:11Z</time>
      </trkpt>
      <trkpt lat="45.79339" lon="4.46741">
        <ele>651.43</ele>
        <time>2024-04-29T15:53:31Z</time>
      </trkpt>
      <trkpt lat="45.79361" lon="4.46713">
        <ele>648.55</ele>
        <time>2024-04-29T15:53:51Z</time>
      </trkpt>
      <trkpt lat="45.79364" lon="4.46702">
        <ele>645.66</ele>
        <time>2024-04-29T15:54:08Z</time>
      </trkpt>
      <trkpt lat="45.79364" lon="4.46695">
        <ele>645.66</ele>
        <time>2024-04-29T15:54:32Z</time>
      </trkpt>
      <trkpt lat="45.79373" lon="4.46675">
        <ele>648.55</ele>
        <time>2024-04-29T15:54:47Z</time>
      </trkpt>
      <trkpt lat="45.79388" lon="4.46647">
        <ele>648.55</ele>
        <time>2024-04-29T15:55:06Z</time>
      </trkpt>
      <trkpt lat="45.79386" lon="4.46648">
        <ele>647.59</ele>
        <time>2024-04-29T15:55:13Z</time>
      </trkpt>
      <trkpt lat="45.79372" lon="4.46688">
        <ele>648.55</ele>
        <time>2024-04-29T15:55:31Z</time>
      </trkpt>
      <trkpt lat="45.79347" lon="4.46728">
        <ele>651.91</ele>
        <time>2024-04-29T15:55:46Z</time>
      </trkpt>
      <trkpt lat="45.79316" lon="4.46738">
        <ele>654.31</ele>
        <time>2024-04-29T15:55:59Z</time>
      </trkpt>
      <trkpt lat="45.793" lon="4.46742">
        <ele>655.28</ele>
        <time>2024-04-29T15:56:16Z</time>
      </trkpt>
      <trkpt lat="45.793" lon="4.46754">
        <ele>653.83</ele>
        <time>2024-04-29T15:56:26Z</time>
      </trkpt>
      <trkpt lat="45.793" lon="4.46756">
        <ele>653.83</ele>
        <time>2024-04-29T15:56:27Z</time>
      </trkpt>
      <trkpt lat="45.79311" lon="4.4679">
        <ele>645.66</ele>
        <time>2024-04-29T15:56:50Z</time>
      </trkpt>
      <trkpt lat="45.79314" lon="4.46791">
        <ele>644.7</ele>
        <time>2024-04-29T15:56:53Z</time>
      </trkpt>
      <trkpt lat="45.79341" lon="4.46792">
        <ele>637.01</ele>
        <time>2024-04-29T15:57:15Z</time>
      </trkpt>
      <trkpt lat="45.79362" lon="4.46776">
        <ele>630.76</ele>
        <time>2024-04-29T15:57:35Z</time>
      </trkpt>
      <trkpt lat="45.79372" lon="4.46786">
        <ele>627.88</ele>
        <time>2024-04-29T15:57:45Z</time>
      </trkpt>
      <trkpt lat="45.79371" lon="4.46789">
        <ele>627.4</ele>
        <time>2024-04-29T15:57:46Z</time>
      </trkpt>
      <trkpt lat="45.79371" lon="4.46791">
        <ele>627.4</ele>
        <time>2024-04-29T15:57:47Z</time>
      </trkpt>
      <trkpt lat="45.7937" lon="4.46793">
        <ele>626.92</ele>
        <time>2024-04-29T15:57:48Z</time>
      </trkpt>
      <trkpt lat="45.79369" lon="4.46795">
        <ele>626.44</ele>
        <time>2024-04-29T15:57:49Z</time>
      </trkpt>
      <trkpt lat="45.79368" lon="4.46797">
        <ele>626.44</ele>
        <time>2024-04-29T15:57:50Z</time>
      </trkpt>
      <trkpt lat="45.79368" lon="4.46799">
        <ele>625.96</ele>
        <time>2024-04-29T15:57:51Z</time>
      </trkpt>
      <trkpt lat="45.79368" lon="4.46801">
        <ele>625.47</ele>
        <time>2024-04-29T15:57:52Z</time>
      </trkpt>
      <trkpt lat="45.79356" lon="4.46836">
        <ele>621.15</ele>
        <time>2024-04-29T15:58:09Z</time>
      </trkpt>
      <trkpt lat="45.79349" lon="4.46867">
        <ele>615.86</ele>
        <time>2024-04-29T15:58:26Z</time>
      </trkpt>
      <trkpt lat="45.79341" lon="4.46896">
        <ele>611.54</ele>
        <time>2024-04-29T15:58:43Z</time>
      </trkpt>
      <trkpt lat="45.79341" lon="4.46902">
        <ele>611.06</ele>
        <time>2024-04-29T15:58:46Z</time>
      </trkpt>
      <trkpt lat="45.79341" lon="4.46905">
        <ele>611.06</ele>
        <time>2024-04-29T15:58:47Z</time>
      </trkpt>
      <trkpt lat="45.79342" lon="4.46944">
        <ele>605.29</ele>
        <time>2024-04-29T15:59:06Z</time>
      </trkpt>
      <trkpt lat="45.79342" lon="4.46967">
        <ele>602.88</ele>
        <time>2024-04-29T15:59:18Z</time>
      </trkpt>
      <trkpt lat="45.79353" lon="4.46964">
        <ele>598.08</ele>
        <time>2024-04-29T15:59:35Z</time>
      </trkpt>
      <trkpt lat="45.79374" lon="4.46945">
        <ele>595.67</ele>
        <time>2024-04-29T15:59:54Z</time>
      </trkpt>
      <trkpt lat="45.79391" lon="4.46928">
        <ele>592.79</ele>
        <time>2024-04-29T16:00:11Z</time>
      </trkpt>
      <trkpt lat="45.79421" lon="4.46889">
        <ele>590.39</ele>
        <time>2024-04-29T16:00:34Z</time>
      </trkpt>
      <trkpt lat="45.79444" lon="4.46875">
        <ele>585.1</ele>
        <time>2024-04-29T16:00:54Z</time>
      </trkpt>
      <trkpt lat="45.79467" lon="4.46896">
        <ele>578.37</ele>
        <time>2024-04-29T16:01:15Z</time>
      </trkpt>
      <trkpt lat="45.79492" lon="4.46916">
        <ele>572.6</ele>
        <time>2024-04-29T16:01:34Z</time>
      </trkpt>
      <trkpt lat="45.79514" lon="4.46936">
        <ele>572.12</ele>
        <time>2024-04-29T16:01:47Z</time>
      </trkpt>
      <trkpt lat="45.79516" lon="4.46937">
        <ele>573.08</ele>
        <time>2024-04-29T16:01:48Z</time>
      </trkpt>
      <trkpt lat="45.79517" lon="4.46938">
        <ele>573.56</ele>
        <time>2024-04-29T16:01:49Z</time>
      </trkpt>
      <trkpt lat="45.79519" lon="4.46939">
        <ele>574.04</ele>
        <time>2024-04-29T16:01:50Z</time>
      </trkpt>
      <trkpt lat="45.7953" lon="4.4696">
        <ele>577.89</ele>
        <time>2024-04-29T16:02:05Z</time>
      </trkpt>
      <trkpt lat="45.79541" lon="4.4699">
        <ele>577.41</ele>
        <time>2024-04-29T16:02:19Z</time>
      </trkpt>
      <trkpt lat="45.79553" lon="4.47007">
        <ele>576.93</ele>
        <time>2024-04-29T16:02:31Z</time>
      </trkpt>
      <trkpt lat="45.79567" lon="4.47044">
        <ele>571.64</ele>
        <time>2024-04-29T16:02:48Z</time>
      </trkpt>
      <trkpt lat="45.79586" lon="4.47098">
        <ele>571.64</ele>
        <time>2024-04-29T16:02:59Z</time>
      </trkpt>
      <trkpt lat="45.79587" lon="4.47105">
        <ele>572.12</ele>
        <time>2024-04-29T16:03:00Z</time>
      </trkpt>
      <trkpt lat="45.79588" lon="4.4719">
        <ele>577.89</ele>
        <time>2024-04-29T16:03:15Z</time>
      </trkpt>
      <trkpt lat="45.79581" lon="4.4723">
        <ele>578.85</ele>
        <time>2024-04-29T16:03:32Z</time>
      </trkpt>
      <trkpt lat="45.79567" lon="4.47275">
        <ele>575.97</ele>
        <time>2024-04-29T16:03:53Z</time>
      </trkpt>
      <trkpt lat="45.79566" lon="4.47279">
        <ele>574.53</ele>
        <time>2024-04-29T16:04:09Z</time>
      </trkpt>
      <trkpt lat="45.79567" lon="4.47279">
        <ele>574.04</ele>
        <time>2024-04-29T16:04:20Z</time>
      </trkpt>
      <trkpt lat="45.79567" lon="4.47277">
        <ele>574.04</ele>
        <time>2024-04-29T16:04:21Z</time>
      </trkpt>
      <trkpt lat="45.79568" lon="4.47273">
        <ele>574.04</ele>
        <time>2024-04-29T16:04:23Z</time>
      </trkpt>
      <trkpt lat="45.79576" lon="4.47241">
        <ele>576.93</ele>
        <time>2024-04-29T16:04:39Z</time>
      </trkpt>
      <trkpt lat="45.79585" lon="4.47205">
        <ele>579.33</ele>
        <time>2024-04-29T16:04:58Z</time>
      </trkpt>
      <trkpt lat="45.7959" lon="4.47172">
        <ele>579.81</ele>
        <time>2024-04-29T16:05:14Z</time>
      </trkpt>
      <trkpt lat="45.79589" lon="4.47137">
        <ele>578.85</ele>
        <time>2024-04-29T16:05:31Z</time>
      </trkpt>
      <trkpt lat="45.79585" lon="4.47093">
        <ele>574.04</ele>
        <time>2024-04-29T16:05:53Z</time>
      </trkpt>
      <trkpt lat="45.7957" lon="4.47052">
        <ele>574.04</ele>
        <time>2024-04-29T16:06:14Z</time>
      </trkpt>
      <trkpt lat="45.79556" lon="4.47013">
        <ele>574.04</ele>
        <time>2024-04-29T16:06:34Z</time>
      </trkpt>
      <trkpt lat="45.79556" lon="4.47011">
        <ele>573.56</ele>
        <time>2024-04-29T16:06:35Z</time>
      </trkpt>
      <trkpt lat="45.79573" lon="4.47013">
        <ele>575.49</ele>
        <time>2024-04-29T16:06:49Z</time>
      </trkpt>
      <trkpt lat="45.79607" lon="4.47026">
        <ele>575.97</ele>
        <time>2024-04-29T16:07:12Z</time>
      </trkpt>
      <trkpt lat="45.79636" lon="4.47037">
        <ele>576.45</ele>
        <time>2024-04-29T16:07:33Z</time>
      </trkpt>
      <trkpt lat="45.79656" lon="4.47039">
        <ele>579.81</ele>
        <time>2024-04-29T16:07:49Z</time>
      </trkpt>
      <trkpt lat="45.79671" lon="4.47043">
        <ele>580.29</ele>
        <time>2024-04-29T16:08:03Z</time>
      </trkpt>
      <trkpt lat="45.79678" lon="4.47051">
        <ele>581.25</ele>
        <time>2024-04-29T16:08:23Z</time>
      </trkpt>
      <trkpt lat="45.79679" lon="4.47053">
        <ele>582.22</ele>
        <time>2024-04-29T16:08:25Z</time>
      </trkpt>
      <trkpt lat="45.79677" lon="4.4706">
        <ele>586.54</ele>
        <time>2024-04-29T16:08:43Z</time>
      </trkpt>
      <trkpt lat="45.79673" lon="4.47069">
        <ele>587.5</ele>
        <time>2024-04-29T16:09:12Z</time>
      </trkpt>
      <trkpt lat="45.7967" lon="4.47074">
        <ele>587.02</ele>
        <time>2024-04-29T16:09:30Z</time>
      </trkpt>
      <trkpt lat="45.79668" lon="4.47081">
        <ele>587.02</ele>
        <time>2024-04-29T16:09:39Z</time>
      </trkpt>
      <trkpt lat="45.79667" lon="4.47122">
        <ele>590.39</ele>
        <time>2024-04-29T16:09:58Z</time>
      </trkpt>
      <trkpt lat="45.7968" lon="4.47151">
        <ele>594.23</ele>
        <time>2024-04-29T16:10:16Z</time>
      </trkpt>
      <trkpt lat="45.79702" lon="4.47189">
        <ele>598.56</ele>
        <time>2024-04-29T16:10:40Z</time>
      </trkpt>
      <trkpt lat="45.79715" lon="4.47224">
        <ele>601.92</ele>
        <time>2024-04-29T16:10:59Z</time>
      </trkpt>
      <trkpt lat="45.79734" lon="4.47266">
        <ele>602.4</ele>
        <time>2024-04-29T16:11:24Z</time>
      </trkpt>
      <trkpt lat="45.7974" lon="4.47268">
        <ele>605.29</ele>
        <time>2024-04-29T16:11:40Z</time>
      </trkpt>
      <trkpt lat="45.7975" lon="4.4727">
        <ele>606.25</ele>
        <time>2024-04-29T16:11:56Z</time>
      </trkpt>
      <trkpt lat="45.79752" lon="4.47269">
        <ele>606.73</ele>
        <time>2024-04-29T16:12:23Z</time>
      </trkpt>
      <trkpt lat="45.79759" lon="4.47271">
        <ele>608.65</ele>
        <time>2024-04-29T16:12:37Z</time>
      </trkpt>
      <trkpt lat="45.79756" lon="4.47272">
        <ele>607.21</ele>
        <time>2024-04-29T16:13:01Z</time>
      </trkpt>
      <trkpt lat="45.79758" lon="4.47272">
        <ele>608.65</ele>
        <time>2024-04-29T16:13:20Z</time>
      </trkpt>
      <trkpt lat="45.79766" lon="4.47274">
        <ele>608.17</ele>
        <time>2024-04-29T16:13:34Z</time>
      </trkpt>
      <trkpt lat="45.79778" lon="4.47278">
        <ele>609.61</ele>
        <time>2024-04-29T16:13:50Z</time>
      </trkpt>
      <trkpt lat="45.79791" lon="4.47267">
        <ele>612.02</ele>
        <time>2024-04-29T16:14:04Z</time>
      </trkpt>
      <trkpt lat="45.79804" lon="4.47236">
        <ele>617.78</ele>
        <time>2024-04-29T16:14:23Z</time>
      </trkpt>
      <trkpt lat="45.79826" lon="4.47202">
        <ele>624.51</ele>
        <time>2024-04-29T16:14:46Z</time>
      </trkpt>
      <trkpt lat="45.79844" lon="4.47173">
        <ele>629.8</ele>
        <time>2024-04-29T16:15:07Z</time>
      </trkpt>
      <trkpt lat="45.79859" lon="4.47138">
        <ele>634.61</ele>
        <time>2024-04-29T16:15:25Z</time>
      </trkpt>
      <trkpt lat="45.79878" lon="4.47103">
        <ele>637.01</ele>
        <time>2024-04-29T16:15:45Z</time>
      </trkpt>
      <trkpt lat="45.79903" lon="4.47087">
        <ele>641.34</ele>
        <time>2024-04-29T16:16:04Z</time>
      </trkpt>
      <trkpt lat="45.79918" lon="4.47051">
        <ele>646.14</ele>
        <time>2024-04-29T16:16:23Z</time>
      </trkpt>
      <trkpt lat="45.79931" lon="4.47005">
        <ele>649.51</ele>
        <time>2024-04-29T16:16:46Z</time>
      </trkpt>
      <trkpt lat="45.7995" lon="4.46957">
        <ele>649.99</ele>
        <time>2024-04-29T16:17:12Z</time>
      </trkpt>
      <trkpt lat="45.79957" lon="4.46923">
        <ele>649.03</ele>
        <time>2024-04-29T16:17:30Z</time>
      </trkpt>
      <trkpt lat="45.79966" lon="4.46878">
        <ele>649.03</ele>
        <time>2024-04-29T16:17:54Z</time>
      </trkpt>
      <trkpt lat="45.79977" lon="4.46826">
        <ele>649.99</ele>
        <time>2024-04-29T16:18:20Z</time>
      </trkpt>
      <trkpt lat="45.79988" lon="4.4678">
        <ele>649.51</ele>
        <time>2024-04-29T16:18:45Z</time>
      </trkpt>
      <trkpt lat="45.79992" lon="4.46719">
        <ele>651.91</ele>
        <time>2024-04-29T16:19:14Z</time>
      </trkpt>
      <trkpt lat="45.80001" lon="4.46676">
        <ele>657.2</ele>
        <time>2024-04-29T16:19:36Z</time>
      </trkpt>
      <trkpt lat="45.80014" lon="4.46634">
        <ele>662.01</ele>
        <time>2024-04-29T16:19:59Z</time>
      </trkpt>
      <trkpt lat="45.80016" lon="4.46627">
        <ele>662.49</ele>
        <time>2024-04-29T16:20:13Z</time>
      </trkpt>
      <trkpt lat="45.80016" lon="4.4663">
        <ele>661.52</ele>
        <time>2024-04-29T16:20:24Z</time>
      </trkpt>
      <trkpt lat="45.80019" lon="4.46634">
        <ele>661.04</ele>
        <time>2024-04-29T16:20:28Z</time>
      </trkpt>
      <trkpt lat="45.80042" lon="4.46647">
        <ele>659.6</ele>
        <time>2024-04-29T16:20:49Z</time>
      </trkpt>
      <trkpt lat="45.80046" lon="4.46647">
        <ele>659.6</ele>
        <time>2024-04-29T16:20:52Z</time>
      </trkpt>
      <trkpt lat="45.80074" lon="4.46629">
        <ele>654.8</ele>
        <time>2024-04-29T16:21:17Z</time>
      </trkpt>
      <trkpt lat="45.80105" lon="4.46618">
        <ele>651.91</ele>
        <time>2024-04-29T16:21:39Z</time>
      </trkpt>
      <trkpt lat="45.80133" lon="4.46635">
        <ele>645.66</ele>
        <time>2024-04-29T16:22:00Z</time>
      </trkpt>
      <trkpt lat="45.80153" lon="4.4667">
        <ele>637.97</ele>
        <time>2024-04-29T16:22:23Z</time>
      </trkpt>
      <trkpt lat="45.80175" lon="4.46718">
        <ele>633.17</ele>
        <time>2024-04-29T16:22:48Z</time>
      </trkpt>
      <trkpt lat="45.80195" lon="4.46756">
        <ele>637.49</ele>
        <time>2024-04-29T16:23:07Z</time>
      </trkpt>
      <trkpt lat="45.80201" lon="4.46769">
        <ele>637.97</ele>
        <time>2024-04-29T16:23:15Z</time>
      </trkpt>
      <trkpt lat="45.80225" lon="4.46799">
        <ele>647.1</ele>
        <time>2024-04-29T16:23:37Z</time>
      </trkpt>
      <trkpt lat="45.80236" lon="4.46819">
        <ele>648.07</ele>
        <time>2024-04-29T16:23:58Z</time>
      </trkpt>
      <trkpt lat="45.8026" lon="4.46841">
        <ele>645.66</ele>
        <time>2024-04-29T16:24:19Z</time>
      </trkpt>
      <trkpt lat="45.80276" lon="4.46884">
        <ele>644.7</ele>
        <time>2024-04-29T16:24:42Z</time>
      </trkpt>
      <trkpt lat="45.80258" lon="4.46934">
        <ele>649.99</ele>
        <time>2024-04-29T16:25:06Z</time>
      </trkpt>
      <trkpt lat="45.80263" lon="4.46975">
        <ele>655.76</ele>
        <time>2024-04-29T16:25:27Z</time>
      </trkpt>
      <trkpt lat="45.80267" lon="4.47009">
        <ele>661.52</ele>
        <time>2024-04-29T16:25:48Z</time>
      </trkpt>
      <trkpt lat="45.80278" lon="4.4705">
        <ele>664.41</ele>
        <time>2024-04-29T16:26:10Z</time>
      </trkpt>
      <trkpt lat="45.80296" lon="4.4708">
        <ele>659.6</ele>
        <time>2024-04-29T16:26:32Z</time>
      </trkpt>
      <trkpt lat="45.80332" lon="4.47102">
        <ele>668.73</ele>
        <time>2024-04-29T16:26:55Z</time>
      </trkpt>
      <trkpt lat="45.80359" lon="4.47133">
        <ele>670.18</ele>
        <time>2024-04-29T16:27:21Z</time>
      </trkpt>
      <trkpt lat="45.80384" lon="4.47152">
        <ele>674.02</ele>
        <time>2024-04-29T16:27:40Z</time>
      </trkpt>
      <trkpt lat="45.80408" lon="4.47165">
        <ele>672.58</ele>
        <time>2024-04-29T16:27:59Z</time>
      </trkpt>
      <trkpt lat="45.80432" lon="4.4719">
        <ele>673.06</ele>
        <time>2024-04-29T16:28:16Z</time>
      </trkpt>
      <trkpt lat="45.80452" lon="4.47219">
        <ele>677.87</ele>
        <time>2024-04-29T16:28:35Z</time>
      </trkpt>
      <trkpt lat="45.80467" lon="4.47244">
        <ele>679.31</ele>
        <time>2024-04-29T16:28:51Z</time>
      </trkpt>
      <trkpt lat="45.80483" lon="4.47285">
        <ele>680.75</ele>
        <time>2024-04-29T16:29:14Z</time>
      </trkpt>
      <trkpt lat="45.80495" lon="4.47326">
        <ele>683.15</ele>
        <time>2024-04-29T16:29:35Z</time>
      </trkpt>
      <trkpt lat="45.80518" lon="4.47332">
        <ele>687.96</ele>
        <time>2024-04-29T16:29:53Z</time>
      </trkpt>
      <trkpt lat="45.80545" lon="4.47327">
        <ele>688.92</ele>
        <time>2024-04-29T16:30:12Z</time>
      </trkpt>
      <trkpt lat="45.80576" lon="4.47305">
        <ele>687.96</ele>
        <time>2024-04-29T16:30:35Z</time>
      </trkpt>
      <trkpt lat="45.80607" lon="4.47289">
        <ele>687.48</ele>
        <time>2024-04-29T16:30:57Z</time>
      </trkpt>
      <trkpt lat="45.80642" lon="4.47269">
        <ele>688.92</ele>
        <time>2024-04-29T16:31:23Z</time>
      </trkpt>
      <trkpt lat="45.80662" lon="4.4726">
        <ele>687</ele>
        <time>2024-04-29T16:31:41Z</time>
      </trkpt>
      <trkpt lat="45.80684" lon="4.4726">
        <ele>683.63</ele>
        <time>2024-04-29T16:31:57Z</time>
      </trkpt>
      <trkpt lat="45.80719" lon="4.4727">
        <ele>689.4</ele>
        <time>2024-04-29T16:32:18Z</time>
      </trkpt>
      <trkpt lat="45.8075" lon="4.47264">
        <ele>694.69</ele>
        <time>2024-04-29T16:32:39Z</time>
      </trkpt>
      <trkpt lat="45.80776" lon="4.47248">
        <ele>685.56</ele>
        <time>2024-04-29T16:33:00Z</time>
      </trkpt>
      <trkpt lat="45.8081" lon="4.47228">
        <ele>681.71</ele>
        <time>2024-04-29T16:33:24Z</time>
      </trkpt>
      <trkpt lat="45.80839" lon="4.47212">
        <ele>682.67</ele>
        <time>2024-04-29T16:33:44Z</time>
      </trkpt>
      <trkpt lat="45.80871" lon="4.47214">
        <ele>683.63</ele>
        <time>2024-04-29T16:34:04Z</time>
      </trkpt>
      <trkpt lat="45.80899" lon="4.47234">
        <ele>685.56</ele>
        <time>2024-04-29T16:34:25Z</time>
      </trkpt>
      <trkpt lat="45.80925" lon="4.47249">
        <ele>687</ele>
        <time>2024-04-29T16:34:47Z</time>
      </trkpt>
      <trkpt lat="45.80925" lon="4.4725">
        <ele>687</ele>
        <time>2024-04-29T16:34:48Z</time>
      </trkpt>
      <trkpt lat="45.80924" lon="4.4726">
        <ele>687</ele>
        <time>2024-04-29T16:35:00Z</time>
      </trkpt>
      <trkpt lat="45.80931" lon="4.47244">
        <ele>686.52</ele>
        <time>2024-04-29T16:35:10Z</time>
      </trkpt>
      <trkpt lat="45.80967" lon="4.47234">
        <ele>686.52</ele>
        <time>2024-04-29T16:35:35Z</time>
      </trkpt>
      <trkpt lat="45.80996" lon="4.4723">
        <ele>687</ele>
        <time>2024-04-29T16:35:56Z</time>
      </trkpt>
      <trkpt lat="45.81022" lon="4.47235">
        <ele>686.52</ele>
        <time>2024-04-29T16:36:14Z</time>
      </trkpt>
      <trkpt lat="45.81054" lon="4.47258">
        <ele>683.15</ele>
        <time>2024-04-29T16:36:38Z</time>
      </trkpt>
      <trkpt lat="45.81089" lon="4.47267">
        <ele>685.08</ele>
        <time>2024-04-29T16:37:00Z</time>
      </trkpt>
      <trkpt lat="45.8112" lon="4.47261">
        <ele>684.6</ele>
        <time>2024-04-29T16:37:21Z</time>
      </trkpt>
      <trkpt lat="45.81145" lon="4.47233">
        <ele>685.56</ele>
        <time>2024-04-29T16:37:42Z</time>
      </trkpt>
      <trkpt lat="45.81167" lon="4.47191">
        <ele>686.04</ele>
        <time>2024-04-29T16:38:05Z</time>
      </trkpt>
      <trkpt lat="45.81181" lon="4.47157">
        <ele>688.44</ele>
        <time>2024-04-29T16:38:23Z</time>
      </trkpt>
      <trkpt lat="45.81194" lon="4.47122">
        <ele>687.96</ele>
        <time>2024-04-29T16:38:41Z</time>
      </trkpt>
      <trkpt lat="45.81211" lon="4.47091">
        <ele>686.04</ele>
        <time>2024-04-29T16:39:01Z</time>
      </trkpt>
      <trkpt lat="45.81237" lon="4.47067">
        <ele>683.63</ele>
        <time>2024-04-29T16:39:21Z</time>
      </trkpt>
      <trkpt lat="45.81263" lon="4.47053">
        <ele>676.91</ele>
        <time>2024-04-29T16:39:42Z</time>
      </trkpt>
      <trkpt lat="45.81277" lon="4.47041">
        <ele>672.1</ele>
        <time>2024-04-29T16:39:53Z</time>
      </trkpt>
      <trkpt lat="45.81305" lon="4.47017">
        <ele>667.29</ele>
        <time>2024-04-29T16:40:13Z</time>
      </trkpt>
      <trkpt lat="45.8133" lon="4.47002">
        <ele>662.01</ele>
        <time>2024-04-29T16:40:33Z</time>
      </trkpt>
      <trkpt lat="45.81362" lon="4.46988">
        <ele>659.12</ele>
        <time>2024-04-29T16:40:53Z</time>
      </trkpt>
      <trkpt lat="45.81388" lon="4.46977">
        <ele>657.68</ele>
        <time>2024-04-29T16:41:11Z</time>
      </trkpt>
      <trkpt lat="45.81412" lon="4.46958">
        <ele>654.8</ele>
        <time>2024-04-29T16:41:29Z</time>
      </trkpt>
      <trkpt lat="45.8144" lon="4.46933">
        <ele>651.43</ele>
        <time>2024-04-29T16:41:50Z</time>
      </trkpt>
      <trkpt lat="45.81463" lon="4.46908">
        <ele>647.59</ele>
        <time>2024-04-29T16:42:10Z</time>
      </trkpt>
      <trkpt lat="45.81484" lon="4.46889">
        <ele>645.66</ele>
        <time>2024-04-29T16:42:28Z</time>
      </trkpt>
      <trkpt lat="45.81498" lon="4.46859">
        <ele>644.22</ele>
        <time>2024-04-29T16:42:46Z</time>
      </trkpt>
      <trkpt lat="45.81509" lon="4.4682">
        <ele>640.86</ele>
        <time>2024-04-29T16:43:07Z</time>
      </trkpt>
      <trkpt lat="45.8152" lon="4.46786">
        <ele>637.49</ele>
        <time>2024-04-29T16:43:26Z</time>
      </trkpt>
      <trkpt lat="45.81521" lon="4.4678">
        <ele>637.01</ele>
        <time>2024-04-29T16:43:30Z</time>
      </trkpt>
      <trkpt lat="45.81529" lon="4.46745">
        <ele>633.17</ele>
        <time>2024-04-29T16:43:48Z</time>
      </trkpt>
      <trkpt lat="45.81545" lon="4.46717">
        <ele>628.84</ele>
        <time>2024-04-29T16:44:07Z</time>
      </trkpt>
      <trkpt lat="45.81557" lon="4.4669">
        <ele>624.99</ele>
        <time>2024-04-29T16:44:24Z</time>
      </trkpt>
      <trkpt lat="45.81569" lon="4.46664">
        <ele>622.11</ele>
        <time>2024-04-29T16:44:42Z</time>
      </trkpt>
      <trkpt lat="45.81583" lon="4.46632">
        <ele>618.75</ele>
        <time>2024-04-29T16:45:03Z</time>
      </trkpt>
      <trkpt lat="45.81592" lon="4.4662">
        <ele>613.94</ele>
        <time>2024-04-29T16:45:17Z</time>
      </trkpt>
      <trkpt lat="45.81605" lon="4.46586">
        <ele>606.25</ele>
        <time>2024-04-29T16:45:38Z</time>
      </trkpt>
      <trkpt lat="45.81624" lon="4.46548">
        <ele>598.56</ele>
        <time>2024-04-29T16:45:59Z</time>
      </trkpt>
      <trkpt lat="45.81633" lon="4.46533">
        <ele>594.71</ele>
        <time>2024-04-29T16:46:15Z</time>
      </trkpt>
      <trkpt lat="45.81644" lon="4.465">
        <ele>591.83</ele>
        <time>2024-04-29T16:46:33Z</time>
      </trkpt>
      <trkpt lat="45.81652" lon="4.46468">
        <ele>587.98</ele>
        <time>2024-04-29T16:46:52Z</time>
      </trkpt>
      <trkpt lat="45.81659" lon="4.46436">
        <ele>586.06</ele>
        <time>2024-04-29T16:47:13Z</time>
      </trkpt>
      <trkpt lat="45.81659" lon="4.46408">
        <ele>583.66</ele>
        <time>2024-04-29T16:47:31Z</time>
      </trkpt>
      <trkpt lat="45.81669" lon="4.46404">
        <ele>581.73</ele>
        <time>2024-04-29T16:47:46Z</time>
      </trkpt>
      <trkpt lat="45.81683" lon="4.46443">
        <ele>583.18</ele>
        <time>2024-04-29T16:48:09Z</time>
      </trkpt>
      <trkpt lat="45.8169" lon="4.46446">
        <ele>585.58</ele>
        <time>2024-04-29T16:48:15Z</time>
      </trkpt>
      <trkpt lat="45.81718" lon="4.46452">
        <ele>588.95</ele>
        <time>2024-04-29T16:48:36Z</time>
      </trkpt>
      <trkpt lat="45.81748" lon="4.46448">
        <ele>593.27</ele>
        <time>2024-04-29T16:48:58Z</time>
      </trkpt>
      <trkpt lat="45.81775" lon="4.46447">
        <ele>597.12</ele>
        <time>2024-04-29T16:49:20Z</time>
      </trkpt>
      <trkpt lat="45.81798" lon="4.46452">
        <ele>599.04</ele>
        <time>2024-04-29T16:49:38Z</time>
      </trkpt>
      <trkpt lat="45.8183" lon="4.46459">
        <ele>600.48</ele>
        <time>2024-04-29T16:50:02Z</time>
      </trkpt>
      <trkpt lat="45.81837" lon="4.46457">
        <ele>600.96</ele>
        <time>2024-04-29T16:50:18Z</time>
      </trkpt>
      <trkpt lat="45.81839" lon="4.46454">
        <ele>600.48</ele>
        <time>2024-04-29T16:50:40Z</time>
      </trkpt>
      <trkpt lat="45.81839" lon="4.46452">
        <ele>605.29</ele>
        <time>2024-04-29T16:51:11Z</time>
      </trkpt>
      <trkpt lat="45.81841" lon="4.46455">
        <ele>602.88</ele>
        <time>2024-04-29T16:51:41Z</time>
      </trkpt>
      <trkpt lat="45.81841" lon="4.46457">
        <ele>600.48</ele>
        <time>2024-04-29T16:52:08Z</time>
      </trkpt>
      <trkpt lat="45.81842" lon="4.46458">
        <ele>600.48</ele>
        <time>2024-04-29T16:52:28Z</time>
      </trkpt>
      <trkpt lat="45.81844" lon="4.46458">
        <ele>601.92</ele>
        <time>2024-04-29T16:52:53Z</time>
      </trkpt>
      <trkpt lat="45.81845" lon="4.46459">
        <ele>604.33</ele>
        <time>2024-04-29T16:53:18Z</time>
      </trkpt>
      <trkpt lat="45.81845" lon="4.46459">
        <ele>604.33</ele>
        <time>2024-04-29T16:53:41Z</time>
      </trkpt>
      <trkpt lat="45.81847" lon="4.46454">
        <ele>603.36</ele>
        <time>2024-04-29T16:54:07Z</time>
      </trkpt>
      <trkpt lat="45.81847" lon="4.46453">
        <ele>602.88</ele>
        <time>2024-04-29T16:54:09Z</time>
      </trkpt>
      <trkpt lat="45.81848" lon="4.46449">
        <ele>605.29</ele>
        <time>2024-04-29T16:54:23Z</time>
      </trkpt>
      <trkpt lat="45.81849" lon="4.46448">
        <ele>611.06</ele>
        <time>2024-04-29T16:54:48Z</time>
      </trkpt>
      <trkpt lat="45.81848" lon="4.46444">
        <ele>610.09</ele>
        <time>2024-04-29T16:55:12Z</time>
      </trkpt>
      <trkpt lat="45.81852" lon="4.46445">
        <ele>608.17</ele>
        <time>2024-04-29T16:55:26Z</time>
      </trkpt>
      <trkpt lat="45.81848" lon="4.46453">
        <ele>603.36</ele>
        <time>2024-04-29T16:55:38Z</time>
      </trkpt>
      <trkpt lat="45.81845" lon="4.46457">
        <ele>600</ele>
        <time>2024-04-29T16:55:55Z</time>
      </trkpt>
      <trkpt lat="45.81843" lon="4.46459">
        <ele>598.56</ele>
        <time>2024-04-29T16:56:12Z</time>
      </trkpt>
      <trkpt lat="45.81841" lon="4.4646">
        <ele>597.6</ele>
        <time>2024-04-29T16:56:27Z</time>
      </trkpt>
      <trkpt lat="45.81843" lon="4.46455">
        <ele>600</ele>
        <time>2024-04-29T16:56:53Z</time>
      </trkpt>
      <trkpt lat="45.81844" lon="4.46456">
        <ele>600.48</ele>
        <time>2024-04-29T16:57:21Z</time>
      </trkpt>
      <trkpt lat="45.81846" lon="4.46447">
        <ele>600.48</ele>
        <time>2024-04-29T16:57:39Z</time>
      </trkpt>
      <trkpt lat="45.8185" lon="4.46445">
        <ele>601.44</ele>
        <time>2024-04-29T16:57:58Z</time>
      </trkpt>
      <trkpt lat="45.8185" lon="4.4645">
        <ele>603.36</ele>
        <time>2024-04-29T16:58:19Z</time>
      </trkpt>
      <trkpt lat="45.81851" lon="4.46447">
        <ele>605.77</ele>
        <time>2024-04-29T16:58:43Z</time>
      </trkpt>
      <trkpt lat="45.81844" lon="4.46452">
        <ele>601.92</ele>
        <time>2024-04-29T16:59:00Z</time>
      </trkpt>
      <trkpt lat="45.81844" lon="4.46454">
        <ele>598.56</ele>
        <time>2024-04-29T16:59:17Z</time>
      </trkpt>
      <trkpt lat="45.81845" lon="4.46455">
        <ele>599.04</ele>
        <time>2024-04-29T16:59:36Z</time>
      </trkpt>
      <trkpt lat="45.81847" lon="4.46449">
        <ele>601.92</ele>
        <time>2024-04-29T16:59:54Z</time>
      </trkpt>
      <trkpt lat="45.81854" lon="4.46442">
        <ele>603.36</ele>
        <time>2024-04-29T17:00:09Z</time>
      </trkpt>
      <trkpt lat="45.81852" lon="4.46441">
        <ele>600.96</ele>
        <time>2024-04-29T17:00:23Z</time>
      </trkpt>
      <trkpt lat="45.81851" lon="4.4644">
        <ele>600.48</ele>
        <time>2024-04-29T17:00:43Z</time>
      </trkpt>
      <trkpt lat="45.81853" lon="4.46435">
        <ele>597.6</ele>
        <time>2024-04-29T17:01:12Z</time>
      </trkpt>
      <trkpt lat="45.81851" lon="4.46434">
        <ele>607.69</ele>
        <time>2024-04-29T17:01:30Z</time>
      </trkpt>
      <trkpt lat="45.81852" lon="4.46436">
        <ele>606.73</ele>
        <time>2024-04-29T17:01:45Z</time>
      </trkpt>
      <trkpt lat="45.81851" lon="4.46438">
        <ele>606.73</ele>
        <time>2024-04-29T17:02:06Z</time>
      </trkpt>
      <trkpt lat="45.81853" lon="4.46442">
        <ele>606.73</ele>
        <time>2024-04-29T17:02:19Z</time>
      </trkpt>
      <trkpt lat="45.8185" lon="4.46447">
        <ele>606.25</ele>
        <time>2024-04-29T17:02:37Z</time>
      </trkpt>
      <trkpt lat="45.81848" lon="4.46444">
        <ele>606.73</ele>
        <time>2024-04-29T17:03:06Z</time>
      </trkpt>
      <trkpt lat="45.81846" lon="4.46447">
        <ele>605.29</ele>
        <time>2024-04-29T17:03:30Z</time>
      </trkpt>
      <trkpt lat="45.81842" lon="4.46449">
        <ele>601.44</ele>
        <time>2024-04-29T17:03:47Z</time>
      </trkpt>
      <trkpt lat="45.81841" lon="4.46452">
        <ele>601.44</ele>
        <time>2024-04-29T17:04:10Z</time>
      </trkpt>
      <trkpt lat="45.81845" lon="4.46453">
        <ele>600.48</ele>
        <time>2024-04-29T17:04:35Z</time>
      </trkpt>
      <trkpt lat="45.81842" lon="4.46452">
        <ele>597.6</ele>
        <time>2024-04-29T17:05:21Z</time>
      </trkpt>
      <trkpt lat="45.81841" lon="4.46454">
        <ele>598.08</ele>
        <time>2024-04-29T17:05:53Z</time>
      </trkpt>
      <trkpt lat="45.81846" lon="4.46448">
        <ele>599.52</ele>
        <time>2024-04-29T17:06:08Z</time>
      </trkpt>
      <trkpt lat="45.8185" lon="4.46447">
        <ele>601.44</ele>
        <time>2024-04-29T17:06:23Z</time>
      </trkpt>
      <trkpt lat="45.81851" lon="4.46445">
        <ele>604.33</ele>
        <time>2024-04-29T17:06:48Z</time>
      </trkpt>
      <trkpt lat="45.81853" lon="4.46445">
        <ele>605.29</ele>
        <time>2024-04-29T17:07:17Z</time>
      </trkpt>
      <trkpt lat="45.81845" lon="4.46453">
        <ele>602.4</ele>
        <time>2024-04-29T17:07:32Z</time>
      </trkpt>
      <trkpt lat="45.81846" lon="4.46463">
        <ele>602.4</ele>
        <time>2024-04-29T17:07:49Z</time>
      </trkpt>
      <trkpt lat="45.81852" lon="4.46466">
        <ele>605.29</ele>
        <time>2024-04-29T17:08:04Z</time>
      </trkpt>
      <trkpt lat="45.81843" lon="4.4647">
        <ele>604.81</ele>
        <time>2024-04-29T17:08:20Z</time>
      </trkpt>
      <trkpt lat="45.81845" lon="4.46468">
        <ele>605.29</ele>
        <time>2024-04-29T17:08:37Z</time>
      </trkpt>
      <trkpt lat="45.81844" lon="4.46469">
        <ele>604.33</ele>
        <time>2024-04-29T17:08:51Z</time>
      </trkpt>
      <trkpt lat="45.81844" lon="4.46469">
        <ele>604.33</ele>
        <time>2024-04-29T17:08:52Z</time>
      </trkpt>
      <trkpt lat="45.81839" lon="4.46483">
        <ele>605.77</ele>
        <time>2024-04-29T17:09:09Z</time>
      </trkpt>
      <trkpt lat="45.81838" lon="4.46485">
        <ele>605.29</ele>
        <time>2024-04-29T17:09:26Z</time>
      </trkpt>
      <trkpt lat="45.81837" lon="4.46485">
        <ele>606.73</ele>
        <time>2024-04-29T17:09:42Z</time>
      </trkpt>
      <trkpt lat="45.81837" lon="4.46481">
        <ele>606.73</ele>
        <time>2024-04-29T17:10:00Z</time>
      </trkpt>
      <trkpt lat="45.81836" lon="4.46479">
        <ele>607.69</ele>
        <time>2024-04-29T17:10:22Z</time>
      </trkpt>
      <trkpt lat="45.81837" lon="4.46481">
        <ele>609.61</ele>
        <time>2024-04-29T17:10:49Z</time>
      </trkpt>
      <trkpt lat="45.81834" lon="4.46482">
        <ele>610.57</ele>
        <time>2024-04-29T17:11:21Z</time>
      </trkpt>
      <trkpt lat="45.81835" lon="4.46481">
        <ele>612.02</ele>
        <time>2024-04-29T17:11:52Z</time>
      </trkpt>
      <trkpt lat="45.81839" lon="4.46475">
        <ele>610.09</ele>
        <time>2024-04-29T17:12:19Z</time>
      </trkpt>
      <trkpt lat="45.81845" lon="4.46469">
        <ele>606.73</ele>
        <time>2024-04-29T17:12:34Z</time>
      </trkpt>
      <trkpt lat="45.81852" lon="4.46464">
        <ele>606.73</ele>
        <time>2024-04-29T17:12:48Z</time>
      </trkpt>
      <trkpt lat="45.81842" lon="4.4646">
        <ele>605.77</ele>
        <time>2024-04-29T17:13:03Z</time>
      </trkpt>
      <trkpt lat="45.81841" lon="4.46453">
        <ele>604.81</ele>
        <time>2024-04-29T17:13:17Z</time>
      </trkpt>
      <trkpt lat="45.81847" lon="4.46446">
        <ele>603.85</ele>
        <time>2024-04-29T17:13:29Z</time>
      </trkpt>
      <trkpt lat="45.81852" lon="4.46445">
        <ele>605.29</ele>
        <time>2024-04-29T17:13:51Z</time>
      </trkpt>
      <trkpt lat="45.81853" lon="4.46445">
        <ele>606.73</ele>
        <time>2024-04-29T17:14:14Z</time>
      </trkpt>
      <trkpt lat="45.81851" lon="4.46442">
        <ele>604.81</ele>
        <time>2024-04-29T17:14:45Z</time>
      </trkpt>
      <trkpt lat="45.81853" lon="4.46443">
        <ele>603.85</ele>
        <time>2024-04-29T17:15:17Z</time>
      </trkpt>
      <trkpt lat="45.81852" lon="4.46443">
        <ele>603.85</ele>
        <time>2024-04-29T17:15:46Z</time>
      </trkpt>
      <trkpt lat="45.81854" lon="4.46447">
        <ele>602.88</ele>
        <time>2024-04-29T17:16:08Z</time>
      </trkpt>
      <trkpt lat="45.81849" lon="4.46451">
        <ele>602.88</ele>
        <time>2024-04-29T17:16:22Z</time>
      </trkpt>
      <trkpt lat="45.81843" lon="4.46456">
        <ele>599.52</ele>
        <time>2024-04-29T17:16:37Z</time>
      </trkpt>
      <trkpt lat="45.81839" lon="4.46456">
        <ele>599.04</ele>
        <time>2024-04-29T17:17:08Z</time>
      </trkpt>
      <trkpt lat="45.81842" lon="4.46459">
        <ele>600</ele>
        <time>2024-04-29T17:17:30Z</time>
      </trkpt>
      <trkpt lat="45.81851" lon="4.46454">
        <ele>603.85</ele>
        <time>2024-04-29T17:17:52Z</time>
      </trkpt>
      <trkpt lat="45.81864" lon="4.46451">
        <ele>612.02</ele>
        <time>2024-04-29T17:18:11Z</time>
      </trkpt>
      <trkpt lat="45.81874" lon="4.46447">
        <ele>617.3</ele>
        <time>2024-04-29T17:18:27Z</time>
      </trkpt>
      <trkpt lat="45.81876" lon="4.46452">
        <ele>620.67</ele>
        <time>2024-04-29T17:18:41Z</time>
        <extensions>
          <visugpx:TrkExtension xmlns:visugpx="https://www.visugpx.com/editgpx/">
            <visugpx:node>1</visugpx:node>
            </visugpx:TrkExtension>
        </extensions>
      </trkpt>
    </trkseg>
  </trk>
</gpx>